Darstellungsparameter: Aktuell verwendete Einstellungen:
Skalierung der Graphiken ... ?
xyx+y,   Skalierungsfaktor:      Skalierung: Modus: x, Faktor: 1
Darstellungszeitraum ... ?
Vom - - bis: - -   Zeitraum: 29.05.2011 - 28.06.2011
Min/Max/Avg-Anzeige ... ?
Zeige MMA aktuell
Zeige MMA Monat
Zeige MMA alles
Zeige --A aktuell
Zeige --A Monat
Zeige --A alles
Keine MMA-Anzeige
MMA:
Average (ber die Originaldaten)
MMA-Basis: 23.02.2003 - 29.09.2020
Quicknavigation für Darstellung... ?
Tage:      1T, 2T, 3T, 5T -1T -2T -3T -5T +1T +2T +3T +5T
Wochen: 1W, 2W, 3W -1W -2W -3W +1W +2W +3W
Monate: 1M, 3M, 6M -1M -3M -6M +1M +3M +6M
Jahre:    1J, 3J, 5J, 10J -1J -3J -5J -10J +1J +3J +5J +10J
Nutze für die Darstellung ... ?
Originaldaten oder Mittelwerte auf ...
Stundenbasis Tagesbasis Wochenbasis
Monatsbasis Jahresbasis      Datenbasis: Original-Daten
Darstellen als:
Statistik (Auto) Statistik J:M      Darstellung:
Zur Graphik,    zurück zur Übersicht aller Sensoren.
 
Tabellarische Datenbersicht: ?
 
Sensor: Nr:Datum:Temp:Abs-Feuchte:Windchill:Wind:
Aussen-T/F 1 29-05-2011 00:11:03 13.8 C 5.96 g/m*3 13.8 C 0 km/h
2 29-05-2011 00:23:03 13.6 C 6.12 g/m*3 13.6 C 0 km/h
3 29-05-2011 00:35:03 13 C 5.9 g/m*3 13 C 0 km/h
4 29-05-2011 00:47:03 12.7 C 6.23 g/m*3 12.7 C 0 km/h
5 29-05-2011 00:59:03 12.7 C 6.23 g/m*3 12.7 C 0 km/h
6 29-05-2011 01:11:03 12.6 C 6.08 g/m*3 12.6 C 0 km/h
7 29-05-2011 01:23:04 12.9 C 6.42 g/m*3 12.9 C 0 km/h
8 29-05-2011 01:35:04 13 C 6.12 g/m*3 13 C 0 km/h
9 29-05-2011 01:47:04 13 C 6.12 g/m*3 13 C 0 km/h
10 29-05-2011 01:59:04 12.9 C 6.31 g/m*3 12.9 C 0 km/h
11 29-05-2011 02:11:04 13.1 C 6.16 g/m*3 13.1 C 0 km/h
12 29-05-2011 02:23:04 13.2 C 6.32 g/m*3 13.2 C 0 km/h
13 29-05-2011 02:35:04 13.2 C 6.32 g/m*3 13.2 C 0 km/h
14 29-05-2011 02:47:04 13.2 C 6.43 g/m*3 13.2 C 0 km/h
15 29-05-2011 02:59:04 13.1 C 6.28 g/m*3 13.1 C 0 km/h
16 29-05-2011 03:11:04 12.7 C 6.35 g/m*3 12.7 C 0 km/h
17 29-05-2011 03:23:04 12.4 C 6.34 g/m*3 12.4 C 0 km/h
18 29-05-2011 03:35:04 12.9 C 6.31 g/m*3 12.9 C 0 km/h
19 29-05-2011 03:47:04 13.2 C 6.2 g/m*3 13.2 C 0 km/h
20 29-05-2011 03:59:04 13.4 C 6.04 g/m*3 13.4 C 0 km/h
21 29-05-2011 04:11:04 13.3 C 6.01 g/m*3 13.3 C 0 km/h
22 29-05-2011 04:23:04 13.4 C 6.04 g/m*3 13.4 C 0 km/h
23 29-05-2011 04:35:04 13.2 C 5.97 g/m*3 13.2 C 0 km/h
24 29-05-2011 04:47:04 13.2 C 6.09 g/m*3 13.2 C 0 km/h
25 29-05-2011 04:59:04 13.1 C 6.05 g/m*3 13.1 C 0 km/h
Sensor: Nr:Datum:Temp:Abs-Feuchte:Windchill:Wind:
Aussen-T/F 26 29-05-2011 05:11:04 12.8 C 6.05 g/m*3 12.8 C 0 km/h
27 29-05-2011 05:23:05 12.2 C 6.15 g/m*3 12.2 C 0 km/h
28 29-05-2011 05:35:05 11.7 C 6.38 g/m*3 11.7 C 0 km/h
29 29-05-2011 05:47:05 11.6 C 6.44 g/m*3 11.6 C 0 km/h
30 29-05-2011 05:59:05 11.7 C 6.59 g/m*3 11.7 C 0 km/h
31 29-05-2011 06:11:05 11.8 C 6.53 g/m*3 11.8 C 0 km/h
32 29-05-2011 06:23:05 12.1 C 6.43 g/m*3 12.1 C 0 km/h
33 29-05-2011 06:35:05 12 C 6.61 g/m*3 12 C 0 km/h
34 29-05-2011 06:47:05 12.2 C 6.69 g/m*3 12.2 C 0 km/h
35 29-05-2011 06:59:05 12.3 C 6.84 g/m*3 12.3 C 0 km/h
36 29-05-2011 07:11:05 12.5 C 7.04 g/m*3 12.5 C 0 km/h
37 29-05-2011 07:23:05 12.6 C 6.97 g/m*3 12.6 C 0 km/h
38 29-05-2011 07:35:05 12.6 C 7.08 g/m*3 12.6 C 0 km/h
39 29-05-2011 07:47:05 12.8 C 7.28 g/m*3 12.8 C 0 km/h
40 29-05-2011 07:59:05 13.5 C 6.67 g/m*3 13.5 C 0 km/h
41 29-05-2011 08:11:05 14.6 C 6.38 g/m*3 14.6 C 0 km/h
42 29-05-2011 08:23:05 14.2 C 6.11 g/m*3 14.2 C 0 km/h
43 29-05-2011 08:35:05 14.7 C 6.3 g/m*3 14.7 C 0 km/h
44 29-05-2011 08:47:05 15.2 C 6.23 g/m*3 15.2 C 0 km/h
45 29-05-2011 08:59:05 15.2 C 6.23 g/m*3 15.2 C 0 km/h
46 29-05-2011 09:11:05 15.4 C 6.31 g/m*3 15.4 C 0 km/h
47 29-05-2011 09:23:03 15.6 C 6.38 g/m*3 15.6 C 0 km/h
48 29-05-2011 09:35:03 16 C 6.13 g/m*3 16 C 0 km/h
49 29-05-2011 09:47:02 16.7 C 6.25 g/m*3 16.7 C 0 km/h
50 29-05-2011 09:59:02 16.4 C 6.28 g/m*3 16.4 C 0 km/h
Sensor: Nr:Datum:Temp:Abs-Feuchte:Windchill:Wind:
Aussen-T/F 51 29-05-2011 10:11:03 16.8 C 6.43 g/m*3 16.8 C 0 km/h
52 29-05-2011 10:23:02 16.8 C 6.29 g/m*3 16.8 C 0 km/h
53 29-05-2011 10:35:02 17.6 C 6.45 g/m*3 17.6 C 0 km/h
54 29-05-2011 10:47:02 17.6 C 6.15 g/m*3 17.6 C 0 km/h
55 29-05-2011 10:59:02 18.4 C 6.29 g/m*3 18.4 C 0 km/h
56 29-05-2011 11:11:01 19.5 C 6.38 g/m*3 19.5 C 0 km/h
57 29-05-2011 11:23:02 19.6 C 6.25 g/m*3 19.6 C 0 km/h
58 29-05-2011 11:35:02 20.7 C 6.48 g/m*3 20.7 C 0 km/h
59 29-05-2011 11:47:02 20.1 C 6.43 g/m*3 20.1 C 0 km/h
60 29-05-2011 11:59:02 20.4 C 6.19 g/m*3 20.4 C 0 km/h
61 29-05-2011 12:11:03 20.4 C 6.19 g/m*3 20.4 C 0 km/h
62 29-05-2011 12:23:02 20.8 C 6.34 g/m*3 20.8 C 0 km/h
63 29-05-2011 12:35:02 21.5 C 6.22 g/m*3 21.5 C 0 km/h
64 29-05-2011 12:47:01 20.8 C 6.16 g/m*3 20.8 C 0 km/h
65 29-05-2011 12:59:01 21.3 C 6.15 g/m*3 21.3 C 0 km/h
66 29-05-2011 13:11:02 22.5 C 5.99 g/m*3 22.5 C 0 km/h
67 29-05-2011 13:23:01 25.6 C 5.48 g/m*3 25.6 C 0 km/h
68 29-05-2011 13:35:02 24.6 C 4.95 g/m*3 24.6 C 0 km/h
69 29-05-2011 13:47:01 27.5 C 5.29 g/m*3 27.5 C 0 km/h
70 29-05-2011 13:59:01 25.6 C 4.76 g/m*3 25.6 C 0 km/h
71 29-05-2011 14:11:02 27.5 C 5.29 g/m*3 27.5 C 0 km/h
72 29-05-2011 14:23:01 29.5 C 5.9 g/m*3 29.5 C 0 km/h
73 29-05-2011 14:35:02 28.5 C 5.59 g/m*3 28.5 C 0 km/h
74 29-05-2011 14:47:01 27.5 C 5.29 g/m*3 27.5 C 0 km/h
75 29-05-2011 14:59:01 28.2 C 5.5 g/m*3 28.2 C 0 km/h
Sensor: Nr:Datum:Temp:Abs-Feuchte:Windchill:Wind:
Aussen-T/F 76 29-05-2011 15:11:02 29.2 C 5.81 g/m*3 29.2 C 0 km/h
77 29-05-2011 15:23:02 28.6 C 5.62 g/m*3 28.6 C 0 km/h
78 29-05-2011 15:35:01 29.1 C 5.78 g/m*3 29.1 C 0 km/h
79 29-05-2011 15:47:02 29.4 C 5.87 g/m*3 29.4 C 0 km/h
80 29-05-2011 15:59:02 28.6 C 5.62 g/m*3 28.6 C 0 km/h
81 29-05-2011 16:11:01 29 C 5.74 g/m*3 29 C 0 km/h
82 29-05-2011 16:23:02 30.4 C 6.2 g/m*3 30.4 C 0 km/h
83 29-05-2011 16:35:01 28.2 C 5.5 g/m*3 28.2 C 0 km/h
84 29-05-2011 16:47:03 30.5 C 6.23 g/m*3 30.5 C 0 km/h
85 29-05-2011 16:59:03 30.2 C 6.13 g/m*3 30.2 C 0 km/h
86 29-05-2011 17:11:02 30 C 6.06 g/m*3 30 C 0 km/h
87 29-05-2011 17:23:02 28.9 C 5.71 g/m*3 28.9 C 0 km/h
88 29-05-2011 17:35:02 29.6 C 5.94 g/m*3 29.6 C 0 km/h
89 29-05-2011 17:47:02 29.7 C 5.97 g/m*3 29.7 C 0 km/h
90 29-05-2011 17:59:02 29.8 C 6 g/m*3 29.8 C 0 km/h
91 29-05-2011 18:11:01 29.1 C 5.78 g/m*3 29.1 C 0 km/h
92 29-05-2011 18:23:02 29.5 C 5.9 g/m*3 29.5 C 0 km/h
93 29-05-2011 18:35:02 29.1 C 5.78 g/m*3 29.1 C 0 km/h
94 29-05-2011 18:47:02 28.9 C 5.71 g/m*3 28.9 C 0 km/h
95 29-05-2011 18:59:02 28.4 C 5.56 g/m*3 28.4 C 0 km/h
96 29-05-2011 19:11:03 27.6 C 5.32 g/m*3 27.6 C 0 km/h
97 29-05-2011 19:23:02 27.7 C 5.35 g/m*3 27.7 C 0 km/h
98 29-05-2011 19:35:02 27.6 C 5.32 g/m*3 27.6 C 0 km/h
99 29-05-2011 19:47:01 25.5 C 5.68 g/m*3 25.5 C 0 km/h
100 29-05-2011 19:59:01 24.6 C 5.85 g/m*3 24.6 C 0 km/h
Sensor: Nr:Datum:Temp:Abs-Feuchte:Windchill:Wind:
Aussen-T/F 101 29-05-2011 20:11:02 23.8 C 6.45 g/m*3 23.8 C 0 km/h
102 29-05-2011 20:23:01 23.2 C 6.65 g/m*3 23.2 C 0 km/h
103 29-05-2011 20:35:02 22.1 C 7.03 g/m*3 22.1 C 0 km/h
104 29-05-2011 20:47:01 21.2 C 7.23 g/m*3 21.2 C 0 km/h
105 29-05-2011 20:59:01 20.3 C 7.21 g/m*3 20.3 C 0 km/h
106 29-05-2011 21:11:02 19.5 C 7.22 g/m*3 19.5 C 0 km/h
107 29-05-2011 21:23:01 18.9 C 7.13 g/m*3 18.9 C 0 km/h
108 29-05-2011 21:35:02 18.3 C 7.19 g/m*3 18.3 C 0 km/h
109 29-05-2011 21:47:01 17.9 C 7.18 g/m*3 17.9 C 0 km/h
110 29-05-2011 21:59:01 17.5 C 7.31 g/m*3 17.5 C 0 km/h
111 29-05-2011 22:11:02 17.2 C 7.18 g/m*3 17.2 C 0 km/h
112 29-05-2011 22:24:02 16.6 C 7.2 g/m*3 16.6 C 0 km/h
113 29-05-2011 22:36:02 16.1 C 6.99 g/m*3 16.1 C 0 km/h
114 29-05-2011 22:48:02 15.8 C 7.13 g/m*3 15.8 C 0 km/h
115 29-05-2011 23:00:02 15.7 C 7.23 g/m*3 15.7 C 0 km/h
116 29-05-2011 23:12:02 15.3 C 7.05 g/m*3 15.3 C 0 km/h
117 29-05-2011 23:24:02 14.9 C 7.01 g/m*3 14.9 C 0 km/h
118 29-05-2011 23:36:02 14.6 C 7.01 g/m*3 14.6 C 0 km/h
119 29-05-2011 23:48:02 14.4 C 7.05 g/m*3 14.4 C 0 km/h
120 30-05-2011 00:00:02 14.2 C 7.08 g/m*3 14.2 C 0 km/h
121 30-05-2011 00:12:02 14.1 C 7.04 g/m*3 14.1 C 0 km/h
122 30-05-2011 00:24:02 13.9 C 7.19 g/m*3 13.9 C 0 km/h
123 30-05-2011 00:36:02 13.7 C 7.1 g/m*3 13.7 C 0 km/h
124 30-05-2011 00:48:02 13.6 C 7.3 g/m*3 13.6 C 0 km/h
125 30-05-2011 01:00:02 13.3 C 7.28 g/m*3 13.3 C 0 km/h
Sensor: Nr:Datum:Temp:Abs-Feuchte:Windchill:Wind:
Aussen-T/F 126 30-05-2011 01:12:02 13.5 C 7.49 g/m*3 13.5 C 0 km/h
127 30-05-2011 01:24:02 13.2 C 7.35 g/m*3 13.2 C 0 km/h
128 30-05-2011 01:36:02 13.1 C 7.42 g/m*3 13.1 C 0 km/h
129 30-05-2011 01:48:02 12.9 C 7.33 g/m*3 12.9 C 0 km/h
130 30-05-2011 02:00:02 12.5 C 7.37 g/m*3 12.5 C 0 km/h
131 30-05-2011 02:12:02 12.2 C 7.12 g/m*3 12.2 C 0 km/h
132 30-05-2011 02:24:03 11.9 C 7.31 g/m*3 11.9 C 0 km/h
133 30-05-2011 02:36:03 11.7 C 7.43 g/m*3 11.7 C 0 km/h
134 30-05-2011 02:48:03 11.6 C 7.38 g/m*3 11.6 C 0 km/h
135 30-05-2011 03:00:03 11.3 C 7.45 g/m*3 11.3 C 0 km/h
136 30-05-2011 03:12:03 11 C 7.31 g/m*3 11 C 0 km/h
137 30-05-2011 03:24:03 11 C 7.51 g/m*3 11 C 0 km/h
138 30-05-2011 03:36:03 10.7 C 7.56 g/m*3 10.7 C 0 km/h
139 30-05-2011 03:48:03 10.7 C 7.56 g/m*3 10.7 C 0 km/h
140 30-05-2011 04:00:03 10.6 C 7.52 g/m*3 10.6 C 0 km/h
141 30-05-2011 04:12:03 10.6 C 7.52 g/m*3 10.6 C 0 km/h
142 30-05-2011 04:24:03 10.4 C 7.52 g/m*3 10.4 C 0 km/h
143 30-05-2011 04:36:03 10.1 C 7.38 g/m*3 10.1 C 0 km/h
144 30-05-2011 04:48:03 9.9 C 7.38 g/m*3 9.9 C 0 km/h
145 30-05-2011 05:00:03 9.8 C 7.33 g/m*3 9.8 C 0 km/h
146 30-05-2011 05:12:03 9.7 C 7.38 g/m*3 9.7 C 0 km/h
147 30-05-2011 05:24:03 9.6 C 7.42 g/m*3 9.6 C 0 km/h
148 30-05-2011 05:36:03 9.4 C 7.33 g/m*3 9.4 C 0 km/h
149 30-05-2011 05:48:03 9.3 C 7.28 g/m*3 9.3 C 0 km/h
150 30-05-2011 06:00:03 9.4 C 7.42 g/m*3 9.4 C 0 km/h
Sensor: Nr:Datum:Temp:Abs-Feuchte:Windchill:Wind:
Aussen-T/F 151 30-05-2011 06:12:03 9.5 C 7.55 g/m*3 9.5 C 0 km/h
152 30-05-2011 06:24:04 9.5 C 7.65 g/m*3 9.5 C 0 km/h
153 30-05-2011 06:36:02 9.7 C 7.74 g/m*3 9.7 C 0 km/h
154 30-05-2011 06:48:02 9.9 C 7.84 g/m*3 9.9 C 0 km/h
155 30-05-2011 07:00:02 10.1 C 7.85 g/m*3 10.1 C 0 km/h
156 30-05-2011 07:12:02 10.1 C 7.85 g/m*3 10.1 C 0 km/h
157 30-05-2011 07:24:02 10.3 C 7.95 g/m*3 10.3 C 0 km/h
158 30-05-2011 07:36:01 10.5 C 8.05 g/m*3 10.5 C 0 km/h
159 30-05-2011 07:48:02 10.7 C 8.15 g/m*3 10.7 C 0 km/h
160 30-05-2011 08:00:02 11 C 8.21 g/m*3 11 C 0 km/h
161 30-05-2011 08:12:01 11.7 C 8.68 g/m*3 11.7 C 0 km/h
162 30-05-2011 08:24:02 12.2 C 8.74 g/m*3 12.2 C 0 km/h
163 30-05-2011 08:36:02 12.7 C 8.91 g/m*3 12.7 C 0 km/h
164 30-05-2011 08:48:02 13.3 C 8.9 g/m*3 13.3 C 0 km/h
165 30-05-2011 09:00:02 13.9 C 9.11 g/m*3 13.9 C 0 km/h
166 30-05-2011 09:12:02 14.5 C 9.08 g/m*3 14.5 C 0 km/h
167 30-05-2011 09:24:03 15.3 C 9.01 g/m*3 15.3 C 0 km/h
168 30-05-2011 09:36:02 16 C 8.86 g/m*3 16 C 0 km/h
169 30-05-2011 09:48:02 16.8 C 9.01 g/m*3 16.8 C 0 km/h
170 30-05-2011 10:00:02 17.5 C 9.24 g/m*3 17.5 C 0 km/h
171 30-05-2011 10:12:02 18.8 C 9.18 g/m*3 18.8 C 0 km/h
172 30-05-2011 10:24:02 19.8 C 9.22 g/m*3 19.8 C 0 km/h
173 30-05-2011 10:36:02 20.1 C 9.21 g/m*3 20.1 C 0 km/h
174 30-05-2011 10:48:02 20.9 C 8.74 g/m*3 20.9 C 0 km/h
175 30-05-2011 11:00:02 21.8 C 8.06 g/m*3 21.8 C 0 km/h
Sensor: Nr:Datum:Temp:Abs-Feuchte:Windchill:Wind:
Aussen-T/F 176 30-05-2011 11:12:02 23.4 C 7.36 g/m*3 23.4 C 0 km/h
177 30-05-2011 11:24:02 24.3 C 6.64 g/m*3 24.3 C 0 km/h
178 30-05-2011 11:36:02 24.5 C 6.94 g/m*3 24.5 C 0 km/h
179 30-05-2011 11:48:02 24.9 C 6.64 g/m*3 24.9 C 0 km/h
180 30-05-2011 12:00:02 25.1 C 6.94 g/m*3 25.1 C 0 km/h
181 30-05-2011 12:12:01 25.8 C 6.02 g/m*3 25.8 C 0 km/h
182 30-05-2011 12:24:02 26.5 C 5.26 g/m*3 26.5 C 0 km/h
183 30-05-2011 12:36:02 26.2 C 5.17 g/m*3 26.2 C 0 km/h
184 30-05-2011 12:48:02 26.7 C 5.57 g/m*3 26.7 C 0 km/h
185 30-05-2011 13:00:03 27.2 C 5.2 g/m*3 27.2 C 0 km/h
186 30-05-2011 13:12:02 27.6 C 5.32 g/m*3 27.6 C 0 km/h
187 30-05-2011 13:24:02 30.9 C 6.37 g/m*3 30.9 C 0 km/h
188 30-05-2011 13:36:03 31.7 C 6.64 g/m*3 31.7 C 0 km/h
189 30-05-2011 13:48:02 32.5 C 6.93 g/m*3 32.5 C 0 km/h
190 30-05-2011 14:00:02 31.8 C 6.68 g/m*3 31.8 C 0 km/h
191 30-05-2011 14:12:02 33.3 C 7.23 g/m*3 33.3 C 0 km/h
192 30-05-2011 14:24:02 31.8 C 6.68 g/m*3 31.8 C 0 km/h
193 30-05-2011 14:36:02 32.9 C 7.08 g/m*3 32.9 C 0 km/h
194 30-05-2011 14:48:02 31.9 C 6.72 g/m*3 31.9 C 0 km/h
195 30-05-2011 15:00:02 32.4 C 6.9 g/m*3 32.4 C 0 km/h
196 30-05-2011 15:12:02 33.6 C 7.35 g/m*3 33.6 C 0 km/h
197 30-05-2011 15:24:02 33.5 C 7.31 g/m*3 33.5 C 0 km/h
198 30-05-2011 15:36:02 33.7 C 7.39 g/m*3 33.7 C 0 km/h
199 30-05-2011 15:48:02 33.3 C 7.23 g/m*3 33.3 C 0 km/h
200 30-05-2011 16:00:02 32.9 C 7.08 g/m*3 32.9 C 0 km/h
Sensor: Nr:Datum:Temp:Abs-Feuchte:Windchill:Wind:
Aussen-T/F 201 30-05-2011 16:12:02 33.4 C 7.27 g/m*3 33.4 C 0 km/h
202 30-05-2011 16:24:02 33.3 C 7.23 g/m*3 33.3 C 0 km/h
203 30-05-2011 16:36:02 33.1 C 7.16 g/m*3 33.1 C 0 km/h
204 30-05-2011 16:48:01 33.7 C 7.39 g/m*3 33.7 C 0 km/h
205 30-05-2011 17:00:01 32.6 C 6.97 g/m*3 32.6 C 0 km/h
206 30-05-2011 17:12:01 31.5 C 6.57 g/m*3 31.5 C 0 km/h
207 30-05-2011 17:24:01 32.3 C 6.86 g/m*3 32.3 C 0 km/h
208 30-05-2011 17:36:01 31.3 C 6.5 g/m*3 31.3 C 0 km/h
209 30-05-2011 17:48:12 31.4 C 6.54 g/m*3 31.4 C 0 km/h
210 30-05-2011 18:00:12 33 C 7.12 g/m*3 33 C 0 km/h
211 30-05-2011 18:12:02 33.8 C 7.43 g/m*3 33.8 C 0 km/h
212 30-05-2011 18:24:02 33.7 C 7.39 g/m*3 33.7 C 0 km/h
213 30-05-2011 18:36:02 30.9 C 6.37 g/m*3 30.9 C 0 km/h
214 30-05-2011 18:48:02 32.3 C 6.86 g/m*3 32.3 C 0 km/h
215 30-05-2011 19:00:02 32.2 C 6.82 g/m*3 32.2 C 0 km/h
216 30-05-2011 19:12:02 32 C 6.75 g/m*3 32 C 0 km/h
217 30-05-2011 19:24:02 32 C 6.75 g/m*3 32 C 0 km/h
218 30-05-2011 19:36:02 31.2 C 6.47 g/m*3 31.2 C 0 km/h
219 30-05-2011 19:48:02 29.7 C 5.97 g/m*3 29.7 C 0 km/h
220 30-05-2011 20:00:02 29.1 C 6.35 g/m*3 29.1 C 0 km/h
221 30-05-2011 20:12:02 28.2 C 6.05 g/m*3 28.2 C 0 km/h
222 30-05-2011 20:24:03 27.1 C 7.25 g/m*3 27.1 C 0 km/h
223 30-05-2011 20:36:02 25.9 C 7.26 g/m*3 25.9 C 0 km/h
224 30-05-2011 20:48:02 24.3 C 7.3 g/m*3 24.3 C 0 km/h
225 30-05-2011 21:00:02 23.7 C 7.27 g/m*3 23.7 C 0 km/h
Sensor: Nr:Datum:Temp:Abs-Feuchte:Windchill:Wind:
Aussen-T/F 226 30-05-2011 21:12:02 23.2 C 7.07 g/m*3 23.2 C 0 km/h
227 30-05-2011 21:24:02 22.5 C 6.99 g/m*3 22.5 C 0 km/h
228 30-05-2011 21:36:02 22 C 6.99 g/m*3 22 C 0 km/h
229 30-05-2011 21:48:02 21.5 C 7.17 g/m*3 21.5 C 0 km/h
230 30-05-2011 22:00:02 21.1 C 7.19 g/m*3 21.1 C 0 km/h
231 30-05-2011 22:12:02 20.9 C 7.29 g/m*3 20.9 C 0 km/h
232 30-05-2011 22:24:01 20.7 C 7.2 g/m*3 20.7 C 0 km/h
233 30-05-2011 22:36:02 20.7 C 7.2 g/m*3 20.7 C 0 km/h
234 30-05-2011 22:48:02 21.2 C 7.04 g/m*3 21.2 C 0 km/h
235 30-05-2011 23:00:02 20.5 C 7.12 g/m*3 20.5 C 0 km/h
236 30-05-2011 23:12:02 20.8 C 7.06 g/m*3 20.8 C 0 km/h
237 30-05-2011 23:24:02 20.1 C 7.13 g/m*3 20.1 C 0 km/h
238 30-05-2011 23:36:02 19.3 C 7.13 g/m*3 19.3 C 0 km/h
239 30-05-2011 23:48:02 19.5 C 7.22 g/m*3 19.5 C 0 km/h
240 31-05-2011 00:00:02 19.8 C 7.17 g/m*3 19.8 C 0 km/h
241 31-05-2011 00:12:02 19.1 C 7.21 g/m*3 19.1 C 0 km/h
242 31-05-2011 00:24:02 18.6 C 7.32 g/m*3 18.6 C 0 km/h
243 31-05-2011 00:36:02 17.9 C 7.48 g/m*3 17.9 C 0 km/h
244 31-05-2011 00:48:02 17.4 C 7.41 g/m*3 17.4 C 0 km/h
245 31-05-2011 01:00:02 16.9 C 7.48 g/m*3 16.9 C 0 km/h
246 31-05-2011 01:12:02 16.6 C 7.49 g/m*3 16.6 C 0 km/h
247 31-05-2011 01:24:02 16.4 C 7.4 g/m*3 16.4 C 0 km/h
248 31-05-2011 01:36:03 16.3 C 7.49 g/m*3 16.3 C 0 km/h
249 31-05-2011 01:48:03 16.8 C 8.01 g/m*3 16.8 C 0 km/h
250 31-05-2011 02:00:03 16.6 C 8.05 g/m*3 16.6 C 0 km/h
Sensor: Nr:Datum:Temp:Abs-Feuchte:Windchill:Wind:
Aussen-T/F 251 31-05-2011 02:12:03 16.5 C 7.86 g/m*3 16.5 C 0 km/h
252 31-05-2011 02:24:03 17.2 C 7.61 g/m*3 17.2 C 0 km/h
253 31-05-2011 02:36:03 17.6 C 7.8 g/m*3 17.6 C 0 km/h
254 31-05-2011 02:48:03 17.3 C 7.81 g/m*3 17.3 C 0 km/h
255 31-05-2011 03:00:03 16.9 C 8.2 g/m*3 16.9 C 0 km/h
256 31-05-2011 03:12:03 17.2 C 8.05 g/m*3 17.2 C 0 km/h
257 31-05-2011 03:24:03 17.7 C 7.85 g/m*3 17.7 C 0 km/h
258 31-05-2011 03:36:03 17.3 C 7.81 g/m*3 17.3 C 0 km/h
259 31-05-2011 03:48:03 15.9 C 7.85 g/m*3 15.9 C 0 km/h
260 31-05-2011 04:00:03 15.2 C 7.79 g/m*3 15.2 C 0 km/h
261 31-05-2011 04:12:03 15.7 C 8.16 g/m*3 15.7 C 0 km/h
262 31-05-2011 04:24:03 15.9 C 8.13 g/m*3 15.9 C 0 km/h
263 31-05-2011 04:36:03 15.5 C 8.2 g/m*3 15.5 C 0 km/h
264 31-05-2011 04:48:03 15.4 C 8.28 g/m*3 15.4 C 0 km/h
265 31-05-2011 05:00:03 15.4 C 8.15 g/m*3 15.4 C 0 km/h
266 31-05-2011 05:12:03 15.3 C 8.23 g/m*3 15.3 C 0 km/h
267 31-05-2011 05:24:03 15.7 C 8.43 g/m*3 15.7 C 0 km/h
268 31-05-2011 05:36:04 15.8 C 8.35 g/m*3 15.8 C 0 km/h
269 31-05-2011 05:48:04 15.3 C 8.23 g/m*3 15.3 C 0 km/h
270 31-05-2011 06:00:04 15 C 8.33 g/m*3 15 C 0 km/h
271 31-05-2011 06:12:04 15.4 C 8.41 g/m*3 15.4 C 0 km/h
272 31-05-2011 06:24:04 16.4 C 8.51 g/m*3 16.4 C 0 km/h
273 31-05-2011 06:36:04 15.9 C 8.4 g/m*3 15.9 C 0 km/h
274 31-05-2011 06:48:04 15.9 C 8.8 g/m*3 15.9 C 0 km/h
275 31-05-2011 07:00:04 16.8 C 8.72 g/m*3 16.8 C 0 km/h
Sensor: Nr:Datum:Temp:Abs-Feuchte:Windchill:Wind:
Aussen-T/F 276 31-05-2011 07:12:04 17.2 C 8.79 g/m*3 17.2 C 0 km/h
277 31-05-2011 07:24:01 17.7 C 8.6 g/m*3 17.7 C 0 km/h
278 31-05-2011 07:36:02 18.3 C 8.29 g/m*3 18.3 C 0 km/h
279 31-05-2011 07:48:01 18.1 C 8.5 g/m*3 18.1 C 0 km/h
280 31-05-2011 08:00:01 18 C 8.75 g/m*3 18 C 0 km/h
281 31-05-2011 08:12:02 18.1 C 8.81 g/m*3 18.1 C 0 km/h
282 31-05-2011 08:24:01 18.6 C 8.59 g/m*3 18.6 C 0 km/h
283 31-05-2011 08:36:02 19.3 C 8.29 g/m*3 19.3 C 0 km/h
284 31-05-2011 08:48:01 19.8 C 8.2 g/m*3 19.8 C 0 km/h
285 31-05-2011 09:00:01 19.1 C 8.03 g/m*3 19.1 C 0 km/h
286 31-05-2011 09:12:02 18 C 8.29 g/m*3 18 C 0 km/h
287 31-05-2011 09:24:01 16.4 C 9.07 g/m*3 16.4 C 0 km/h
288 31-05-2011 09:36:01 16 C 9.95 g/m*3 16 C 0 km/h
289 31-05-2011 09:48:01 16.1 C 10.55 g/m*3 16.1 C 0 km/h
290 31-05-2011 10:00:01 16.3 C 10.68 g/m*3 16.3 C 0 km/h
291 31-05-2011 10:12:01 17.1 C 10.34 g/m*3 17.1 C 0 km/h
292 31-05-2011 10:24:02 17.5 C 10.14 g/m*3 17.5 C 0 km/h
293 31-05-2011 10:36:01 17.7 C 10.11 g/m*3 17.7 C 0 km/h
294 31-05-2011 10:48:01 17.3 C 9.87 g/m*3 17.3 C 0 km/h
295 31-05-2011 11:00:01 16.6 C 10.03 g/m*3 16.6 C 0 km/h
296 31-05-2011 11:12:01 15.8 C 10.23 g/m*3 15.8 C 0 km/h
297 31-05-2011 11:24:02 15.1 C 10.32 g/m*3 15.1 C 0 km/h
298 31-05-2011 11:36:01 14.4 C 10.14 g/m*3 14.4 C 0 km/h
299 31-05-2011 11:48:02 14.1 C 10.07 g/m*3 14.1 C 0 km/h
300 31-05-2011 12:00:02 14.4 C 10.38 g/m*3 14.4 C 0 km/h
Sensor: Nr:Datum:Temp:Abs-Feuchte:Windchill:Wind:
Aussen-T/F 301 31-05-2011 12:12:01 14.2 C 10.14 g/m*3 14.2 C 0 km/h
302 31-05-2011 12:24:02 14.4 C 10.38 g/m*3 14.4 C 0 km/h
303 31-05-2011 12:36:01 14.4 C 10.38 g/m*3 14.4 C 0 km/h
304 31-05-2011 12:48:02 14.4 C 10.38 g/m*3 14.4 C 0 km/h
305 31-05-2011 13:00:02 14.4 C 10.38 g/m*3 14.4 C 0 km/h
306 31-05-2011 13:12:01 14.8 C 10.64 g/m*3 14.8 C 0 km/h
307 31-05-2011 13:24:02 15.1 C 10.71 g/m*3 15.1 C 0 km/h
308 31-05-2011 13:36:01 14.9 C 10.71 g/m*3 14.9 C 0 km/h
309 31-05-2011 13:48:02 14.7 C 10.58 g/m*3 14.7 C 0 km/h
310 31-05-2011 14:00:02 14.7 C 10.58 g/m*3 14.7 C 0 km/h
311 31-05-2011 14:12:01 15 C 10.64 g/m*3 15 C 0 km/h
312 31-05-2011 14:24:01 15.3 C 10.84 g/m*3 15.3 C 0 km/h
313 31-05-2011 14:36:02 15.1 C 10.06 g/m*3 15.1 C 0 km/h
314 31-05-2011 14:48:01 14.8 C 10.26 g/m*3 14.8 C 0 km/h
315 31-05-2011 15:00:01 14.6 C 10.26 g/m*3 14.6 C 0 km/h
316 31-05-2011 15:12:02 14.5 C 10.2 g/m*3 14.5 C 0 km/h
317 31-05-2011 15:24:01 15.3 C 10.32 g/m*3 15.3 C 0 km/h
318 31-05-2011 15:36:02 15.4 C 10.25 g/m*3 15.4 C 0 km/h
319 31-05-2011 15:48:01 14.4 C 9.89 g/m*3 14.4 C 0 km/h
320 31-05-2011 16:00:01 14.2 C 9.52 g/m*3 14.2 C 0 km/h
321 31-05-2011 16:12:02 14.2 C 9.65 g/m*3 14.2 C 0 km/h
322 31-05-2011 16:24:01 14 C 9.41 g/m*3 14 C 0 km/h
323 31-05-2011 16:36:01 13.8 C 9.53 g/m*3 13.8 C 0 km/h
324 31-05-2011 16:48:01 13.7 C 9.59 g/m*3 13.7 C 0 km/h
325 31-05-2011 17:00:01 13.3 C 9.36 g/m*3 13.3 C 0 km/h
Sensor: Nr:Datum:Temp:Abs-Feuchte:Windchill:Wind:
Aussen-T/F 326 31-05-2011 17:12:02 13.2 C 9.19 g/m*3 13.2 C 0 km/h
327 31-05-2011 17:24:01 12.8 C 8.96 g/m*3 12.8 C 0 km/h
328 31-05-2011 17:36:01 13 C 9.07 g/m*3 13 C 0 km/h
329 31-05-2011 17:48:02 12.7 C 9.02 g/m*3 12.7 C 0 km/h
330 31-05-2011 18:00:02 12.6 C 8.96 g/m*3 12.6 C 0 km/h
331 31-05-2011 18:12:01 12.4 C 8.74 g/m*3 12.4 C 0 km/h
332 31-05-2011 18:24:02 12.5 C 8.69 g/m*3 12.5 C 0 km/h
333 31-05-2011 18:36:01 12.3 C 8.58 g/m*3 12.3 C 0 km/h
334 31-05-2011 18:48:02 12.2 C 8.52 g/m*3 12.2 C 0 km/h
335 31-05-2011 19:00:02 12.2 C 8.42 g/m*3 12.2 C 0 km/h
336 31-05-2011 19:12:01 12.2 C 8.42 g/m*3 12.2 C 0 km/h
337 31-05-2011 19:24:01 12 C 8.42 g/m*3 12 C 0 km/h
338 31-05-2011 19:36:01 11.9 C 8.58 g/m*3 11.9 C 0 km/h
339 31-05-2011 19:48:01 11.7 C 8.68 g/m*3 11.7 C 0 km/h
340 31-05-2011 20:00:02 11.8 C 8.84 g/m*3 11.8 C 0 km/h
341 31-05-2011 20:12:01 11.6 C 8.83 g/m*3 11.6 C 0 km/h
342 31-05-2011 20:24:01 11.8 C 9.05 g/m*3 11.8 C 0 km/h
343 31-05-2011 20:36:02 11.6 C 8.83 g/m*3 11.6 C 0 km/h
344 31-05-2011 20:48:01 11.6 C 8.83 g/m*3 11.6 C 0 km/h
345 31-05-2011 21:00:01 11.3 C 8.57 g/m*3 11.3 C 0 km/h
346 31-05-2011 21:12:02 11.2 C 8.51 g/m*3 11.2 C 0 km/h
347 31-05-2011 21:24:01 11 C 8.31 g/m*3 11 C 0 km/h
348 31-05-2011 21:36:02 10.8 C 8.3 g/m*3 10.8 C 0 km/h
349 31-05-2011 21:48:01 10.9 C 8.45 g/m*3 10.9 C 0 km/h
350 31-05-2011 22:00:01 10.8 C 8.5 g/m*3 10.8 C 0 km/h
Sensor: Nr:Datum:Temp:Abs-Feuchte:Windchill:Wind:
Aussen-T/F 351 31-05-2011 22:12:02 10.8 C 8.6 g/m*3 10.8 C 0 km/h
352 31-05-2011 22:24:01 10.7 C 8.55 g/m*3 10.7 C 0 km/h
353 31-05-2011 22:36:01 10.7 C 8.64 g/m*3 10.7 C 0 km/h
354 31-05-2011 22:49:05 10.7 C 8.64 g/m*3 10.7 C 0 km/h
355 31-05-2011 23:01:05 10.6 C 8.59 g/m*3 10.6 C 0 km/h
356 31-05-2011 23:13:05 10.6 C 8.59 g/m*3 10.6 C 0 km/h
357 31-05-2011 23:25:05 10.7 C 8.64 g/m*3 10.7 C 0 km/h
358 31-05-2011 23:37:05 10.7 C 8.64 g/m*3 10.7 C 0 km/h
359 31-05-2011 23:49:05 10.7 C 8.64 g/m*3 10.7 C 0 km/h
360 01-06-2011 00:01:05 10.5 C 8.53 g/m*3 10.5 C 0 km/h
361 01-06-2011 00:13:05 10.6 C 8.59 g/m*3 10.6 C 0 km/h
362 01-06-2011 00:25:05 10.7 C 8.55 g/m*3 10.7 C 0 km/h
363 01-06-2011 00:37:05 10.8 C 8.6 g/m*3 10.8 C 0 km/h
364 01-06-2011 00:49:05 10.6 C 8.49 g/m*3 10.6 C 0 km/h
365 01-06-2011 01:01:05 10.5 C 8.53 g/m*3 10.5 C 0 km/h
366 01-06-2011 01:13:05 10.4 C 8.48 g/m*3 10.4 C 0 km/h
367 01-06-2011 01:25:05 10.5 C 8.53 g/m*3 10.5 C 0 km/h
368 01-06-2011 01:37:05 10.5 C 8.53 g/m*3 10.5 C 0 km/h
369 01-06-2011 01:49:05 10.3 C 8.43 g/m*3 10.3 C 0 km/h
370 01-06-2011 02:01:06 10.4 C 8.48 g/m*3 10.4 C 0 km/h
371 01-06-2011 02:13:06 10.4 C 8.48 g/m*3 10.4 C 0 km/h
372 01-06-2011 02:25:06 10.1 C 8.32 g/m*3 10.1 C 0 km/h
373 01-06-2011 02:37:06 10.3 C 8.43 g/m*3 10.3 C 0 km/h
374 01-06-2011 02:49:06 10.2 C 8.37 g/m*3 10.2 C 0 km/h
375 01-06-2011 03:01:06 10.3 C 8.43 g/m*3 10.3 C 0 km/h
Sensor: Nr:Datum:Temp:Abs-Feuchte:Windchill:Wind:
Aussen-T/F 376 01-06-2011 03:13:06 10.4 C 8.48 g/m*3 10.4 C 0 km/h
377 01-06-2011 03:25:06 10.2 C 8.09 g/m*3 10.2 C 0 km/h
378 01-06-2011 03:37:06 10.1 C 7.85 g/m*3 10.1 C 0 km/h
379 01-06-2011 03:49:06 10.1 C 7.75 g/m*3 10.1 C 0 km/h
380 01-06-2011 04:01:06 10 C 7.71 g/m*3 10 C 0 km/h
381 01-06-2011 04:13:06 10.1 C 7.66 g/m*3 10.1 C 0 km/h
382 01-06-2011 04:25:06 10.1 C 7.56 g/m*3 10.1 C 0 km/h
383 01-06-2011 04:37:06 9.8 C 7.52 g/m*3 9.8 C 0 km/h
384 01-06-2011 04:49:06 9.7 C 7.65 g/m*3 9.7 C 0 km/h
385 01-06-2011 05:01:06 9.5 C 7.55 g/m*3 9.5 C 0 km/h
386 01-06-2011 05:13:06 9.6 C 7.69 g/m*3 9.6 C 0 km/h
387 01-06-2011 05:25:06 9.5 C 7.65 g/m*3 9.5 C 0 km/h
388 01-06-2011 05:37:06 9.5 C 7.65 g/m*3 9.5 C 0 km/h
389 01-06-2011 05:49:06 9.5 C 7.65 g/m*3 9.5 C 0 km/h
390 01-06-2011 06:01:06 9.7 C 7.74 g/m*3 9.7 C 0 km/h
391 01-06-2011 06:13:07 9.8 C 7.79 g/m*3 9.8 C 0 km/h
392 01-06-2011 06:25:07 9.8 C 7.7 g/m*3 9.8 C 0 km/h
393 01-06-2011 06:37:07 9.9 C 7.66 g/m*3 9.9 C 0 km/h
394 01-06-2011 06:49:07 10.1 C 7.47 g/m*3 10.1 C 0 km/h
395 01-06-2011 07:01:07 10.3 C 7.37 g/m*3 10.3 C 0 km/h
396 01-06-2011 07:13:07 10.4 C 7.32 g/m*3 10.4 C 0 km/h
397 01-06-2011 07:25:03 10.5 C 7.18 g/m*3 10.5 C 0 km/h
398 01-06-2011 07:37:04 10.6 C 7.12 g/m*3 10.6 C 0 km/h
399 01-06-2011 07:49:02 10.4 C 7.04 g/m*3 10.4 C 0 km/h
400 01-06-2011 08:01:01 10.2 C 6.95 g/m*3 10.2 C 0 km/h
Sensor: Nr:Datum:Temp:Abs-Feuchte:Windchill:Wind:
Aussen-T/F 401 01-06-2011 08:13:01 10.6 C 7.12 g/m*3 10.6 C 0 km/h
402 01-06-2011 08:25:02 11 C 7.01 g/m*3 11 C 0 km/h
403 01-06-2011 08:37:01 11.3 C 7.04 g/m*3 11.3 C 0 km/h
404 01-06-2011 08:49:01 11.5 C 6.92 g/m*3 11.5 C 0 km/h
405 01-06-2011 09:01:02 11.6 C 6.86 g/m*3 11.6 C 0 km/h
406 01-06-2011 09:13:02 11.9 C 6.88 g/m*3 11.9 C 0 km/h
407 01-06-2011 09:25:02 12 C 6.71 g/m*3 12 C 0 km/h
408 01-06-2011 09:37:02 12.4 C 6.77 g/m*3 12.4 C 0 km/h
409 01-06-2011 09:49:02 12.2 C 6.58 g/m*3 12.2 C 0 km/h
410 01-06-2011 10:01:01 12.2 C 6.58 g/m*3 12.2 C 0 km/h
411 01-06-2011 10:13:01 12.7 C 6.46 g/m*3 12.7 C 0 km/h
412 01-06-2011 10:25:02 12.7 C 5.9 g/m*3 12.7 C 0 km/h
413 01-06-2011 10:37:02 13.2 C 6.32 g/m*3 13.2 C 0 km/h
414 01-06-2011 10:49:02 13.2 C 6.32 g/m*3 13.2 C 0 km/h
415 01-06-2011 11:01:02 13.2 C 6.32 g/m*3 13.2 C 0 km/h
416 01-06-2011 11:13:02 13.2 C 6.32 g/m*3 13.2 C 0 km/h
417 01-06-2011 11:25:02 13.2 C 6.32 g/m*3 13.2 C 0 km/h
418 01-06-2011 11:37:02 13.2 C 6.32 g/m*3 13.2 C 0 km/h
419 01-06-2011 11:49:02 16 C 5.45 g/m*3 16 C 0 km/h
420 01-06-2011 12:01:03 16 C 5.45 g/m*3 16 C 0 km/h
421 01-06-2011 12:13:03 16 C 5.45 g/m*3 16 C 0 km/h
422 01-06-2011 12:25:02 17.1 C 5.68 g/m*3 17.1 C 0 km/h
423 01-06-2011 12:37:02 17.5 C 5.52 g/m*3 17.5 C 0 km/h
424 01-06-2011 12:49:02 18.1 C 5.56 g/m*3 18.1 C 0 km/h
425 01-06-2011 13:01:01 18.7 C 5.76 g/m*3 18.7 C 0 km/h
Sensor: Nr:Datum:Temp:Abs-Feuchte:Windchill:Wind:
Aussen-T/F 426 01-06-2011 13:13:01 17.7 C 5.28 g/m*3 17.7 C 0 km/h
427 01-06-2011 13:25:01 17.7 C 5.28 g/m*3 17.7 C 0 km/h
428 01-06-2011 13:37:01 18.5 C 5.54 g/m*3 18.5 C 0 km/h
429 01-06-2011 13:49:02 18.5 C 5.54 g/m*3 18.5 C 0 km/h
430 01-06-2011 14:01:02 18.5 C 5.54 g/m*3 18.5 C 0 km/h
431 01-06-2011 14:13:02 18.5 C 5.54 g/m*3 18.5 C 0 km/h
432 01-06-2011 14:25:02 20.6 C 5.01 g/m*3 20.6 C 0 km/h
433 01-06-2011 14:37:03 21 C 4.76 g/m*3 21 C 0 km/h
434 01-06-2011 14:49:02 19.8 C 4.95 g/m*3 19.8 C 0 km/h
435 01-06-2011 15:01:03 20.3 C 5.1 g/m*3 20.3 C 0 km/h
436 01-06-2011 15:13:03 23 C 4.93 g/m*3 23 C 0 km/h
437 01-06-2011 15:25:02 20.7 C 4.86 g/m*3 20.7 C 0 km/h
438 01-06-2011 15:37:02 20.5 C 4.98 g/m*3 20.5 C 0 km/h
439 01-06-2011 15:49:02 21.3 C 4.66 g/m*3 21.3 C 0 km/h
440 01-06-2011 16:01:03 22.1 C 3.9 g/m*3 22.1 C 0 km/h
441 01-06-2011 16:13:03 21.1 C 4.24 g/m*3 21.1 C 0 km/h
442 01-06-2011 16:25:03 21.7 C 4.39 g/m*3 21.7 C 0 km/h
443 01-06-2011 16:37:02 20.9 C 4.55 g/m*3 20.9 C 0 km/h
444 01-06-2011 16:49:02 21.7 C 4.77 g/m*3 21.7 C 0 km/h
445 01-06-2011 17:01:02 20.9 C 4.74 g/m*3 20.9 C 0 km/h
446 01-06-2011 17:13:02 21.6 C 4.74 g/m*3 21.6 C 0 km/h
447 01-06-2011 17:25:02 20.3 C 4.75 g/m*3 20.3 C 0 km/h
448 01-06-2011 17:37:03 19.7 C 5.09 g/m*3 19.7 C 0 km/h
449 01-06-2011 17:49:02 19.5 C 5.03 g/m*3 19.5 C 0 km/h
450 01-06-2011 18:01:03 19.6 C 5.06 g/m*3 19.6 C 0 km/h
Sensor: Nr:Datum:Temp:Abs-Feuchte:Windchill:Wind:
Aussen-T/F 451 01-06-2011 18:13:03 19.8 C 5.12 g/m*3 19.8 C 0 km/h
452 01-06-2011 18:25:02 19.9 C 5.15 g/m*3 19.9 C 0 km/h
453 01-06-2011 18:37:03 20.1 C 5.21 g/m*3 20.1 C 0 km/h
454 01-06-2011 18:49:02 20.1 C 5.56 g/m*3 20.1 C 0 km/h
455 01-06-2011 19:01:02 19.5 C 5.2 g/m*3 19.5 C 0 km/h
456 01-06-2011 19:13:02 19.8 C 5.64 g/m*3 19.8 C 0 km/h
457 01-06-2011 19:25:01 21 C 5.31 g/m*3 21 C 0 km/h
458 01-06-2011 19:37:02 22.8 C 4.47 g/m*3 22.8 C 0 km/h
459 01-06-2011 19:49:02 20 C 5.01 g/m*3 20 C 0 km/h
460 01-06-2011 20:01:02 18.9 C 5.18 g/m*3 18.9 C 0 km/h
461 01-06-2011 20:13:02 18.5 C 5.22 g/m*3 18.5 C 0 km/h
462 01-06-2011 20:25:02 18 C 5.38 g/m*3 18 C 0 km/h
463 01-06-2011 20:37:02 17.7 C 6.04 g/m*3 17.7 C 0 km/h
464 01-06-2011 20:49:02 17.9 C 6.41 g/m*3 17.9 C 0 km/h
465 01-06-2011 21:01:02 17.5 C 6.26 g/m*3 17.5 C 0 km/h
466 01-06-2011 21:13:02 17 C 5.93 g/m*3 17 C 0 km/h
467 01-06-2011 21:25:03 17.2 C 5.56 g/m*3 17.2 C 0 km/h
468 01-06-2011 21:37:03 17 C 5.64 g/m*3 17 C 0 km/h
469 01-06-2011 21:49:03 16.9 C 5.9 g/m*3 16.9 C 0 km/h
470 01-06-2011 22:01:03 16.6 C 5.93 g/m*3 16.6 C 0 km/h
471 01-06-2011 22:13:03 16.6 C 5.93 g/m*3 16.6 C 0 km/h
472 01-06-2011 22:25:02 16.2 C 7.03 g/m*3 16.2 C 0 km/h
473 01-06-2011 22:37:02 16.2 C 7.03 g/m*3 16.2 C 0 km/h
474 01-06-2011 22:49:02 15.8 C 6.19 g/m*3 15.8 C 0 km/h
475 01-06-2011 23:02:18 15.8 C 6.33 g/m*3 15.8 C 0 km/h
Sensor: Nr:Datum:Temp:Abs-Feuchte:Windchill:Wind:
Aussen-T/F 476 01-06-2011 23:14:18 15.9 C 5.96 g/m*3 15.9 C 0 km/h
477 01-06-2011 23:26:18 15.8 C 6.06 g/m*3 15.8 C 0 km/h
478 01-06-2011 23:38:18 15.8 C 6.06 g/m*3 15.8 C 0 km/h
479 01-06-2011 23:50:18 15.7 C 6.02 g/m*3 15.7 C 0 km/h
480 02-06-2011 00:02:18 15.5 C 6.21 g/m*3 15.5 C 0 km/h
481 02-06-2011 00:14:19 15.2 C 6.36 g/m*3 15.2 C 0 km/h
482 02-06-2011 00:26:19 15.2 C 6.23 g/m*3 15.2 C 0 km/h
483 02-06-2011 00:38:19 14.8 C 7.22 g/m*3 14.8 C 0 km/h
484 02-06-2011 00:50:19 14.3 C 7.25 g/m*3 14.3 C 0 km/h
485 02-06-2011 01:02:19 14.1 C 7.28 g/m*3 14.1 C 0 km/h
486 02-06-2011 01:14:19 13.9 C 7.43 g/m*3 13.9 C 0 km/h
487 02-06-2011 01:26:19 13.8 C 7.39 g/m*3 13.8 C 0 km/h
488 02-06-2011 01:38:19 13.8 C 7.27 g/m*3 13.8 C 0 km/h
489 02-06-2011 01:50:19 13.7 C 7.34 g/m*3 13.7 C 0 km/h
490 02-06-2011 02:02:19 13.7 C 7.46 g/m*3 13.7 C 0 km/h
491 02-06-2011 02:14:19 13.5 C 7.37 g/m*3 13.5 C 0 km/h
492 02-06-2011 02:26:19 13.5 C 7.25 g/m*3 13.5 C 0 km/h
493 02-06-2011 02:38:19 13.3 C 6.93 g/m*3 13.3 C 0 km/h
494 02-06-2011 02:50:19 13.3 C 7.16 g/m*3 13.3 C 0 km/h
495 02-06-2011 03:02:19 13.1 C 6.85 g/m*3 13.1 C 0 km/h
496 02-06-2011 03:14:19 12.7 C 6.68 g/m*3 12.7 C 0 km/h
497 02-06-2011 03:26:19 12.2 C 6.58 g/m*3 12.2 C 0 km/h
498 02-06-2011 03:38:19 11.4 C 6.47 g/m*3 11.4 C 0 km/h
499 02-06-2011 03:50:19 10.7 C 6.38 g/m*3 10.7 C 0 km/h
500 02-06-2011 04:02:19 10.4 C 6.36 g/m*3 10.4 C 0 km/h
Sensor: Nr:Datum:Temp:Abs-Feuchte:Windchill:Wind:
Aussen-T/F 501 02-06-2011 04:14:20 10.5 C 6.3 g/m*3 10.5 C 0 km/h
502 02-06-2011 04:26:20 10.7 C 6.38 g/m*3 10.7 C 0 km/h
503 02-06-2011 04:38:20 10.6 C 6.25 g/m*3 10.6 C 0 km/h
504 02-06-2011 04:50:20 10 C 6.2 g/m*3 10 C 0 km/h
505 02-06-2011 05:02:20 9.6 C 6.23 g/m*3 9.6 C 0 km/h
506 02-06-2011 05:14:20 9.2 C 6.16 g/m*3 9.2 C 0 km/h
507 02-06-2011 05:26:20 9.1 C 6.21 g/m*3 9.1 C 0 km/h
508 02-06-2011 05:38:20 8.9 C 6.31 g/m*3 8.9 C 0 km/h
509 02-06-2011 05:50:20 8.7 C 6.14 g/m*3 8.7 C 0 km/h
510 02-06-2011 06:02:20 8.6 C 6.19 g/m*3 8.6 C 0 km/h
511 02-06-2011 06:14:20 8.8 C 6.35 g/m*3 8.8 C 0 km/h
512 02-06-2011 06:26:20 9 C 6.35 g/m*3 9 C 0 km/h
513 02-06-2011 06:38:20 8.9 C 6.48 g/m*3 8.9 C 0 km/h
514 02-06-2011 06:50:20 8.8 C 6.44 g/m*3 8.8 C 0 km/h
515 02-06-2011 07:02:04 8.9 C 6.57 g/m*3 8.9 C 0 km/h
516 02-06-2011 07:14:04 9.3 C 6.56 g/m*3 9.3 C 0 km/h
517 02-06-2011 07:26:03 9.7 C 6.64 g/m*3 9.7 C 0 km/h
518 02-06-2011 07:38:04 10 C 6.58 g/m*3 10 C 0 km/h
519 02-06-2011 07:50:03 10 C 6.48 g/m*3 10 C 0 km/h
520 02-06-2011 08:02:02 10 C 6.58 g/m*3 10 C 0 km/h
521 02-06-2011 08:14:02 10.5 C 6.79 g/m*3 10.5 C 0 km/h
522 02-06-2011 08:26:03 10.8 C 6.92 g/m*3 10.8 C 0 km/h
523 02-06-2011 08:38:03 11.2 C 6.89 g/m*3 11.2 C 0 km/h
524 02-06-2011 08:50:01 11.8 C 6.95 g/m*3 11.8 C 0 km/h
525 02-06-2011 09:02:02 12.3 C 6.84 g/m*3 12.3 C 0 km/h
Sensor: Nr:Datum:Temp:Abs-Feuchte:Windchill:Wind:
Aussen-T/F 526 02-06-2011 09:14:02 13 C 6.8 g/m*3 13 C 0 km/h
527 02-06-2011 09:26:02 13.5 C 6.32 g/m*3 13.5 C 0 km/h
528 02-06-2011 09:38:02 13.5 C 6.32 g/m*3 13.5 C 0 km/h
529 02-06-2011 09:50:02 13.5 C 6.32 g/m*3 13.5 C 0 km/h
530 02-06-2011 10:02:02 13.5 C 6.32 g/m*3 13.5 C 0 km/h
531 02-06-2011 10:14:02 13.5 C 6.32 g/m*3 13.5 C 0 km/h
532 02-06-2011 10:26:02 13.5 C 6.32 g/m*3 13.5 C 0 km/h
533 02-06-2011 10:38:02 13.5 C 6.32 g/m*3 13.5 C 0 km/h
534 02-06-2011 10:50:02 13.5 C 6.32 g/m*3 13.5 C 0 km/h
535 02-06-2011 11:02:02 13.5 C 6.32 g/m*3 13.5 C 0 km/h
536 02-06-2011 11:14:02 19.1 C 4.26 g/m*3 19.1 C 0 km/h
537 02-06-2011 11:26:01 19.2 C 4.12 g/m*3 19.2 C 0 km/h
538 02-06-2011 11:38:03 19.3 C 4.15 g/m*3 19.3 C 0 km/h
539 02-06-2011 11:50:02 19.3 C 4.15 g/m*3 19.3 C 0 km/h
540 02-06-2011 12:02:04 19.3 C 4.15 g/m*3 19.3 C 0 km/h
541 02-06-2011 12:14:04 19.3 C 4.15 g/m*3 19.3 C 0 km/h
542 02-06-2011 12:26:02 20.1 C 4 g/m*3 20.1 C 0 km/h
543 02-06-2011 12:38:02 20.1 C 3.82 g/m*3 20.1 C 0 km/h
544 02-06-2011 12:50:02 20.5 C 3.74 g/m*3 20.5 C 0 km/h
545 02-06-2011 13:02:03 21.1 C 3.87 g/m*3 21.1 C 0 km/h
546 02-06-2011 13:14:03 21.4 C 3.75 g/m*3 21.4 C 0 km/h
547 02-06-2011 13:26:02 25.3 C 4.68 g/m*3 25.3 C 0 km/h
548 02-06-2011 13:38:03 27.9 C 5.41 g/m*3 27.9 C 0 km/h
549 02-06-2011 13:50:02 30 C 6.06 g/m*3 30 C 0 km/h
550 02-06-2011 14:02:02 30.1 C 6.1 g/m*3 30.1 C 0 km/h
Sensor: Nr:Datum:Temp:Abs-Feuchte:Windchill:Wind:
Aussen-T/F 551 02-06-2011 14:14:02 30.4 C 6.2 g/m*3 30.4 C 0 km/h
552 02-06-2011 14:26:02 30.3 C 6.16 g/m*3 30.3 C 0 km/h
553 02-06-2011 14:38:02 30.2 C 6.13 g/m*3 30.2 C 0 km/h
554 02-06-2011 14:50:02 30.1 C 6.1 g/m*3 30.1 C 0 km/h
555 02-06-2011 15:02:03 30.1 C 6.1 g/m*3 30.1 C 0 km/h
556 02-06-2011 15:14:03 30 C 6.06 g/m*3 30 C 0 km/h
557 02-06-2011 15:26:03 30.3 C 6.16 g/m*3 30.3 C 0 km/h
558 02-06-2011 15:38:03 30.7 C 6.3 g/m*3 30.7 C 0 km/h
559 02-06-2011 15:50:02 30.7 C 6.3 g/m*3 30.7 C 0 km/h
560 02-06-2011 16:02:03 30.1 C 6.1 g/m*3 30.1 C 0 km/h
561 02-06-2011 16:14:03 30.4 C 6.2 g/m*3 30.4 C 0 km/h
562 02-06-2011 16:26:02 30.1 C 6.1 g/m*3 30.1 C 0 km/h
563 02-06-2011 16:38:02 31.2 C 6.47 g/m*3 31.2 C 0 km/h
564 02-06-2011 16:50:03 31.3 C 6.5 g/m*3 31.3 C 0 km/h
565 02-06-2011 17:02:03 31.1 C 6.43 g/m*3 31.1 C 0 km/h
566 02-06-2011 17:14:03 30.7 C 6.3 g/m*3 30.7 C 0 km/h
567 02-06-2011 17:26:03 30.2 C 6.13 g/m*3 30.2 C 0 km/h
568 02-06-2011 17:38:02 30.8 C 6.33 g/m*3 30.8 C 0 km/h
569 02-06-2011 17:50:02 30.6 C 6.26 g/m*3 30.6 C 0 km/h
570 02-06-2011 18:02:01 30.6 C 6.26 g/m*3 30.6 C 0 km/h
571 02-06-2011 18:14:01 30.6 C 6.26 g/m*3 30.6 C 0 km/h
572 02-06-2011 18:26:01 30.6 C 6.26 g/m*3 30.6 C 0 km/h
573 02-06-2011 18:38:02 30.6 C 6.26 g/m*3 30.6 C 0 km/h
574 02-06-2011 18:50:01 30.6 C 6.26 g/m*3 30.6 C 0 km/h
575 02-06-2011 19:02:02 30.6 C 6.26 g/m*3 30.6 C 0 km/h
Sensor: Nr:Datum:Temp:Abs-Feuchte:Windchill:Wind:
Aussen-T/F 576 02-06-2011 19:14:02 30.6 C 6.26 g/m*3 30.6 C 0 km/h
577 02-06-2011 19:26:02 30.6 C 6.26 g/m*3 30.6 C 0 km/h
578 02-06-2011 19:38:02 30.6 C 6.26 g/m*3 30.6 C 0 km/h
579 02-06-2011 19:50:01 30.6 C 6.26 g/m*3 30.6 C 0 km/h
580 02-06-2011 20:02:02 30.6 C 6.26 g/m*3 30.6 C 0 km/h
581 02-06-2011 20:14:02 30.6 C 6.26 g/m*3 30.6 C 0 km/h
582 02-06-2011 20:26:02 30.6 C 6.26 g/m*3 30.6 C 0 km/h
583 02-06-2011 20:38:01 30.6 C 6.26 g/m*3 30.6 C 0 km/h
584 02-06-2011 20:50:02 30.6 C 6.26 g/m*3 30.6 C 0 km/h
585 02-06-2011 21:02:02 30.6 C 6.26 g/m*3 30.6 C 0 km/h
586 02-06-2011 21:14:02 30.6 C 6.26 g/m*3 30.6 C 0 km/h
587 02-06-2011 21:26:02 30.6 C 6.26 g/m*3 30.6 C 0 km/h
588 02-06-2011 21:38:02 30.6 C 6.26 g/m*3 30.6 C 0 km/h
589 02-06-2011 21:50:02 30.6 C 6.26 g/m*3 30.6 C 0 km/h
590 02-06-2011 22:02:02 30.6 C 6.26 g/m*3 30.6 C 0 km/h
591 02-06-2011 22:14:02 30.6 C 6.26 g/m*3 30.6 C 0 km/h
592 02-06-2011 22:27:02 16 C 5.59 g/m*3 16 C 0 km/h
593 02-06-2011 22:39:02 16 C 5.59 g/m*3 16 C 0 km/h
594 02-06-2011 22:51:02 16 C 5.59 g/m*3 16 C 0 km/h
595 02-06-2011 23:03:02 16 C 5.59 g/m*3 16 C 0 km/h
596 02-06-2011 23:15:02 16 C 5.59 g/m*3 16 C 0 km/h
597 02-06-2011 23:27:03 16 C 5.59 g/m*3 16 C 0 km/h
598 02-06-2011 23:39:03 16 C 5.59 g/m*3 16 C 0 km/h
599 02-06-2011 23:51:03 16 C 5.59 g/m*3 16 C 0 km/h
600 03-06-2011 00:03:03 16 C 5.59 g/m*3 16 C 0 km/h
Sensor: Nr:Datum:Temp:Abs-Feuchte:Windchill:Wind:
Aussen-T/F 601 03-06-2011 00:15:03 16 C 5.59 g/m*3 16 C 0 km/h
602 03-06-2011 00:27:03 16 C 5.59 g/m*3 16 C 0 km/h
603 03-06-2011 00:39:03 16 C 5.59 g/m*3 16 C 0 km/h
604 03-06-2011 00:51:03 16 C 5.59 g/m*3 16 C 0 km/h
605 03-06-2011 01:03:03 13.3 C 5.66 g/m*3 13.3 C 0 km/h
606 03-06-2011 01:15:03 13.2 C 5.63 g/m*3 13.2 C 0 km/h
607 03-06-2011 01:27:03 13.1 C 5.82 g/m*3 13.1 C 0 km/h
608 03-06-2011 01:39:03 12.9 C 5.97 g/m*3 12.9 C 0 km/h
609 03-06-2011 01:51:03 12.8 C 5.94 g/m*3 12.8 C 0 km/h
610 03-06-2011 02:03:03 12.8 C 5.71 g/m*3 12.8 C 0 km/h
611 03-06-2011 02:15:03 12.6 C 5.64 g/m*3 12.6 C 0 km/h
612 03-06-2011 02:27:03 12.4 C 5.68 g/m*3 12.4 C 0 km/h
613 03-06-2011 02:39:03 12.2 C 5.72 g/m*3 12.2 C 0 km/h
614 03-06-2011 02:51:03 11.9 C 5.82 g/m*3 11.9 C 0 km/h
615 03-06-2011 03:03:03 11.9 C 5.93 g/m*3 11.9 C 0 km/h
616 03-06-2011 03:15:03 11.7 C 5.96 g/m*3 11.7 C 0 km/h
617 03-06-2011 03:27:03 11.7 C 5.86 g/m*3 11.7 C 0 km/h
618 03-06-2011 03:39:04 11.6 C 5.72 g/m*3 11.6 C 0 km/h
619 03-06-2011 03:51:04 11.5 C 5.68 g/m*3 11.5 C 0 km/h
620 03-06-2011 04:03:04 11.6 C 5.72 g/m*3 11.6 C 0 km/h
621 03-06-2011 04:15:04 11.4 C 5.65 g/m*3 11.4 C 0 km/h
622 03-06-2011 04:27:04 11.3 C 5.71 g/m*3 11.3 C 0 km/h
623 03-06-2011 04:39:04 11.4 C 5.65 g/m*3 11.4 C 0 km/h
624 03-06-2011 04:51:04 11 C 5.51 g/m*3 11 C 0 km/h
625 03-06-2011 05:03:04 11 C 5.61 g/m*3 11 C 0 km/h
Sensor: Nr:Datum:Temp:Abs-Feuchte:Windchill:Wind:
Aussen-T/F 626 03-06-2011 05:15:04 11.2 C 5.68 g/m*3 11.2 C 0 km/h
627 03-06-2011 05:27:04 11.2 C 5.57 g/m*3 11.2 C 0 km/h
628 03-06-2011 05:39:04 11.5 C 5.78 g/m*3 11.5 C 0 km/h
629 03-06-2011 05:51:04 11.5 C 5.78 g/m*3 11.5 C 0 km/h
630 03-06-2011 06:03:04 11.7 C 5.96 g/m*3 11.7 C 0 km/h
631 03-06-2011 06:15:04 12.1 C 5.9 g/m*3 12.1 C 0 km/h
632 03-06-2011 06:27:04 12.5 C 6.38 g/m*3 12.5 C 0 km/h
633 03-06-2011 06:39:04 12.8 C 6.61 g/m*3 12.8 C 0 km/h
634 03-06-2011 06:51:04 12.9 C 6.42 g/m*3 12.9 C 0 km/h
635 03-06-2011 07:03:03 13.2 C 6.32 g/m*3 13.2 C 0 km/h
636 03-06-2011 07:15:01 13.6 C 6.36 g/m*3 13.6 C 0 km/h
637 03-06-2011 07:27:01 14.4 C 6.06 g/m*3 14.4 C 0 km/h
638 03-06-2011 07:39:02 14.9 C 6.37 g/m*3 14.9 C 0 km/h
639 03-06-2011 07:51:02 15 C 6.41 g/m*3 15 C 0 km/h
640 03-06-2011 08:03:03 15.1 C 6.58 g/m*3 15.1 C 0 km/h
641 03-06-2011 08:15:02 15.6 C 6.52 g/m*3 15.6 C 0 km/h
642 03-06-2011 08:27:02 16.2 C 6.21 g/m*3 16.2 C 0 km/h
643 03-06-2011 08:39:03 17 C 5.79 g/m*3 17 C 0 km/h
644 03-06-2011 08:51:02 17.7 C 6.04 g/m*3 17.7 C 0 km/h
645 03-06-2011 09:03:02 18.3 C 6.1 g/m*3 18.3 C 0 km/h
646 03-06-2011 09:15:02 18.6 C 5.89 g/m*3 18.6 C 0 km/h
647 03-06-2011 09:27:02 18.9 C 5.99 g/m*3 18.9 C 0 km/h
648 03-06-2011 09:39:02 19.5 C 5.87 g/m*3 19.5 C 0 km/h
649 03-06-2011 09:51:02 20.1 C 5.74 g/m*3 20.1 C 0 km/h
650 03-06-2011 10:03:03 20.7 C 5.94 g/m*3 20.7 C 0 km/h
Sensor: Nr:Datum:Temp:Abs-Feuchte:Windchill:Wind:
Aussen-T/F 651 03-06-2011 10:15:02 20.8 C 5.79 g/m*3 20.8 C 0 km/h
652 03-06-2011 10:27:02 21 C 5.86 g/m*3 21 C 0 km/h
653 03-06-2011 10:39:02 21 C 5.68 g/m*3 21 C 0 km/h
654 03-06-2011 10:51:01 21.9 C 5.79 g/m*3 21.9 C 0 km/h
655 03-06-2011 11:03:02 22.1 C 5.47 g/m*3 22.1 C 0 km/h
656 03-06-2011 11:15:02 21.9 C 5.79 g/m*3 21.9 C 0 km/h
657 03-06-2011 11:27:03 22.1 C 6.05 g/m*3 22.1 C 0 km/h
658 03-06-2011 11:39:01 22.9 C 5.72 g/m*3 22.9 C 0 km/h
659 03-06-2011 11:51:01 23 C 5.55 g/m*3 23 C 0 km/h
660 03-06-2011 12:03:02 23 C 5.34 g/m*3 23 C 0 km/h
661 03-06-2011 12:15:01 23.2 C 5.2 g/m*3 23.2 C 0 km/h
662 03-06-2011 12:27:01 23.7 C 5.78 g/m*3 23.7 C 0 km/h
663 03-06-2011 12:39:02 24.8 C 5.69 g/m*3 24.8 C 0 km/h
664 03-06-2011 12:51:02 25.1 C 5.79 g/m*3 25.1 C 0 km/h
665 03-06-2011 13:03:02 25.4 C 5.41 g/m*3 25.4 C 0 km/h
666 03-06-2011 13:15:02 26.1 C 5.39 g/m*3 26.1 C 0 km/h
667 03-06-2011 13:27:02 25.5 C 5.45 g/m*3 25.5 C 0 km/h
668 03-06-2011 13:39:02 26.3 C 5.69 g/m*3 26.3 C 0 km/h
669 03-06-2011 13:51:02 28.9 C 5.71 g/m*3 28.9 C 0 km/h
670 03-06-2011 14:03:02 27.5 C 5.82 g/m*3 27.5 C 0 km/h
671 03-06-2011 14:15:02 29.4 C 5.87 g/m*3 29.4 C 0 km/h
672 03-06-2011 14:27:02 29.6 C 5.94 g/m*3 29.6 C 0 km/h
673 03-06-2011 14:39:02 25.5 C 5.68 g/m*3 25.5 C 0 km/h
674 03-06-2011 14:51:02 25.4 C 6.12 g/m*3 25.4 C 0 km/h
675 03-06-2011 15:03:02 28.5 C 6.15 g/m*3 28.5 C 0 km/h
Sensor: Nr:Datum:Temp:Abs-Feuchte:Windchill:Wind:
Aussen-T/F 676 03-06-2011 15:15:03 30.2 C 6.13 g/m*3 30.2 C 0 km/h
677 03-06-2011 15:27:03 31 C 6.4 g/m*3 31 C 0 km/h
678 03-06-2011 15:39:02 31.5 C 6.57 g/m*3 31.5 C 0 km/h
679 03-06-2011 15:51:02 31.4 C 6.54 g/m*3 31.4 C 0 km/h
680 03-06-2011 16:03:01 30 C 6.06 g/m*3 30 C 0 km/h
681 03-06-2011 16:15:02 31.1 C 6.43 g/m*3 31.1 C 0 km/h
682 03-06-2011 16:27:02 31.4 C 6.54 g/m*3 31.4 C 0 km/h
683 03-06-2011 16:39:02 31.9 C 6.72 g/m*3 31.9 C 0 km/h
684 03-06-2011 16:51:02 30.9 C 6.37 g/m*3 30.9 C 0 km/h
685 03-06-2011 17:03:03 31.6 C 6.61 g/m*3 31.6 C 0 km/h
686 03-06-2011 17:15:02 31.2 C 6.47 g/m*3 31.2 C 0 km/h
687 03-06-2011 17:27:02 31.5 C 6.57 g/m*3 31.5 C 0 km/h
688 03-06-2011 17:39:02 31.6 C 6.61 g/m*3 31.6 C 0 km/h
689 03-06-2011 17:51:02 31.4 C 6.54 g/m*3 31.4 C 0 km/h
690 03-06-2011 18:03:02 30.5 C 6.23 g/m*3 30.5 C 0 km/h
691 03-06-2011 18:15:01 30.8 C 6.33 g/m*3 30.8 C 0 km/h
692 03-06-2011 18:27:01 29.4 C 5.87 g/m*3 29.4 C 0 km/h
693 03-06-2011 18:39:02 30 C 6.06 g/m*3 30 C 0 km/h
694 03-06-2011 18:51:01 30.6 C 6.26 g/m*3 30.6 C 0 km/h
695 03-06-2011 19:03:02 30.4 C 6.2 g/m*3 30.4 C 0 km/h
696 03-06-2011 19:15:01 29.4 C 5.87 g/m*3 29.4 C 0 km/h
697 03-06-2011 19:27:01 29.8 C 6.3 g/m*3 29.8 C 0 km/h
698 03-06-2011 19:39:02 27.4 C 6.31 g/m*3 27.4 C 0 km/h
699 03-06-2011 19:51:01 26.3 C 6.44 g/m*3 26.3 C 0 km/h
700 03-06-2011 20:03:02 25.3 C 6.79 g/m*3 25.3 C 0 km/h
Sensor: Nr:Datum:Temp:Abs-Feuchte:Windchill:Wind:
Aussen-T/F 701 03-06-2011 20:15:02 25.2 C 6.75 g/m*3 25.2 C 0 km/h
702 03-06-2011 20:27:02 24.6 C 7.88 g/m*3 24.6 C 0 km/h
703 03-06-2011 20:39:02 24 C 7.4 g/m*3 24 C 0 km/h
704 03-06-2011 20:51:02 23.7 C 7.49 g/m*3 23.7 C 0 km/h
705 03-06-2011 21:03:02 22.9 C 7.77 g/m*3 22.9 C 0 km/h
706 03-06-2011 21:15:02 22.3 C 7.31 g/m*3 22.3 C 0 km/h
707 03-06-2011 21:27:02 21.4 C 7.87 g/m*3 21.4 C 0 km/h
708 03-06-2011 21:39:03 20.8 C 7.97 g/m*3 20.8 C 0 km/h
709 03-06-2011 21:51:02 20.3 C 7.91 g/m*3 20.3 C 0 km/h
710 03-06-2011 22:03:02 20.7 C 7.74 g/m*3 20.7 C 0 km/h
711 03-06-2011 22:15:02 19.9 C 8.08 g/m*3 19.9 C 0 km/h
712 03-06-2011 22:27:03 20 C 8.12 g/m*3 20 C 0 km/h
713 03-06-2011 22:39:02 19.8 C 8.03 g/m*3 19.8 C 0 km/h
714 03-06-2011 22:52:06 19.6 C 7.93 g/m*3 19.6 C 0 km/h
715 03-06-2011 23:04:06 19.5 C 8.22 g/m*3 19.5 C 0 km/h
716 03-06-2011 23:16:06 19 C 8.15 g/m*3 19 C 0 km/h
717 03-06-2011 23:28:06 18.4 C 8.49 g/m*3 18.4 C 0 km/h
718 03-06-2011 23:40:06 18 C 8.45 g/m*3 18 C 0 km/h
719 03-06-2011 23:52:06 17.9 C 8.55 g/m*3 17.9 C 0 km/h
720 04-06-2011 00:04:06 17.7 C 8.45 g/m*3 17.7 C 0 km/h
721 04-06-2011 00:16:06 17.3 C 8.4 g/m*3 17.3 C 0 km/h
722 04-06-2011 00:28:06 17.4 C 8.6 g/m*3 17.4 C 0 km/h
723 04-06-2011 00:40:06 17.4 C 8.45 g/m*3 17.4 C 0 km/h
724 04-06-2011 00:52:06 17.4 C 8.74 g/m*3 17.4 C 0 km/h
725 04-06-2011 01:04:06 17 C 8.39 g/m*3 17 C 0 km/h
Sensor: Nr:Datum:Temp:Abs-Feuchte:Windchill:Wind:
Aussen-T/F 726 04-06-2011 01:16:06 17.1 C 8.73 g/m*3 17.1 C 0 km/h
727 04-06-2011 01:28:06 17.1 C 8.59 g/m*3 17.1 C 0 km/h
728 04-06-2011 01:40:06 16.8 C 8.58 g/m*3 16.8 C 0 km/h
729 04-06-2011 01:52:07 16.8 C 8.58 g/m*3 16.8 C 0 km/h
730 04-06-2011 02:04:07 16.4 C 8.37 g/m*3 16.4 C 0 km/h
731 04-06-2011 02:16:07 16.3 C 8.46 g/m*3 16.3 C 0 km/h
732 04-06-2011 02:28:07 16 C 8.58 g/m*3 16 C 0 km/h
733 04-06-2011 02:40:07 16 C 8.45 g/m*3 16 C 0 km/h
734 04-06-2011 02:52:07 15.9 C 8.53 g/m*3 15.9 C 0 km/h
735 04-06-2011 03:04:07 15.8 C 8.48 g/m*3 15.8 C 0 km/h
736 04-06-2011 03:16:07 15.8 C 8.62 g/m*3 15.8 C 0 km/h
737 04-06-2011 03:28:07 15.6 C 8.51 g/m*3 15.6 C 0 km/h
738 04-06-2011 03:40:07 15.6 C 8.51 g/m*3 15.6 C 0 km/h
739 04-06-2011 03:52:07 15.4 C 8.41 g/m*3 15.4 C 0 km/h
740 04-06-2011 04:04:07 15.3 C 8.36 g/m*3 15.3 C 0 km/h
741 04-06-2011 04:16:07 15.2 C 8.31 g/m*3 15.2 C 0 km/h
742 04-06-2011 04:28:07 15 C 8.33 g/m*3 15 C 0 km/h
743 04-06-2011 04:40:07 14.9 C 8.54 g/m*3 14.9 C 0 km/h
744 04-06-2011 04:52:07 15 C 8.33 g/m*3 15 C 0 km/h
745 04-06-2011 05:04:07 14.9 C 8.41 g/m*3 14.9 C 0 km/h
746 04-06-2011 05:16:07 14.7 C 8.31 g/m*3 14.7 C 0 km/h
747 04-06-2011 05:28:07 14.8 C 8.49 g/m*3 14.8 C 0 km/h
748 04-06-2011 05:40:07 15 C 8.33 g/m*3 15 C 0 km/h
749 04-06-2011 05:52:08 14.8 C 8.36 g/m*3 14.8 C 0 km/h
750 04-06-2011 06:04:08 15 C 8.46 g/m*3 15 C 0 km/h
Sensor: Nr:Datum:Temp:Abs-Feuchte:Windchill:Wind:
Aussen-T/F 751 04-06-2011 06:16:08 15 C 8.59 g/m*3 15 C 0 km/h
752 04-06-2011 06:28:08 15.2 C 8.7 g/m*3 15.2 C 0 km/h
753 04-06-2011 06:40:08 15.7 C 8.83 g/m*3 15.7 C 0 km/h
754 04-06-2011 06:52:08 16 C 8.86 g/m*3 16 C 0 km/h
755 04-06-2011 07:04:08 16.7 C 9.1 g/m*3 16.7 C 0 km/h
756 04-06-2011 07:16:08 17.4 C 9.04 g/m*3 17.4 C 0 km/h
757 04-06-2011 07:28:08 18.1 C 9.12 g/m*3 18.1 C 0 km/h
758 04-06-2011 07:40:08 18.6 C 9.39 g/m*3 18.6 C 0 km/h
759 04-06-2011 07:52:08 18.6 C 9.39 g/m*3 18.6 C 0 km/h
760 04-06-2011 08:04:08 18.5 C 9.18 g/m*3 18.5 C 0 km/h
761 04-06-2011 08:16:08 18.4 C 9.28 g/m*3 18.4 C 0 km/h
762 04-06-2011 08:28:08 18.3 C 9.54 g/m*3 18.3 C 0 km/h
763 04-06-2011 08:40:08 19 C 9.45 g/m*3 19 C 0 km/h
764 04-06-2011 08:52:02 20 C 9.51 g/m*3 20 C 0 km/h
765 04-06-2011 09:04:02 20.3 C 9.67 g/m*3 20.3 C 0 km/h
766 04-06-2011 09:16:02 20.8 C 9.96 g/m*3 20.8 C 0 km/h
767 04-06-2011 09:28:02 21.9 C 9.26 g/m*3 21.9 C 0 km/h
768 04-06-2011 09:40:02 22.6 C 9.24 g/m*3 22.6 C 0 km/h
769 04-06-2011 09:52:02 22.6 C 8.84 g/m*3 22.6 C 0 km/h
770 04-06-2011 10:04:02 22.9 C 9.4 g/m*3 22.9 C 0 km/h
771 04-06-2011 10:16:01 23.5 C 8.88 g/m*3 23.5 C 0 km/h
772 04-06-2011 10:28:01 24 C 8.49 g/m*3 24 C 0 km/h
773 04-06-2011 10:40:02 24 C 9.14 g/m*3 24 C 0 km/h
774 04-06-2011 10:52:03 24.4 C 8.23 g/m*3 24.4 C 0 km/h
775 04-06-2011 11:04:02 25 C 8.75 g/m*3 25 C 0 km/h
Sensor: Nr:Datum:Temp:Abs-Feuchte:Windchill:Wind:
Aussen-T/F 776 04-06-2011 11:16:02 25.3 C 8.43 g/m*3 25.3 C 0 km/h
777 04-06-2011 11:28:02 25.8 C 8.67 g/m*3 25.8 C 0 km/h
778 04-06-2011 11:40:03 26.2 C 8.37 g/m*3 26.2 C 0 km/h
779 04-06-2011 11:52:02 27 C 7.98 g/m*3 27 C 0 km/h
780 04-06-2011 12:04:02 27.4 C 7.89 g/m*3 27.4 C 0 km/h
781 04-06-2011 12:16:02 27.3 C 7.85 g/m*3 27.3 C 0 km/h
782 04-06-2011 12:28:02 27.3 C 7.85 g/m*3 27.3 C 0 km/h
783 04-06-2011 12:40:02 27.4 C 8.16 g/m*3 27.4 C 0 km/h
784 04-06-2011 12:52:02 27.8 C 8.07 g/m*3 27.8 C 0 km/h
785 04-06-2011 13:04:02 28.1 C 7.66 g/m*3 28.1 C 0 km/h
786 04-06-2011 13:16:02 28.7 C 7.91 g/m*3 28.7 C 0 km/h
787 04-06-2011 13:28:02 31.3 C 7.15 g/m*3 31.3 C 0 km/h
788 04-06-2011 13:40:02 32 C 6.75 g/m*3 32 C 0 km/h
789 04-06-2011 13:52:02 32.9 C 7.08 g/m*3 32.9 C 0 km/h
790 04-06-2011 14:04:02 33.2 C 7.2 g/m*3 33.2 C 0 km/h
791 04-06-2011 14:16:02 31.8 C 6.68 g/m*3 31.8 C 0 km/h
792 04-06-2011 14:28:02 33.2 C 7.2 g/m*3 33.2 C 0 km/h
793 04-06-2011 14:40:02 33 C 7.12 g/m*3 33 C 0 km/h
794 04-06-2011 14:52:02 32.3 C 6.86 g/m*3 32.3 C 0 km/h
795 04-06-2011 15:04:02 31.2 C 7.12 g/m*3 31.2 C 0 km/h
796 04-06-2011 15:16:02 32.6 C 6.97 g/m*3 32.6 C 0 km/h
797 04-06-2011 15:28:03 30.6 C 7.2 g/m*3 30.6 C 0 km/h
798 04-06-2011 15:40:01 30.4 C 8.06 g/m*3 30.4 C 0 km/h
799 04-06-2011 15:52:02 30.1 C 7.93 g/m*3 30.1 C 0 km/h
800 04-06-2011 16:04:01 30.2 C 7.97 g/m*3 30.2 C 0 km/h
Sensor: Nr:Datum:Temp:Abs-Feuchte:Windchill:Wind:
Aussen-T/F 801 04-06-2011 16:16:02 30.4 C 7.75 g/m*3 30.4 C 0 km/h
802 04-06-2011 16:28:02 26.5 C 7.01 g/m*3 26.5 C 0 km/h
803 04-06-2011 16:40:01 21.6 C 12.14 g/m*3 21.6 C 0 km/h
804 04-06-2011 16:52:02 20.7 C 13.14 g/m*3 20.7 C 0 km/h
805 04-06-2011 17:04:02 20.8 C 13.4 g/m*3 20.8 C 0 km/h
806 04-06-2011 17:16:02 23.6 C 14.25 g/m*3 23.6 C 0 km/h
807 04-06-2011 17:28:02 24.8 C 13.88 g/m*3 24.8 C 0 km/h
808 04-06-2011 17:40:02 24.6 C 13.73 g/m*3 24.6 C 0 km/h
809 04-06-2011 17:52:02 23.1 C 13.23 g/m*3 23.1 C 0 km/h
810 04-06-2011 18:04:02 22.6 C 13.86 g/m*3 22.6 C 0 km/h
811 04-06-2011 18:16:02 22.1 C 13.66 g/m*3 22.1 C 0 km/h
812 04-06-2011 18:28:02 21.4 C 13.5 g/m*3 21.4 C 0 km/h
813 04-06-2011 18:40:01 20.4 C 13.09 g/m*3 20.4 C 0 km/h
814 04-06-2011 18:52:02 20.1 C 13.04 g/m*3 20.1 C 0 km/h
815 04-06-2011 19:04:01 20.3 C 13.37 g/m*3 20.3 C 0 km/h
816 04-06-2011 19:16:01 20.9 C 13.48 g/m*3 20.9 C 0 km/h
817 04-06-2011 19:28:01 20.9 C 13.11 g/m*3 20.9 C 0 km/h
818 04-06-2011 19:40:02 20.6 C 12.89 g/m*3 20.6 C 0 km/h
819 04-06-2011 19:52:02 20.4 C 12.56 g/m*3 20.4 C 0 km/h
820 04-06-2011 20:04:02 20.5 C 12.46 g/m*3 20.5 C 0 km/h
821 04-06-2011 20:16:02 20.5 C 12.28 g/m*3 20.5 C 0 km/h
822 04-06-2011 20:28:02 20.4 C 12.38 g/m*3 20.4 C 0 km/h
823 04-06-2011 20:40:02 20.4 C 12.38 g/m*3 20.4 C 0 km/h
824 04-06-2011 20:52:02 20.3 C 12.49 g/m*3 20.3 C 0 km/h
825 04-06-2011 21:04:02 20 C 12.27 g/m*3 20 C 0 km/h
Sensor: Nr:Datum:Temp:Abs-Feuchte:Windchill:Wind:
Aussen-T/F 826 04-06-2011 21:16:02 19.5 C 12.75 g/m*3 19.5 C 0 km/h
827 04-06-2011 21:28:02 19.4 C 12.68 g/m*3 19.4 C 0 km/h
828 04-06-2011 21:40:02 19.6 C 12.32 g/m*3 19.6 C 0 km/h
829 04-06-2011 21:52:01 19.4 C 12.35 g/m*3 19.4 C 0 km/h
830 04-06-2011 22:04:01 19.4 C 12.01 g/m*3 19.4 C 0 km/h
831 04-06-2011 22:17:02 18.8 C 12.88 g/m*3 18.8 C 0 km/h
832 04-06-2011 22:29:02 18.4 C 12.9 g/m*3 18.4 C 0 km/h
833 04-06-2011 22:41:02 18.1 C 12.82 g/m*3 18.1 C 0 km/h
834 04-06-2011 22:53:03 18.1 C 12.98 g/m*3 18.1 C 0 km/h
835 04-06-2011 23:05:03 18 C 13.06 g/m*3 18 C 0 km/h
836 04-06-2011 23:17:03 18.1 C 13.13 g/m*3 18.1 C 0 km/h
837 04-06-2011 23:29:03 18 C 13.21 g/m*3 18 C 0 km/h
838 04-06-2011 23:41:03 17.9 C 13.28 g/m*3 17.9 C 0 km/h
839 04-06-2011 23:53:03 17.9 C 13.44 g/m*3 17.9 C 0 km/h
840 05-06-2011 00:05:03 17.9 C 13.44 g/m*3 17.9 C 0 km/h
841 05-06-2011 00:17:03 17.9 C 13.44 g/m*3 17.9 C 0 km/h
842 05-06-2011 00:29:03 17.7 C 13.28 g/m*3 17.7 C 0 km/h
843 05-06-2011 00:41:03 17.8 C 13.36 g/m*3 17.8 C 0 km/h
844 05-06-2011 00:53:03 17.7 C 13.28 g/m*3 17.7 C 0 km/h
845 05-06-2011 01:05:03 17.6 C 13.2 g/m*3 17.6 C 0 km/h
846 05-06-2011 01:17:03 17.4 C 13.04 g/m*3 17.4 C 0 km/h
847 05-06-2011 01:29:03 17.5 C 13.12 g/m*3 17.5 C 0 km/h
848 05-06-2011 01:41:03 17.2 C 12.89 g/m*3 17.2 C 0 km/h
849 05-06-2011 01:53:03 17 C 12.73 g/m*3 17 C 0 km/h
850 05-06-2011 02:05:03 16.9 C 12.8 g/m*3 16.9 C 0 km/h
Sensor: Nr:Datum:Temp:Abs-Feuchte:Windchill:Wind:
Aussen-T/F 851 05-06-2011 02:17:03 16.7 C 12.65 g/m*3 16.7 C 0 km/h
852 05-06-2011 02:29:03 16.5 C 12.5 g/m*3 16.5 C 0 km/h
853 05-06-2011 02:41:03 16.3 C 12.35 g/m*3 16.3 C 0 km/h
854 05-06-2011 02:53:04 16.4 C 12.42 g/m*3 16.4 C 0 km/h
855 05-06-2011 03:05:04 16.1 C 12.2 g/m*3 16.1 C 0 km/h
856 05-06-2011 03:17:04 16 C 12.13 g/m*3 16 C 0 km/h
857 05-06-2011 03:29:04 15.7 C 11.91 g/m*3 15.7 C 0 km/h
858 05-06-2011 03:41:04 15.7 C 11.91 g/m*3 15.7 C 0 km/h
859 05-06-2011 03:53:04 15.4 C 11.69 g/m*3 15.4 C 0 km/h
860 05-06-2011 04:05:04 15.5 C 11.76 g/m*3 15.5 C 0 km/h
861 05-06-2011 04:17:04 15.5 C 11.76 g/m*3 15.5 C 0 km/h
862 05-06-2011 04:29:04 15.7 C 11.91 g/m*3 15.7 C 0 km/h
863 05-06-2011 04:41:04 15.1 C 11.48 g/m*3 15.1 C 0 km/h
864 05-06-2011 04:53:04 15.1 C 11.48 g/m*3 15.1 C 0 km/h
865 05-06-2011 05:05:04 15.2 C 11.55 g/m*3 15.2 C 0 km/h
866 05-06-2011 05:17:04 15.3 C 11.75 g/m*3 15.3 C 0 km/h
867 05-06-2011 05:29:04 15 C 11.54 g/m*3 15 C 0 km/h
868 05-06-2011 05:41:04 15.2 C 11.68 g/m*3 15.2 C 0 km/h
869 05-06-2011 05:53:04 15.6 C 11.97 g/m*3 15.6 C 0 km/h
870 05-06-2011 06:05:04 15.8 C 12.11 g/m*3 15.8 C 0 km/h
871 05-06-2011 06:17:04 16.1 C 12.2 g/m*3 16.1 C 0 km/h
872 05-06-2011 06:29:04 16.2 C 12.41 g/m*3 16.2 C 0 km/h
873 05-06-2011 06:41:04 16.4 C 12.56 g/m*3 16.4 C 0 km/h
874 05-06-2011 06:53:04 16.3 C 12.49 g/m*3 16.3 C 0 km/h
875 05-06-2011 07:05:05 16.3 C 12.49 g/m*3 16.3 C 0 km/h
Sensor: Nr:Datum:Temp:Abs-Feuchte:Windchill:Wind:
Aussen-T/F 876 05-06-2011 07:17:05 16.4 C 12.56 g/m*3 16.4 C 0 km/h
877 05-06-2011 07:29:05 16.5 C 12.5 g/m*3 16.5 C 0 km/h
878 05-06-2011 07:41:05 16.7 C 12.79 g/m*3 16.7 C 0 km/h
879 05-06-2011 07:53:05 17.4 C 13.19 g/m*3 17.4 C 0 km/h
880 05-06-2011 08:05:02 17.9 C 13.59 g/m*3 17.9 C 0 km/h
881 05-06-2011 08:17:02 18 C 13.52 g/m*3 18 C 0 km/h
882 05-06-2011 08:29:02 18.4 C 13.68 g/m*3 18.4 C 0 km/h
883 05-06-2011 08:41:02 18.5 C 13.61 g/m*3 18.5 C 0 km/h
884 05-06-2011 08:53:02 18.7 C 13.45 g/m*3 18.7 C 0 km/h
885 05-06-2011 09:05:01 18.6 C 12.73 g/m*3 18.6 C 0 km/h
886 05-06-2011 09:17:02 19.5 C 12.59 g/m*3 19.5 C 0 km/h
887 05-06-2011 09:29:02 19.9 C 12.54 g/m*3 19.9 C 0 km/h
888 05-06-2011 09:41:02 19.5 C 12.25 g/m*3 19.5 C 0 km/h
889 05-06-2011 09:53:01 19.5 C 12.42 g/m*3 19.5 C 0 km/h
890 05-06-2011 10:05:02 19.9 C 13.4 g/m*3 19.9 C 0 km/h
891 05-06-2011 10:17:02 20.2 C 13.46 g/m*3 20.2 C 0 km/h
892 05-06-2011 10:29:02 20.6 C 13.42 g/m*3 20.6 C 0 km/h
893 05-06-2011 10:41:01 21.8 C 14.01 g/m*3 21.8 C 0 km/h
894 05-06-2011 10:53:02 21.7 C 12.97 g/m*3 21.7 C 0 km/h
895 05-06-2011 11:05:01 21.7 C 12.97 g/m*3 21.7 C 0 km/h
896 05-06-2011 11:17:01 21.7 C 12.59 g/m*3 21.7 C 0 km/h
897 05-06-2011 11:29:02 22.2 C 12.96 g/m*3 22.2 C 0 km/h
898 05-06-2011 11:41:01 22.4 C 13.31 g/m*3 22.4 C 0 km/h
899 05-06-2011 11:53:02 23.2 C 13.1 g/m*3 23.2 C 0 km/h
900 05-06-2011 12:05:02 23.7 C 12.62 g/m*3 23.7 C 0 km/h
Sensor: Nr:Datum:Temp:Abs-Feuchte:Windchill:Wind:
Aussen-T/F 901 05-06-2011 12:17:02 24.1 C 12.25 g/m*3 24.1 C 0 km/h
902 05-06-2011 12:29:02 23.7 C 13.9 g/m*3 23.7 C 0 km/h
903 05-06-2011 12:41:02 24.4 C 14.02 g/m*3 24.4 C 0 km/h
904 05-06-2011 12:53:01 24.8 C 13.2 g/m*3 24.8 C 0 km/h
905 05-06-2011 13:05:02 25.3 C 14.05 g/m*3 25.3 C 0 km/h
906 05-06-2011 13:17:01 24.9 C 13.73 g/m*3 24.9 C 0 km/h
907 05-06-2011 13:29:01 24.8 C 13.88 g/m*3 24.8 C 0 km/h
908 05-06-2011 13:41:02 25 C 13.81 g/m*3 25 C 0 km/h
909 05-06-2011 13:53:02 25.6 C 15 g/m*3 25.6 C 0 km/h
910 05-06-2011 14:05:02 25.3 C 14.05 g/m*3 25.3 C 0 km/h
911 05-06-2011 14:17:01 24.7 C 15.16 g/m*3 24.7 C 0 km/h
912 05-06-2011 14:29:01 24.4 C 15.58 g/m*3 24.4 C 0 km/h
913 05-06-2011 14:41:02 27.5 C 14.55 g/m*3 27.5 C 0 km/h
914 05-06-2011 14:53:02 28.1 C 11.76 g/m*3 28.1 C 0 km/h
915 05-06-2011 15:05:02 27.7 C 13.91 g/m*3 27.7 C 0 km/h
916 05-06-2011 15:17:01 25.3 C 12.88 g/m*3 25.3 C 0 km/h
917 05-06-2011 15:29:01 23.7 C 14.33 g/m*3 23.7 C 0 km/h
918 05-06-2011 15:41:16 21.9 C 14.67 g/m*3 21.9 C 0 km/h
919 05-06-2011 15:53:16 21.1 C 14.56 g/m*3 21.1 C 0 km/h
920 05-06-2011 16:05:16 19.5 C 13.43 g/m*3 19.5 C 0 km/h
921 05-06-2011 16:17:16 17.4 C 12 g/m*3 17.4 C 0 km/h
922 05-06-2011 16:29:16 17.3 C 12.23 g/m*3 17.3 C 0 km/h
923 05-06-2011 16:41:16 17.6 C 12.6 g/m*3 17.6 C 0 km/h
924 05-06-2011 16:53:16 17.3 C 12.37 g/m*3 17.3 C 0 km/h
925 05-06-2011 17:05:02 17.4 C 12.6 g/m*3 17.4 C 0 km/h
Sensor: Nr:Datum:Temp:Abs-Feuchte:Windchill:Wind:
Aussen-T/F 926 05-06-2011 17:17:02 17.5 C 12.82 g/m*3 17.5 C 0 km/h
927 05-06-2011 17:29:02 17.7 C 12.98 g/m*3 17.7 C 0 km/h
928 05-06-2011 17:41:02 17.2 C 12.59 g/m*3 17.2 C 0 km/h
929 05-06-2011 17:53:02 17.2 C 12.59 g/m*3 17.2 C 0 km/h
930 05-06-2011 18:05:01 17.2 C 12.59 g/m*3 17.2 C 0 km/h
931 05-06-2011 18:17:02 16.9 C 12.51 g/m*3 16.9 C 0 km/h
932 05-06-2011 18:29:02 16.9 C 12.51 g/m*3 16.9 C 0 km/h
933 05-06-2011 18:41:02 16.8 C 12.44 g/m*3 16.8 C 0 km/h
934 05-06-2011 18:53:02 16.8 C 12.58 g/m*3 16.8 C 0 km/h
935 05-06-2011 19:05:03 17 C 12.59 g/m*3 17 C 0 km/h
936 05-06-2011 19:17:02 17.2 C 12.74 g/m*3 17.2 C 0 km/h
937 05-06-2011 19:29:02 17.4 C 13.04 g/m*3 17.4 C 0 km/h
938 05-06-2011 19:41:02 17.7 C 13.28 g/m*3 17.7 C 0 km/h
939 05-06-2011 19:53:01 17.8 C 13.36 g/m*3 17.8 C 0 km/h
940 05-06-2011 20:05:02 17.8 C 13.2 g/m*3 17.8 C 0 km/h
941 05-06-2011 20:17:01 17.8 C 13.2 g/m*3 17.8 C 0 km/h
942 05-06-2011 20:29:01 17.6 C 13.05 g/m*3 17.6 C 0 km/h
943 05-06-2011 20:41:02 17.3 C 12.82 g/m*3 17.3 C 0 km/h
944 05-06-2011 20:53:01 17.3 C 12.82 g/m*3 17.3 C 0 km/h
945 05-06-2011 21:05:02 17.2 C 12.74 g/m*3 17.2 C 0 km/h
946 05-06-2011 21:17:01 17 C 12.59 g/m*3 17 C 0 km/h
947 05-06-2011 21:29:01 16.8 C 12.58 g/m*3 16.8 C 0 km/h
948 05-06-2011 21:41:02 16.7 C 12.51 g/m*3 16.7 C 0 km/h
949 05-06-2011 21:53:01 16.7 C 12.65 g/m*3 16.7 C 0 km/h
950 05-06-2011 22:05:01 16.7 C 12.65 g/m*3 16.7 C 0 km/h
Sensor: Nr:Datum:Temp:Abs-Feuchte:Windchill:Wind:
Aussen-T/F 951 05-06-2011 22:17:02 16.8 C 12.72 g/m*3 16.8 C 0 km/h
952 05-06-2011 22:29:02 16.8 C 12.72 g/m*3 16.8 C 0 km/h
953 05-06-2011 22:41:01 16.4 C 12.42 g/m*3 16.4 C 0 km/h
954 05-06-2011 22:53:03 16.2 C 12.27 g/m*3 16.2 C 0 km/h
955 05-06-2011 23:06:05 16.1 C 12.2 g/m*3 16.1 C 0 km/h
956 05-06-2011 23:18:05 16 C 12.13 g/m*3 16 C 0 km/h
957 05-06-2011 23:30:05 15.9 C 12.05 g/m*3 15.9 C 0 km/h
958 05-06-2011 23:42:05 15.5 C 11.76 g/m*3 15.5 C 0 km/h
959 05-06-2011 23:54:05 15 C 11.41 g/m*3 15 C 0 km/h
960 06-06-2011 00:06:05 15.3 C 11.62 g/m*3 15.3 C 0 km/h
961 06-06-2011 00:18:05 15.3 C 11.75 g/m*3 15.3 C 0 km/h
962 06-06-2011 00:30:06 14.9 C 11.47 g/m*3 14.9 C 0 km/h
963 06-06-2011 00:42:06 15 C 11.41 g/m*3 15 C 0 km/h
964 06-06-2011 00:54:06 15 C 11.54 g/m*3 15 C 0 km/h
965 06-06-2011 01:06:06 15.1 C 11.61 g/m*3 15.1 C 0 km/h
966 06-06-2011 01:18:06 15.1 C 11.61 g/m*3 15.1 C 0 km/h
967 06-06-2011 01:30:06 14.9 C 11.6 g/m*3 14.9 C 0 km/h
968 06-06-2011 01:42:06 15 C 11.54 g/m*3 15 C 0 km/h
969 06-06-2011 01:54:06 15 C 11.54 g/m*3 15 C 0 km/h
970 06-06-2011 02:06:06 15.1 C 11.61 g/m*3 15.1 C 0 km/h
971 06-06-2011 02:18:06 15.1 C 11.61 g/m*3 15.1 C 0 km/h
972 06-06-2011 02:30:06 15.1 C 11.61 g/m*3 15.1 C 0 km/h
973 06-06-2011 02:42:06 15 C 11.54 g/m*3 15 C 0 km/h
974 06-06-2011 02:54:06 15 C 11.54 g/m*3 15 C 0 km/h
975 06-06-2011 03:06:06 15.1 C 11.61 g/m*3 15.1 C 0 km/h
Sensor: Nr:Datum:Temp:Abs-Feuchte:Windchill:Wind:
Aussen-T/F 976 06-06-2011 03:18:06 14.9 C 11.6 g/m*3 14.9 C 0 km/h
977 06-06-2011 03:30:06 15 C 11.54 g/m*3 15 C 0 km/h
978 06-06-2011 03:42:06 14.5 C 11.32 g/m*3 14.5 C 0 km/h
979 06-06-2011 03:54:06 14.4 C 11.25 g/m*3 14.4 C 0 km/h
980 06-06-2011 04:06:06 14.4 C 11.25 g/m*3 14.4 C 0 km/h
981 06-06-2011 04:18:06 13.8 C 10.84 g/m*3 13.8 C 0 km/h
982 06-06-2011 04:30:06 14 C 10.98 g/m*3 14 C 0 km/h
983 06-06-2011 04:42:07 14 C 10.98 g/m*3 14 C 0 km/h
984 06-06-2011 04:54:07 13.7 C 10.78 g/m*3 13.7 C 0 km/h
985 06-06-2011 05:06:07 14 C 10.98 g/m*3 14 C 0 km/h
986 06-06-2011 05:18:07 13.6 C 10.71 g/m*3 13.6 C 0 km/h
987 06-06-2011 05:30:07 13.6 C 10.71 g/m*3 13.6 C 0 km/h
988 06-06-2011 05:42:07 13.5 C 10.64 g/m*3 13.5 C 0 km/h
989 06-06-2011 05:54:07 13.7 C 10.78 g/m*3 13.7 C 0 km/h
990 06-06-2011 06:06:07 13.7 C 10.78 g/m*3 13.7 C 0 km/h
991 06-06-2011 06:18:07 14 C 10.98 g/m*3 14 C 0 km/h
992 06-06-2011 06:30:07 14.2 C 11.11 g/m*3 14.2 C 0 km/h
993 06-06-2011 06:42:07 14.4 C 11.25 g/m*3 14.4 C 0 km/h
994 06-06-2011 06:54:07 14.8 C 11.53 g/m*3 14.8 C 0 km/h
995 06-06-2011 07:06:07 14.9 C 11.6 g/m*3 14.9 C 0 km/h
996 06-06-2011 07:18:04 15.2 C 11.68 g/m*3 15.2 C 0 km/h
997 06-06-2011 07:30:04 15.4 C 11.82 g/m*3 15.4 C 0 km/h
998 06-06-2011 07:42:04 15.5 C 11.9 g/m*3 15.5 C 0 km/h
999 06-06-2011 07:54:03 15.7 C 12.04 g/m*3 15.7 C 0 km/h
1000 06-06-2011 08:06:02 16.1 C 12.34 g/m*3 16.1 C 0 km/h
Sensor: Nr:Datum:Temp:Abs-Feuchte:Windchill:Wind:
Aussen-T/F 1001 06-06-2011 08:18:02 16.8 C 12.87 g/m*3 16.8 C 0 km/h
1002 06-06-2011 08:30:02 17 C 12.88 g/m*3 17 C 0 km/h
1003 06-06-2011 08:42:02 18.3 C 13.76 g/m*3 18.3 C 0 km/h
1004 06-06-2011 08:54:02 18.1 C 13.44 g/m*3 18.1 C 0 km/h
1005 06-06-2011 09:06:01 18.3 C 13.29 g/m*3 18.3 C 0 km/h
1006 06-06-2011 09:18:02 18.1 C 12.82 g/m*3 18.1 C 0 km/h
1007 06-06-2011 09:30:02 18.1 C 12.98 g/m*3 18.1 C 0 km/h
1008 06-06-2011 09:42:02 18.3 C 12.98 g/m*3 18.3 C 0 km/h
1009 06-06-2011 09:54:02 18.8 C 13.37 g/m*3 18.8 C 0 km/h
1010 06-06-2011 10:06:02 19 C 13.53 g/m*3 19 C 0 km/h
1011 06-06-2011 10:18:02 19.6 C 13.34 g/m*3 19.6 C 0 km/h
1012 06-06-2011 10:30:02 20.7 C 13.14 g/m*3 20.7 C 0 km/h
1013 06-06-2011 10:42:02 21.3 C 11.93 g/m*3 21.3 C 0 km/h
1014 06-06-2011 10:54:02 21.4 C 12 g/m*3 21.4 C 0 km/h
1015 06-06-2011 11:06:02 21.9 C 11.77 g/m*3 21.9 C 0 km/h
1016 06-06-2011 11:18:02 22.9 C 10.83 g/m*3 22.9 C 0 km/h
1017 06-06-2011 11:30:02 21.5 C 10.75 g/m*3 21.5 C 0 km/h
1018 06-06-2011 11:42:02 22.3 C 10.86 g/m*3 22.3 C 0 km/h
1019 06-06-2011 11:54:02 22.9 C 11.24 g/m*3 22.9 C 0 km/h
1020 06-06-2011 12:06:02 23 C 11.1 g/m*3 23 C 0 km/h
1021 06-06-2011 12:18:02 22.9 C 10.83 g/m*3 22.9 C 0 km/h
1022 06-06-2011 12:30:02 23.5 C 10.79 g/m*3 23.5 C 0 km/h
1023 06-06-2011 12:42:02 23.9 C 11.03 g/m*3 23.9 C 0 km/h
1024 06-06-2011 12:54:02 24.2 C 10.78 g/m*3 24.2 C 0 km/h
1025 06-06-2011 13:06:01 24.6 C 11.25 g/m*3 24.6 C 0 km/h
Sensor: Nr:Datum:Temp:Abs-Feuchte:Windchill:Wind:
Aussen-T/F 1026 06-06-2011 13:18:02 24.6 C 10.35 g/m*3 24.6 C 0 km/h
1027 06-06-2011 13:30:02 29.1 C 10.11 g/m*3 29.1 C 0 km/h
1028 06-06-2011 13:42:01 27.8 C 9.95 g/m*3 27.8 C 0 km/h
1029 06-06-2011 13:54:02 27 C 9.01 g/m*3 27 C 0 km/h
1030 06-06-2011 14:06:01 28.3 C 9.68 g/m*3 28.3 C 0 km/h
1031 06-06-2011 14:18:01 27.3 C 9.42 g/m*3 27.3 C 0 km/h
1032 06-06-2011 14:30:01 26.7 C 9.37 g/m*3 26.7 C 0 km/h
1033 06-06-2011 14:42:02 26.4 C 8.96 g/m*3 26.4 C 0 km/h
1034 06-06-2011 14:54:02 26.5 C 10.01 g/m*3 26.5 C 0 km/h
1035 06-06-2011 15:06:02 26.2 C 8.86 g/m*3 26.2 C 0 km/h
1036 06-06-2011 15:18:01 25.8 C 9.87 g/m*3 25.8 C 0 km/h
1037 06-06-2011 15:30:01 25.5 C 11.6 g/m*3 25.5 C 0 km/h
1038 06-06-2011 15:42:02 27.2 C 10.15 g/m*3 27.2 C 0 km/h
1039 06-06-2011 15:54:02 25.1 C 9.26 g/m*3 25.1 C 0 km/h
1040 06-06-2011 16:06:02 24.8 C 10.24 g/m*3 24.8 C 0 km/h
1041 06-06-2011 16:18:01 25.1 C 10.19 g/m*3 25.1 C 0 km/h
1042 06-06-2011 16:30:01 26.1 C 10.28 g/m*3 26.1 C 0 km/h
1043 06-06-2011 16:42:02 25.8 C 10.11 g/m*3 25.8 C 0 km/h
1044 06-06-2011 16:54:02 23 C 8.63 g/m*3 23 C 0 km/h
1045 06-06-2011 17:06:02 21.1 C 8.84 g/m*3 21.1 C 0 km/h
1046 06-06-2011 17:18:01 18 C 9.83 g/m*3 18 C 0 km/h
1047 06-06-2011 17:30:01 16.9 C 10.79 g/m*3 16.9 C 0 km/h
1048 06-06-2011 17:42:02 16.4 C 10.89 g/m*3 16.4 C 0 km/h
1049 06-06-2011 17:54:01 16.3 C 11.38 g/m*3 16.3 C 0 km/h
1050 06-06-2011 18:06:02 16.4 C 11.72 g/m*3 16.4 C 0 km/h
Sensor: Nr:Datum:Temp:Abs-Feuchte:Windchill:Wind:
Aussen-T/F 1051 06-06-2011 18:18:02 17 C 12.01 g/m*3 17 C 0 km/h
1052 06-06-2011 18:30:02 16.8 C 12.01 g/m*3 16.8 C 0 km/h
1053 06-06-2011 18:42:01 17.2 C 12.3 g/m*3 17.2 C 0 km/h
1054 06-06-2011 18:54:02 17.2 C 12.3 g/m*3 17.2 C 0 km/h
1055 06-06-2011 19:06:01 17.2 C 12.3 g/m*3 17.2 C 0 km/h
1056 06-06-2011 19:18:02 17.5 C 12.67 g/m*3 17.5 C 0 km/h
1057 06-06-2011 19:30:03 17.8 C 12.9 g/m*3 17.8 C 0 km/h
1058 06-06-2011 19:42:01 18.1 C 12.82 g/m*3 18.1 C 0 km/h
1059 06-06-2011 19:54:02 18.1 C 12.82 g/m*3 18.1 C 0 km/h
1060 06-06-2011 20:06:02 18.1 C 12.67 g/m*3 18.1 C 0 km/h
1061 06-06-2011 20:18:02 18.1 C 12.67 g/m*3 18.1 C 0 km/h
1062 06-06-2011 20:30:02 18.1 C 12.67 g/m*3 18.1 C 0 km/h
1063 06-06-2011 20:42:49 17.5 C 12.52 g/m*3 17.5 C 0 km/h
1064 06-06-2011 20:54:49 17.2 C 12.45 g/m*3 17.2 C 0 km/h
1065 06-06-2011 21:06:49 16.8 C 12.15 g/m*3 16.8 C 0 km/h
1066 06-06-2011 21:18:03 16.5 C 12.08 g/m*3 16.5 C 0 km/h
1067 06-06-2011 21:30:03 16.3 C 11.93 g/m*3 16.3 C 0 km/h
1068 06-06-2011 21:42:02 16.2 C 12 g/m*3 16.2 C 0 km/h
1069 06-06-2011 21:55:02 15.9 C 11.78 g/m*3 15.9 C 0 km/h
1070 06-06-2011 22:07:02 15.9 C 11.92 g/m*3 15.9 C 0 km/h
1071 06-06-2011 22:19:02 15.6 C 11.7 g/m*3 15.6 C 0 km/h
1072 06-06-2011 22:31:02 15.3 C 11.49 g/m*3 15.3 C 0 km/h
1073 06-06-2011 22:43:02 15.8 C 11.98 g/m*3 15.8 C 0 km/h
1074 06-06-2011 22:55:02 15.6 C 11.84 g/m*3 15.6 C 0 km/h
1075 06-06-2011 23:07:03 15.5 C 11.76 g/m*3 15.5 C 0 km/h
Sensor: Nr:Datum:Temp:Abs-Feuchte:Windchill:Wind:
Aussen-T/F 1076 06-06-2011 23:19:03 15.7 C 11.91 g/m*3 15.7 C 0 km/h
1077 06-06-2011 23:31:03 15.6 C 11.84 g/m*3 15.6 C 0 km/h
1078 06-06-2011 23:43:03 15.6 C 11.84 g/m*3 15.6 C 0 km/h
1079 06-06-2011 23:55:03 15.4 C 11.69 g/m*3 15.4 C 0 km/h
1080 07-06-2011 00:07:03 15 C 11.41 g/m*3 15 C 0 km/h
1081 07-06-2011 00:19:03 15.2 C 11.55 g/m*3 15.2 C 0 km/h
1082 07-06-2011 00:31:03 15.2 C 11.55 g/m*3 15.2 C 0 km/h
1083 07-06-2011 00:43:03 15.1 C 11.48 g/m*3 15.1 C 0 km/h
1084 07-06-2011 00:55:03 15.2 C 11.55 g/m*3 15.2 C 0 km/h
1085 07-06-2011 01:07:03 15.3 C 11.75 g/m*3 15.3 C 0 km/h
1086 07-06-2011 01:19:03 15.3 C 11.75 g/m*3 15.3 C 0 km/h
1087 07-06-2011 01:31:03 15.3 C 11.75 g/m*3 15.3 C 0 km/h
1088 07-06-2011 01:43:03 15.5 C 11.9 g/m*3 15.5 C 0 km/h
1089 07-06-2011 01:55:03 15.5 C 11.9 g/m*3 15.5 C 0 km/h
1090 07-06-2011 02:07:03 15.6 C 11.97 g/m*3 15.6 C 0 km/h
1091 07-06-2011 02:19:03 15.7 C 12.04 g/m*3 15.7 C 0 km/h
1092 07-06-2011 02:31:03 15.7 C 12.04 g/m*3 15.7 C 0 km/h
1093 07-06-2011 02:43:03 15.7 C 12.04 g/m*3 15.7 C 0 km/h
1094 07-06-2011 02:55:03 15.5 C 11.9 g/m*3 15.5 C 0 km/h
1095 07-06-2011 03:07:04 15.5 C 11.9 g/m*3 15.5 C 0 km/h
1096 07-06-2011 03:19:04 15.4 C 11.82 g/m*3 15.4 C 0 km/h
1097 07-06-2011 03:31:04 15 C 11.54 g/m*3 15 C 0 km/h
1098 07-06-2011 03:43:04 14.9 C 11.6 g/m*3 14.9 C 0 km/h
1099 07-06-2011 03:55:04 14.8 C 11.53 g/m*3 14.8 C 0 km/h
1100 07-06-2011 04:07:04 15 C 11.54 g/m*3 15 C 0 km/h
Sensor: Nr:Datum:Temp:Abs-Feuchte:Windchill:Wind:
Aussen-T/F 1101 07-06-2011 04:19:04 15.1 C 11.61 g/m*3 15.1 C 0 km/h
1102 07-06-2011 04:31:04 15.2 C 11.68 g/m*3 15.2 C 0 km/h
1103 07-06-2011 04:43:04 15.2 C 11.68 g/m*3 15.2 C 0 km/h
1104 07-06-2011 04:55:04 15.1 C 11.61 g/m*3 15.1 C 0 km/h
1105 07-06-2011 05:07:04 15 C 11.54 g/m*3 15 C 0 km/h
1106 07-06-2011 05:19:04 15 C 11.54 g/m*3 15 C 0 km/h
1107 07-06-2011 05:31:04 15 C 11.54 g/m*3 15 C 0 km/h
1108 07-06-2011 05:43:04 15 C 11.54 g/m*3 15 C 0 km/h
1109 07-06-2011 05:55:04 15 C 11.54 g/m*3 15 C 0 km/h
1110 07-06-2011 06:07:04 14.7 C 11.33 g/m*3 14.7 C 0 km/h
1111 07-06-2011 06:19:04 14.8 C 11.4 g/m*3 14.8 C 0 km/h
1112 07-06-2011 06:31:04 14.8 C 11.4 g/m*3 14.8 C 0 km/h
1113 07-06-2011 06:43:04 14.9 C 11.47 g/m*3 14.9 C 0 km/h
1114 07-06-2011 06:55:04 15.2 C 11.42 g/m*3 15.2 C 0 km/h
1115 07-06-2011 07:07:02 15.4 C 11.04 g/m*3 15.4 C 0 km/h
1116 07-06-2011 07:19:02 15.7 C 10.84 g/m*3 15.7 C 0 km/h
1117 07-06-2011 07:31:02 16 C 10.9 g/m*3 16 C 0 km/h
1118 07-06-2011 07:43:02 16.2 C 10.76 g/m*3 16.2 C 0 km/h
1119 07-06-2011 07:55:02 16.6 C 10.03 g/m*3 16.6 C 0 km/h
1120 07-06-2011 08:07:02 16.9 C 9.92 g/m*3 16.9 C 0 km/h
1121 07-06-2011 08:19:01 17.2 C 9.67 g/m*3 17.2 C 0 km/h
1122 07-06-2011 08:31:02 17.8 C 9.87 g/m*3 17.8 C 0 km/h
1123 07-06-2011 08:43:02 17.9 C 9.47 g/m*3 17.9 C 0 km/h
1124 07-06-2011 08:55:02 18.2 C 8.86 g/m*3 18.2 C 0 km/h
1125 07-06-2011 09:07:02 18.4 C 8.81 g/m*3 18.4 C 0 km/h
Sensor: Nr:Datum:Temp:Abs-Feuchte:Windchill:Wind:
Aussen-T/F 1126 07-06-2011 09:19:01 18.5 C 8.54 g/m*3 18.5 C 0 km/h
1127 07-06-2011 09:31:02 18.1 C 8.5 g/m*3 18.1 C 0 km/h
1128 07-06-2011 09:43:02 18.4 C 8.81 g/m*3 18.4 C 0 km/h
1129 07-06-2011 09:55:02 18.9 C 8.59 g/m*3 18.9 C 0 km/h
1130 07-06-2011 10:07:02 18.8 C 8.21 g/m*3 18.8 C 0 km/h
1131 07-06-2011 10:19:02 19.2 C 8.24 g/m*3 19.2 C 0 km/h
1132 07-06-2011 10:31:02 19.1 C 8.03 g/m*3 19.1 C 0 km/h
1133 07-06-2011 10:43:02 19.5 C 9.06 g/m*3 19.5 C 0 km/h
1134 07-06-2011 10:55:02 19.1 C 8.85 g/m*3 19.1 C 0 km/h
1135 07-06-2011 11:07:02 19.1 C 8.2 g/m*3 19.1 C 0 km/h
1136 07-06-2011 11:19:02 19.2 C 8.41 g/m*3 19.2 C 0 km/h
1137 07-06-2011 11:31:02 19.3 C 8.46 g/m*3 19.3 C 0 km/h
1138 07-06-2011 11:43:02 19.5 C 8.39 g/m*3 19.5 C 0 km/h
1139 07-06-2011 11:55:02 19.7 C 8.66 g/m*3 19.7 C 0 km/h
1140 07-06-2011 12:07:02 20.8 C 8.69 g/m*3 20.8 C 0 km/h
1141 07-06-2011 12:19:02 21.1 C 8.66 g/m*3 21.1 C 0 km/h
1142 07-06-2011 12:31:02 21.1 C 8.48 g/m*3 21.1 C 0 km/h
1143 07-06-2011 12:43:02 20.9 C 8.74 g/m*3 20.9 C 0 km/h
1144 07-06-2011 12:55:02 21.2 C 8.52 g/m*3 21.2 C 0 km/h
1145 07-06-2011 13:07:01 21.9 C 8.68 g/m*3 21.9 C 0 km/h
1146 07-06-2011 13:19:02 22.3 C 8.89 g/m*3 22.3 C 0 km/h
1147 07-06-2011 13:31:01 25.7 C 8.38 g/m*3 25.7 C 0 km/h
1148 07-06-2011 13:43:01 29.1 C 8.66 g/m*3 29.1 C 0 km/h
1149 07-06-2011 13:55:02 30.5 C 8.1 g/m*3 30.5 C 0 km/h
1150 07-06-2011 14:07:01 30.3 C 8.32 g/m*3 30.3 C 0 km/h
Sensor: Nr:Datum:Temp:Abs-Feuchte:Windchill:Wind:
Aussen-T/F 1151 07-06-2011 14:19:01 30.3 C 8.01 g/m*3 30.3 C 0 km/h
1152 07-06-2011 14:31:02 28.9 C 7.71 g/m*3 28.9 C 0 km/h
1153 07-06-2011 14:43:02 29 C 8.04 g/m*3 29 C 0 km/h
1154 07-06-2011 14:55:02 27.1 C 8.02 g/m*3 27.1 C 0 km/h
1155 07-06-2011 15:07:02 30.3 C 8.32 g/m*3 30.3 C 0 km/h
1156 07-06-2011 15:19:02 29.5 C 8.26 g/m*3 29.5 C 0 km/h
1157 07-06-2011 15:31:02 30 C 8.49 g/m*3 30 C 0 km/h
1158 07-06-2011 15:43:02 30.5 C 8.1 g/m*3 30.5 C 0 km/h
1159 07-06-2011 15:55:02 28.6 C 7.59 g/m*3 28.6 C 0 km/h
1160 07-06-2011 16:07:02 30 C 7.88 g/m*3 30 C 0 km/h
1161 07-06-2011 16:19:02 31.8 C 7.01 g/m*3 31.8 C 0 km/h
1162 07-06-2011 16:31:02 30.1 C 7.62 g/m*3 30.1 C 0 km/h
1163 07-06-2011 16:43:02 31.7 C 6.98 g/m*3 31.7 C 0 km/h
1164 07-06-2011 16:55:02 32.1 C 6.79 g/m*3 32.1 C 0 km/h
1165 07-06-2011 17:07:02 31.5 C 7.23 g/m*3 31.5 C 0 km/h
1166 07-06-2011 17:19:03 29.9 C 8.14 g/m*3 29.9 C 0 km/h
1167 07-06-2011 17:31:02 30.6 C 7.83 g/m*3 30.6 C 0 km/h
1168 07-06-2011 17:43:02 29.3 C 8.17 g/m*3 29.3 C 0 km/h
1169 07-06-2011 17:55:02 27.1 C 11.13 g/m*3 27.1 C 0 km/h
1170 07-06-2011 18:07:01 24.3 C 11.29 g/m*3 24.3 C 0 km/h
1171 07-06-2011 18:19:02 25.2 C 11.64 g/m*3 25.2 C 0 km/h
1172 07-06-2011 18:31:01 29.7 C 8.95 g/m*3 29.7 C 0 km/h
1173 07-06-2011 18:43:01 29.5 C 8.85 g/m*3 29.5 C 0 km/h
1174 07-06-2011 18:55:02 28.3 C 9.4 g/m*3 28.3 C 0 km/h
1175 07-06-2011 19:07:01 27.3 C 11.25 g/m*3 27.3 C 0 km/h
Sensor: Nr:Datum:Temp:Abs-Feuchte:Windchill:Wind:
Aussen-T/F 1176 07-06-2011 19:19:01 27.7 C 11.77 g/m*3 27.7 C 0 km/h
1177 07-06-2011 19:31:02 26.5 C 11.77 g/m*3 26.5 C 0 km/h
1178 07-06-2011 19:43:02 24.5 C 11.41 g/m*3 24.5 C 0 km/h
1179 07-06-2011 19:55:02 23.1 C 11.58 g/m*3 23.1 C 0 km/h
1180 07-06-2011 20:07:02 22.1 C 11.71 g/m*3 22.1 C 0 km/h
1181 07-06-2011 20:19:02 21.9 C 11.96 g/m*3 21.9 C 0 km/h
1182 07-06-2011 20:31:02 21.2 C 11.49 g/m*3 21.2 C 0 km/h
1183 07-06-2011 20:43:02 20.5 C 11.39 g/m*3 20.5 C 0 km/h
1184 07-06-2011 20:55:02 20 C 11.06 g/m*3 20 C 0 km/h
1185 07-06-2011 21:07:03 19.7 C 11.21 g/m*3 19.7 C 0 km/h
1186 07-06-2011 21:19:02 19.6 C 10.97 g/m*3 19.6 C 0 km/h
1187 07-06-2011 21:31:04 19.4 C 11.35 g/m*3 19.4 C 0 km/h
1188 07-06-2011 21:43:04 19.1 C 11.15 g/m*3 19.1 C 0 km/h
1189 07-06-2011 21:55:02 19 C 11.41 g/m*3 19 C 0 km/h
1190 07-06-2011 22:07:02 18.5 C 11.39 g/m*3 18.5 C 0 km/h
1191 07-06-2011 22:19:02 18.9 C 11.5 g/m*3 18.9 C 0 km/h
1192 07-06-2011 22:32:01 19.7 C 11.21 g/m*3 19.7 C 0 km/h
1193 07-06-2011 22:44:01 19.5 C 10.91 g/m*3 19.5 C 0 km/h
1194 07-06-2011 22:56:01 19 C 11.41 g/m*3 19 C 0 km/h
1195 07-06-2011 23:08:01 18.6 C 11.78 g/m*3 18.6 C 0 km/h
1196 07-06-2011 23:20:01 18.5 C 11.87 g/m*3 18.5 C 0 km/h
1197 07-06-2011 23:32:01 19.5 C 10.07 g/m*3 19.5 C 0 km/h
1198 07-06-2011 23:44:01 19.1 C 9.51 g/m*3 19.1 C 0 km/h
1199 07-06-2011 23:56:02 17.7 C 10.11 g/m*3 17.7 C 0 km/h
1200 08-06-2011 00:08:02 16.8 C 11.29 g/m*3 16.8 C 0 km/h
Sensor: Nr:Datum:Temp:Abs-Feuchte:Windchill:Wind:
Aussen-T/F 1201 08-06-2011 00:20:02 16.4 C 11.31 g/m*3 16.4 C 0 km/h
1202 08-06-2011 00:32:02 16.4 C 11.45 g/m*3 16.4 C 0 km/h
1203 08-06-2011 00:44:02 16.3 C 11.52 g/m*3 16.3 C 0 km/h
1204 08-06-2011 00:56:02 16.2 C 11.58 g/m*3 16.2 C 0 km/h
1205 08-06-2011 01:08:02 16.1 C 11.65 g/m*3 16.1 C 0 km/h
1206 08-06-2011 01:20:02 16 C 11.72 g/m*3 16 C 0 km/h
1207 08-06-2011 01:32:02 16 C 11.72 g/m*3 16 C 0 km/h
1208 08-06-2011 01:44:02 16 C 11.85 g/m*3 16 C 0 km/h
1209 08-06-2011 01:56:02 15.9 C 11.92 g/m*3 15.9 C 0 km/h
1210 08-06-2011 02:08:02 15.7 C 11.77 g/m*3 15.7 C 0 km/h
1211 08-06-2011 02:20:02 15.6 C 11.7 g/m*3 15.6 C 0 km/h
1212 08-06-2011 02:32:02 15.5 C 11.63 g/m*3 15.5 C 0 km/h
1213 08-06-2011 02:44:02 15.4 C 11.56 g/m*3 15.4 C 0 km/h
1214 08-06-2011 02:56:02 15.4 C 11.56 g/m*3 15.4 C 0 km/h
1215 08-06-2011 03:08:02 15.3 C 11.49 g/m*3 15.3 C 0 km/h
1216 08-06-2011 03:20:02 15.2 C 11.55 g/m*3 15.2 C 0 km/h
1217 08-06-2011 03:32:02 15.2 C 11.55 g/m*3 15.2 C 0 km/h
1218 08-06-2011 03:44:02 15.2 C 11.55 g/m*3 15.2 C 0 km/h
1219 08-06-2011 03:56:03 15.1 C 11.48 g/m*3 15.1 C 0 km/h
1220 08-06-2011 04:08:03 15.1 C 11.48 g/m*3 15.1 C 0 km/h
1221 08-06-2011 04:20:03 15.2 C 11.55 g/m*3 15.2 C 0 km/h
1222 08-06-2011 04:32:03 15.1 C 11.48 g/m*3 15.1 C 0 km/h
1223 08-06-2011 04:44:03 15.1 C 11.48 g/m*3 15.1 C 0 km/h
1224 08-06-2011 04:56:03 15.1 C 11.48 g/m*3 15.1 C 0 km/h
1225 08-06-2011 05:08:03 15 C 11.41 g/m*3 15 C 0 km/h
Sensor: Nr:Datum:Temp:Abs-Feuchte:Windchill:Wind:
Aussen-T/F 1226 08-06-2011 05:20:03 14.9 C 11.47 g/m*3 14.9 C 0 km/h
1227 08-06-2011 05:32:03 15 C 11.41 g/m*3 15 C 0 km/h
1228 08-06-2011 05:44:03 15 C 11.41 g/m*3 15 C 0 km/h
1229 08-06-2011 05:56:03 15.1 C 11.48 g/m*3 15.1 C 0 km/h
1230 08-06-2011 06:08:03 15 C 11.41 g/m*3 15 C 0 km/h
1231 08-06-2011 06:20:03 13.4 C 10.46 g/m*3 13.4 C 0 km/h
1232 08-06-2011 06:32:03 12.6 C 9.96 g/m*3 12.6 C 0 km/h
1233 08-06-2011 06:44:03 12.5 C 9.78 g/m*3 12.5 C 0 km/h
1234 08-06-2011 06:56:03 12.4 C 9.51 g/m*3 12.4 C 0 km/h
1235 08-06-2011 07:08:02 12.1 C 9.22 g/m*3 12.1 C 0 km/h
1236 08-06-2011 07:20:01 12.1 C 9.12 g/m*3 12.1 C 0 km/h
1237 08-06-2011 07:32:02 11.9 C 9.11 g/m*3 11.9 C 0 km/h
1238 08-06-2011 07:44:02 11.8 C 9.05 g/m*3 11.8 C 0 km/h
1239 08-06-2011 07:56:02 11.4 C 8.62 g/m*3 11.4 C 0 km/h
1240 08-06-2011 08:08:02 11.4 C 8.72 g/m*3 11.4 C 0 km/h
1241 08-06-2011 08:20:01 11.2 C 8.62 g/m*3 11.2 C 0 km/h
1242 08-06-2011 08:32:02 11.5 C 8.88 g/m*3 11.5 C 0 km/h
1243 08-06-2011 08:44:02 11.4 C 8.72 g/m*3 11.4 C 0 km/h
1244 08-06-2011 08:56:01 11.3 C 8.57 g/m*3 11.3 C 0 km/h
1245 08-06-2011 09:08:02 11.7 C 8.89 g/m*3 11.7 C 0 km/h
1246 08-06-2011 09:20:02 11.8 C 8.95 g/m*3 11.8 C 0 km/h
1247 08-06-2011 09:32:01 11.8 C 8.84 g/m*3 11.8 C 0 km/h
1248 08-06-2011 09:44:01 12 C 8.95 g/m*3 12 C 0 km/h
1249 08-06-2011 09:56:01 11.7 C 8.79 g/m*3 11.7 C 0 km/h
1250 08-06-2011 10:08:01 11.9 C 8.9 g/m*3 11.9 C 0 km/h
Sensor: Nr:Datum:Temp:Abs-Feuchte:Windchill:Wind:
Aussen-T/F 1251 08-06-2011 10:20:02 12.3 C 8.9 g/m*3 12.3 C 0 km/h
1252 08-06-2011 10:32:01 12.4 C 8.85 g/m*3 12.4 C 0 km/h
1253 08-06-2011 10:44:01 12.2 C 8.52 g/m*3 12.2 C 0 km/h
1254 08-06-2011 10:56:03 12 C 8.1 g/m*3 12 C 0 km/h
1255 08-06-2011 11:08:02 12.1 C 8.15 g/m*3 12.1 C 0 km/h
1256 08-06-2011 11:20:02 12.4 C 8.19 g/m*3 12.4 C 0 km/h
1257 08-06-2011 11:32:02 13.5 C 9.01 g/m*3 13.5 C 0 km/h
1258 08-06-2011 11:44:02 14.1 C 7.89 g/m*3 14.1 C 0 km/h
1259 08-06-2011 11:56:02 14.5 C 7.59 g/m*3 14.5 C 0 km/h
1260 08-06-2011 12:08:01 15.4 C 7.75 g/m*3 15.4 C 0 km/h
1261 08-06-2011 12:20:02 15.9 C 6.77 g/m*3 15.9 C 0 km/h
1262 08-06-2011 12:32:02 15.8 C 6.6 g/m*3 15.8 C 0 km/h
1263 08-06-2011 12:44:02 16.2 C 6.34 g/m*3 16.2 C 0 km/h
1264 08-06-2011 12:56:02 17.3 C 6.48 g/m*3 17.3 C 0 km/h
1265 08-06-2011 13:08:02 18 C 6.6 g/m*3 18 C 0 km/h
1266 08-06-2011 13:20:02 18.6 C 7 g/m*3 18.6 C 0 km/h
1267 08-06-2011 13:32:02 19.9 C 7.04 g/m*3 19.9 C 0 km/h
1268 08-06-2011 13:44:02 22 C 6.6 g/m*3 22 C 0 km/h
1269 08-06-2011 13:56:01 24.2 C 6.82 g/m*3 24.2 C 0 km/h
1270 08-06-2011 14:08:02 20.5 C 6.58 g/m*3 20.5 C 0 km/h
1271 08-06-2011 14:20:01 18.9 C 6.97 g/m*3 18.9 C 0 km/h
1272 08-06-2011 14:32:01 18.6 C 7.16 g/m*3 18.6 C 0 km/h
1273 08-06-2011 14:44:01 22.9 C 7.36 g/m*3 22.9 C 0 km/h
1274 08-06-2011 14:56:01 19.6 C 6.75 g/m*3 19.6 C 0 km/h
1275 08-06-2011 15:08:01 21.1 C 6.82 g/m*3 21.1 C 0 km/h
Sensor: Nr:Datum:Temp:Abs-Feuchte:Windchill:Wind:
Aussen-T/F 1276 08-06-2011 15:20:01 22.4 C 6.75 g/m*3 22.4 C 0 km/h
1277 08-06-2011 15:32:01 19.9 C 7.04 g/m*3 19.9 C 0 km/h
1278 08-06-2011 15:44:01 20.3 C 7.03 g/m*3 20.3 C 0 km/h
1279 08-06-2011 15:56:02 20.8 C 7.42 g/m*3 20.8 C 0 km/h
1280 08-06-2011 16:08:02 20.3 C 6.16 g/m*3 20.3 C 0 km/h
1281 08-06-2011 16:20:03 19.4 C 5.51 g/m*3 19.4 C 0 km/h
1282 08-06-2011 16:32:02 20.4 C 5.66 g/m*3 20.4 C 0 km/h
1283 08-06-2011 16:44:02 19.2 C 5.11 g/m*3 19.2 C 0 km/h
1284 08-06-2011 16:56:02 20.9 C 5.28 g/m*3 20.9 C 0 km/h
1285 08-06-2011 17:08:02 20.6 C 5.55 g/m*3 20.6 C 0 km/h
1286 08-06-2011 17:20:02 20.9 C 5.46 g/m*3 20.9 C 0 km/h
1287 08-06-2011 17:32:02 19.6 C 5.06 g/m*3 19.6 C 0 km/h
1288 08-06-2011 17:44:02 18.9 C 5.67 g/m*3 18.9 C 0 km/h
1289 08-06-2011 17:56:02 18.6 C 5.73 g/m*3 18.6 C 0 km/h
1290 08-06-2011 18:08:02 19.4 C 5.51 g/m*3 19.4 C 0 km/h
1291 08-06-2011 18:20:02 18.6 C 5.73 g/m*3 18.6 C 0 km/h
1292 08-06-2011 18:32:02 18.2 C 6.22 g/m*3 18.2 C 0 km/h
1293 08-06-2011 18:44:02 17.9 C 6.11 g/m*3 17.9 C 0 km/h
1294 08-06-2011 18:56:02 17.6 C 6.3 g/m*3 17.6 C 0 km/h
1295 08-06-2011 19:08:01 17.7 C 6.34 g/m*3 17.7 C 0 km/h
1296 08-06-2011 19:20:02 17.4 C 6.97 g/m*3 17.4 C 0 km/h
1297 08-06-2011 19:32:01 17.3 C 7.66 g/m*3 17.3 C 0 km/h
1298 08-06-2011 19:44:01 17.3 C 7.22 g/m*3 17.3 C 0 km/h
1299 08-06-2011 19:56:02 16.9 C 6.47 g/m*3 16.9 C 0 km/h
1300 08-06-2011 20:08:01 16.3 C 7.08 g/m*3 16.3 C 0 km/h
Sensor: Nr:Datum:Temp:Abs-Feuchte:Windchill:Wind:
Aussen-T/F 1301 08-06-2011 20:20:01 16.3 C 7.08 g/m*3 16.3 C 0 km/h
1302 08-06-2011 20:32:02 16.3 C 7.08 g/m*3 16.3 C 0 km/h
1303 08-06-2011 20:44:02 15 C 8.21 g/m*3 15 C 0 km/h
1304 08-06-2011 20:56:02 14.9 C 8.16 g/m*3 14.9 C 0 km/h
1305 08-06-2011 21:08:02 14.7 C 8.18 g/m*3 14.7 C 0 km/h
1306 08-06-2011 21:20:02 14.4 C 8.03 g/m*3 14.4 C 0 km/h
1307 08-06-2011 21:32:02 14.2 C 8.3 g/m*3 14.2 C 0 km/h
1308 08-06-2011 21:44:02 14 C 8.32 g/m*3 14 C 0 km/h
1309 08-06-2011 21:56:02 13.7 C 8.41 g/m*3 13.7 C 0 km/h
1310 08-06-2011 22:08:02 13.6 C 8.47 g/m*3 13.6 C 0 km/h
1311 08-06-2011 22:20:02 13.2 C 8.27 g/m*3 13.2 C 0 km/h
1312 08-06-2011 22:32:03 13.4 C 8.49 g/m*3 13.4 C 0 km/h
1313 08-06-2011 22:44:03 13.2 C 8.15 g/m*3 13.2 C 0 km/h
1314 08-06-2011 22:56:03 13.2 C 8.04 g/m*3 13.2 C 0 km/h
1315 08-06-2011 23:08:02 13.3 C 7.86 g/m*3 13.3 C 0 km/h
1316 08-06-2011 23:21:04 13.4 C 7.79 g/m*3 13.4 C 0 km/h
1317 08-06-2011 23:33:04 13.4 C 7.79 g/m*3 13.4 C 0 km/h
1318 08-06-2011 23:45:04 13.4 C 7.79 g/m*3 13.4 C 0 km/h
1319 08-06-2011 23:57:04 13.4 C 7.79 g/m*3 13.4 C 0 km/h
1320 09-06-2011 00:09:04 13.4 C 7.79 g/m*3 13.4 C 0 km/h
1321 09-06-2011 00:21:04 13.4 C 7.79 g/m*3 13.4 C 0 km/h
1322 09-06-2011 00:33:04 13.4 C 7.79 g/m*3 13.4 C 0 km/h
1323 09-06-2011 00:45:04 13.4 C 7.79 g/m*3 13.4 C 0 km/h
1324 09-06-2011 00:57:05 13.4 C 7.79 g/m*3 13.4 C 0 km/h
1325 09-06-2011 01:09:05 13.4 C 7.79 g/m*3 13.4 C 0 km/h
Sensor: Nr:Datum:Temp:Abs-Feuchte:Windchill:Wind:
Aussen-T/F 1326 09-06-2011 01:21:05 11.7 C 7.64 g/m*3 11.7 C 0 km/h
1327 09-06-2011 01:33:05 11.7 C 7.64 g/m*3 11.7 C 0 km/h
1328 09-06-2011 01:45:05 11.7 C 7.64 g/m*3 11.7 C 0 km/h
1329 09-06-2011 01:57:05 11.1 C 7.55 g/m*3 11.1 C 0 km/h
1330 09-06-2011 02:09:05 11.1 C 7.55 g/m*3 11.1 C 0 km/h
1331 09-06-2011 02:21:05 11.1 C 7.55 g/m*3 11.1 C 0 km/h
1332 09-06-2011 02:33:05 11.1 C 7.55 g/m*3 11.1 C 0 km/h
1333 09-06-2011 02:45:05 11.1 C 7.55 g/m*3 11.1 C 0 km/h
1334 09-06-2011 02:57:05 11.1 C 7.55 g/m*3 11.1 C 0 km/h
1335 09-06-2011 03:09:05 11.1 C 7.55 g/m*3 11.1 C 0 km/h
1336 09-06-2011 03:21:05 11.1 C 7.55 g/m*3 11.1 C 0 km/h
1337 09-06-2011 03:33:05 11.1 C 7.55 g/m*3 11.1 C 0 km/h
1338 09-06-2011 03:45:05 11.1 C 7.55 g/m*3 11.1 C 0 km/h
1339 09-06-2011 03:57:05 11.1 C 7.55 g/m*3 11.1 C 0 km/h
1340 09-06-2011 04:09:05 11.1 C 7.55 g/m*3 11.1 C 0 km/h
1341 09-06-2011 04:21:05 11.1 C 7.55 g/m*3 11.1 C 0 km/h
1342 09-06-2011 04:33:05 11.1 C 7.55 g/m*3 11.1 C 0 km/h
1343 09-06-2011 04:45:05 11.1 C 7.55 g/m*3 11.1 C 0 km/h
1344 09-06-2011 04:57:06 11.1 C 7.55 g/m*3 11.1 C 0 km/h
1345 09-06-2011 05:09:06 11.1 C 7.55 g/m*3 11.1 C 0 km/h
1346 09-06-2011 05:21:06 11.1 C 7.55 g/m*3 11.1 C 0 km/h
1347 09-06-2011 05:33:06 11.1 C 7.55 g/m*3 11.1 C 0 km/h
1348 09-06-2011 05:45:06 11.1 C 7.55 g/m*3 11.1 C 0 km/h
1349 09-06-2011 05:57:06 11.1 C 7.55 g/m*3 11.1 C 0 km/h
1350 09-06-2011 06:09:06 11.1 C 7.55 g/m*3 11.1 C 0 km/h
Sensor: Nr:Datum:Temp:Abs-Feuchte:Windchill:Wind:
Aussen-T/F 1351 09-06-2011 06:21:06 8.8 C 7.66 g/m*3 8.8 C 0 km/h
1352 09-06-2011 06:33:06 8.7 C 7.61 g/m*3 8.7 C 0 km/h
1353 09-06-2011 06:45:02 8.6 C 7.56 g/m*3 8.6 C 0 km/h
1354 09-06-2011 06:57:02 8.8 C 7.66 g/m*3 8.8 C 0 km/h
1355 09-06-2011 07:09:02 9.3 C 7.91 g/m*3 9.3 C 0 km/h
1356 09-06-2011 07:21:02 9.5 C 8.01 g/m*3 9.5 C 0 km/h
1357 09-06-2011 07:33:02 9.7 C 8.11 g/m*3 9.7 C 0 km/h
1358 09-06-2011 07:45:02 9.7 C 8.11 g/m*3 9.7 C 0 km/h
1359 09-06-2011 07:57:02 9.7 C 8.11 g/m*3 9.7 C 0 km/h
1360 09-06-2011 08:09:01 9.7 C 8.11 g/m*3 9.7 C 0 km/h
1361 09-06-2011 08:21:02 9.7 C 8.11 g/m*3 9.7 C 0 km/h
1362 09-06-2011 08:33:02 9.7 C 8.11 g/m*3 9.7 C 0 km/h
1363 09-06-2011 08:45:02 9.7 C 8.11 g/m*3 9.7 C 0 km/h
1364 09-06-2011 08:57:02 9.7 C 8.11 g/m*3 9.7 C 0 km/h
1365 09-06-2011 09:09:03 9.7 C 8.11 g/m*3 9.7 C 0 km/h
1366 09-06-2011 09:21:02 9.7 C 8.11 g/m*3 9.7 C 0 km/h
1367 09-06-2011 09:33:03 9.7 C 8.11 g/m*3 9.7 C 0 km/h
1368 09-06-2011 09:45:02 9.7 C 8.11 g/m*3 9.7 C 0 km/h
1369 09-06-2011 09:57:03 9.7 C 8.11 g/m*3 9.7 C 0 km/h
1370 09-06-2011 10:09:01 9.7 C 8.11 g/m*3 9.7 C 0 km/h
1371 09-06-2011 10:21:02 9.7 C 8.11 g/m*3 9.7 C 0 km/h
1372 09-06-2011 10:33:02 9.7 C 8.11 g/m*3 9.7 C 0 km/h
1373 09-06-2011 10:58:02 9.7 C 8.11 g/m*3 9.7 C 0 km/h
1374 09-06-2011 11:10:03 9.7 C 8.11 g/m*3 9.7 C 0 km/h
1375 09-06-2011 11:22:02 9.7 C 8.11 g/m*3 9.7 C 0 km/h
Sensor: Nr:Datum:Temp:Abs-Feuchte:Windchill:Wind:
Aussen-T/F 1376 09-06-2011 11:34:02 9.7 C 8.11 g/m*3 9.7 C 0 km/h
1377 09-06-2011 11:46:02 9.7 C 8.11 g/m*3 9.7 C 0 km/h
1378 09-06-2011 11:58:02 18.6 C 6.37 g/m*3 18.6 C 0 km/h
1379 09-06-2011 12:10:03 18.8 C 6.76 g/m*3 18.8 C 0 km/h
1380 09-06-2011 12:22:03 18.3 C 6.1 g/m*3 18.3 C 0 km/h
1381 09-06-2011 12:34:02 18.1 C 8.03 g/m*3 18.1 C 0 km/h
1382 09-06-2011 12:46:02 20 C 6.91 g/m*3 20 C 0 km/h
1383 09-06-2011 12:58:03 20.9 C 6.56 g/m*3 20.9 C 0 km/h
1384 09-06-2011 13:10:01 20.9 C 6.19 g/m*3 20.9 C 0 km/h
1385 09-06-2011 13:22:02 20.1 C 6.78 g/m*3 20.1 C 0 km/h
1386 09-06-2011 13:34:02 20.1 C 6.61 g/m*3 20.1 C 0 km/h
1387 09-06-2011 13:46:02 18.8 C 6.76 g/m*3 18.8 C 0 km/h
1388 09-06-2011 13:58:02 17.1 C 7.57 g/m*3 17.1 C 0 km/h
1389 09-06-2011 14:10:03 16.7 C 6.54 g/m*3 16.7 C 0 km/h
1390 09-06-2011 14:22:02 16.2 C 7.58 g/m*3 16.2 C 0 km/h
1391 09-06-2011 14:34:02 15.6 C 7.98 g/m*3 15.6 C 0 km/h
1392 09-06-2011 14:46:01 15.5 C 8.06 g/m*3 15.5 C 0 km/h
1393 09-06-2011 14:58:01 15.7 C 8.16 g/m*3 15.7 C 0 km/h
1394 09-06-2011 15:10:02 16.2 C 8.14 g/m*3 16.2 C 0 km/h
1395 09-06-2011 15:22:01 17 C 8.68 g/m*3 17 C 0 km/h
1396 09-06-2011 15:34:01 17.3 C 8.25 g/m*3 17.3 C 0 km/h
1397 09-06-2011 15:46:01 17.9 C 8.24 g/m*3 17.9 C 0 km/h
1398 09-06-2011 15:58:01 18.2 C 8.39 g/m*3 18.2 C 0 km/h
1399 09-06-2011 16:10:02 17.6 C 8.7 g/m*3 17.6 C 0 km/h
1400 09-06-2011 16:22:01 17.2 C 8.35 g/m*3 17.2 C 0 km/h
Sensor: Nr:Datum:Temp:Abs-Feuchte:Windchill:Wind:
Aussen-T/F 1401 09-06-2011 16:34:01 17.1 C 8.44 g/m*3 17.1 C 0 km/h
1402 09-06-2011 16:46:01 16.8 C 9.01 g/m*3 16.8 C 0 km/h
1403 09-06-2011 16:58:01 16.6 C 9.18 g/m*3 16.6 C 0 km/h
1404 09-06-2011 17:10:01 16.5 C 8.99 g/m*3 16.5 C 0 km/h
1405 09-06-2011 17:22:02 16.8 C 9.01 g/m*3 16.8 C 0 km/h
1406 09-06-2011 17:34:01 16.8 C 9.01 g/m*3 16.8 C 0 km/h
1407 09-06-2011 17:46:02 17.2 C 8.93 g/m*3 17.2 C 0 km/h
1408 09-06-2011 17:58:02 17.8 C 8.8 g/m*3 17.8 C 0 km/h
1409 09-06-2011 18:10:02 20.4 C 7.78 g/m*3 20.4 C 0 km/h
1410 09-06-2011 18:22:02 21.3 C 6.9 g/m*3 21.3 C 0 km/h
1411 09-06-2011 18:34:02 23.3 C 6.69 g/m*3 23.3 C 0 km/h
1412 09-06-2011 18:46:02 22.2 C 5.5 g/m*3 22.2 C 0 km/h
1413 09-06-2011 18:58:02 22.5 C 6.19 g/m*3 22.5 C 0 km/h
1414 09-06-2011 19:10:01 22.3 C 7.5 g/m*3 22.3 C 0 km/h
1415 09-06-2011 19:22:02 22.3 C 7.5 g/m*3 22.3 C 0 km/h
1416 09-06-2011 19:34:02 22.3 C 7.5 g/m*3 22.3 C 0 km/h
1417 09-06-2011 19:46:02 22.3 C 7.5 g/m*3 22.3 C 0 km/h
1418 09-06-2011 19:58:02 22.3 C 7.5 g/m*3 22.3 C 0 km/h
1419 09-06-2011 20:10:02 22.3 C 7.5 g/m*3 22.3 C 0 km/h
1420 09-06-2011 20:22:02 22.3 C 7.5 g/m*3 22.3 C 0 km/h
1421 09-06-2011 20:34:02 22.3 C 7.5 g/m*3 22.3 C 0 km/h
1422 09-06-2011 20:46:02 22.3 C 7.5 g/m*3 22.3 C 0 km/h
1423 09-06-2011 20:58:02 22.3 C 7.5 g/m*3 22.3 C 0 km/h
1424 09-06-2011 21:10:02 13 C 9.3 g/m*3 13 C 0 km/h
1425 09-06-2011 21:22:01 12.9 C 9.47 g/m*3 12.9 C 0 km/h
Sensor: Nr:Datum:Temp:Abs-Feuchte:Windchill:Wind:
Aussen-T/F 1426 09-06-2011 21:34:02 12.9 C 9.58 g/m*3 12.9 C 0 km/h
1427 09-06-2011 21:46:02 12.5 C 9.46 g/m*3 12.5 C 0 km/h
1428 09-06-2011 21:58:02 12.4 C 9.4 g/m*3 12.4 C 0 km/h
1429 09-06-2011 22:10:02 12.4 C 9.4 g/m*3 12.4 C 0 km/h
1430 09-06-2011 22:22:01 11.5 C 8.99 g/m*3 11.5 C 0 km/h
1431 09-06-2011 22:35:03 11.5 C 8.99 g/m*3 11.5 C 0 km/h
1432 09-06-2011 22:47:03 11.4 C 8.93 g/m*3 11.4 C 0 km/h
1433 09-06-2011 22:59:03 11.4 C 8.93 g/m*3 11.4 C 0 km/h
1434 09-06-2011 23:11:03 11.4 C 8.93 g/m*3 11.4 C 0 km/h
1435 09-06-2011 23:23:03 11.4 C 8.93 g/m*3 11.4 C 0 km/h
1436 09-06-2011 23:35:03 11.4 C 8.93 g/m*3 11.4 C 0 km/h
1437 09-06-2011 23:47:03 11.4 C 8.93 g/m*3 11.4 C 0 km/h
1438 09-06-2011 23:59:03 11.4 C 8.93 g/m*3 11.4 C 0 km/h
1439 10-06-2011 00:11:03 11.4 C 8.93 g/m*3 11.4 C 0 km/h
1440 10-06-2011 00:23:03 11.4 C 8.93 g/m*3 11.4 C 0 km/h
1441 10-06-2011 00:35:03 11.4 C 8.93 g/m*3 11.4 C 0 km/h
1442 10-06-2011 00:47:04 11.4 C 8.93 g/m*3 11.4 C 0 km/h
1443 10-06-2011 00:59:04 11.4 C 8.93 g/m*3 11.4 C 0 km/h
1444 10-06-2011 01:11:04 11.4 C 8.93 g/m*3 11.4 C 0 km/h
1445 10-06-2011 01:23:04 11.4 C 8.93 g/m*3 11.4 C 0 km/h
1446 10-06-2011 01:35:04 11.4 C 8.93 g/m*3 11.4 C 0 km/h
1447 10-06-2011 01:47:04 11.4 C 8.93 g/m*3 11.4 C 0 km/h
1448 10-06-2011 01:59:04 11.4 C 8.93 g/m*3 11.4 C 0 km/h
1449 10-06-2011 02:11:04 11.4 C 8.93 g/m*3 11.4 C 0 km/h
1450 10-06-2011 02:23:04 11.4 C 8.93 g/m*3 11.4 C 0 km/h
Sensor: Nr:Datum:Temp:Abs-Feuchte:Windchill:Wind:
Aussen-T/F 1451 10-06-2011 02:35:04 11.4 C 8.93 g/m*3 11.4 C 0 km/h
1452 10-06-2011 02:47:04 11.4 C 8.93 g/m*3 11.4 C 0 km/h
1453 10-06-2011 02:59:04 11.4 C 8.93 g/m*3 11.4 C 0 km/h
1454 10-06-2011 03:11:04 11.4 C 8.93 g/m*3 11.4 C 0 km/h
1455 10-06-2011 03:23:04 11.4 C 8.93 g/m*3 11.4 C 0 km/h
1456 10-06-2011 03:35:04 11.4 C 8.93 g/m*3 11.4 C 0 km/h
1457 10-06-2011 03:47:04 11.4 C 8.93 g/m*3 11.4 C 0 km/h
1458 10-06-2011 03:59:04 11.4 C 8.93 g/m*3 11.4 C 0 km/h
1459 10-06-2011 04:11:04 11.4 C 8.93 g/m*3 11.4 C 0 km/h
1460 10-06-2011 04:23:04 11.4 C 8.93 g/m*3 11.4 C 0 km/h
1461 10-06-2011 04:35:04 11.4 C 8.93 g/m*3 11.4 C 0 km/h
1462 10-06-2011 04:47:04 11.4 C 8.93 g/m*3 11.4 C 0 km/h
1463 10-06-2011 04:59:05 11.4 C 8.93 g/m*3 11.4 C 0 km/h
1464 10-06-2011 05:11:05 11.4 C 8.93 g/m*3 11.4 C 0 km/h
1465 10-06-2011 05:23:05 11.4 C 8.93 g/m*3 11.4 C 0 km/h
1466 10-06-2011 05:35:05 11.4 C 8.93 g/m*3 11.4 C 0 km/h
1467 10-06-2011 05:47:05 11.4 C 8.93 g/m*3 11.4 C 0 km/h
1468 10-06-2011 05:59:05 11.4 C 8.93 g/m*3 11.4 C 0 km/h
1469 10-06-2011 06:11:05 11.4 C 8.93 g/m*3 11.4 C 0 km/h
1470 10-06-2011 06:23:05 11.4 C 8.93 g/m*3 11.4 C 0 km/h
1471 10-06-2011 06:35:03 11.5 C 9.09 g/m*3 11.5 C 0 km/h
1472 10-06-2011 06:47:02 11.8 C 9.26 g/m*3 11.8 C 0 km/h
1473 10-06-2011 06:59:02 12 C 9.27 g/m*3 12 C 0 km/h
1474 10-06-2011 07:11:03 12.1 C 9.33 g/m*3 12.1 C 0 km/h
1475 10-06-2011 07:23:02 12.5 C 9.46 g/m*3 12.5 C 0 km/h
Sensor: Nr:Datum:Temp:Abs-Feuchte:Windchill:Wind:
Aussen-T/F 1476 10-06-2011 07:35:02 12.5 C 9.46 g/m*3 12.5 C 0 km/h
1477 10-06-2011 07:47:01 13 C 9.07 g/m*3 13 C 0 km/h
1478 10-06-2011 07:59:01 13 C 9.07 g/m*3 13 C 0 km/h
1479 10-06-2011 08:11:02 13 C 9.07 g/m*3 13 C 0 km/h
1480 10-06-2011 08:23:01 13 C 9.07 g/m*3 13 C 0 km/h
1481 10-06-2011 08:35:02 13 C 9.07 g/m*3 13 C 0 km/h
1482 10-06-2011 08:47:02 13 C 9.07 g/m*3 13 C 0 km/h
1483 10-06-2011 08:59:02 13 C 9.07 g/m*3 13 C 0 km/h
1484 10-06-2011 09:11:02 13 C 9.07 g/m*3 13 C 0 km/h
1485 10-06-2011 09:23:01 13 C 9.07 g/m*3 13 C 0 km/h
1486 10-06-2011 09:35:02 13 C 9.07 g/m*3 13 C 0 km/h
1487 10-06-2011 09:47:02 13 C 9.07 g/m*3 13 C 0 km/h
1488 10-06-2011 09:59:02 13 C 9.07 g/m*3 13 C 0 km/h
1489 10-06-2011 10:11:02 13 C 9.07 g/m*3 13 C 0 km/h
1490 10-06-2011 10:23:01 13 C 9.07 g/m*3 13 C 0 km/h
1491 10-06-2011 10:35:02 13 C 9.07 g/m*3 13 C 0 km/h
1492 10-06-2011 10:47:01 13 C 9.07 g/m*3 13 C 0 km/h
1493 10-06-2011 10:59:01 13 C 9.07 g/m*3 13 C 0 km/h
1494 10-06-2011 11:11:02 13 C 9.07 g/m*3 13 C 0 km/h
1495 10-06-2011 11:23:02 13 C 9.07 g/m*3 13 C 0 km/h
1496 10-06-2011 11:35:02 13 C 9.07 g/m*3 13 C 0 km/h
1497 10-06-2011 11:47:01 13 C 9.07 g/m*3 13 C 0 km/h
1498 10-06-2011 11:59:01 13 C 9.07 g/m*3 13 C 0 km/h
1499 10-06-2011 12:11:02 13 C 9.07 g/m*3 13 C 0 km/h
1500 10-06-2011 12:23:02 13 C 9.07 g/m*3 13 C 0 km/h
Sensor: Nr:Datum:Temp:Abs-Feuchte:Windchill:Wind:
Aussen-T/F 1501 10-06-2011 12:35:01 13 C 9.07 g/m*3 13 C 0 km/h
1502 10-06-2011 12:47:02 13 C 9.07 g/m*3 13 C 0 km/h
1503 10-06-2011 12:59:02 13 C 9.07 g/m*3 13 C 0 km/h
1504 10-06-2011 13:11:01 13 C 9.07 g/m*3 13 C 0 km/h
1505 10-06-2011 13:23:02 13 C 9.07 g/m*3 13 C 0 km/h
1506 10-06-2011 13:35:01 13 C 9.07 g/m*3 13 C 0 km/h
1507 10-06-2011 13:47:02 13 C 9.07 g/m*3 13 C 0 km/h
1508 10-06-2011 13:59:02 13 C 9.07 g/m*3 13 C 0 km/h
1509 10-06-2011 14:11:01 13 C 9.07 g/m*3 13 C 0 km/h
1510 10-06-2011 14:23:01 13 C 9.07 g/m*3 13 C 0 km/h
1511 10-06-2011 14:35:01 13 C 9.07 g/m*3 13 C 0 km/h
1512 10-06-2011 14:47:02 13 C 9.07 g/m*3 13 C 0 km/h
1513 10-06-2011 14:59:02 13 C 9.07 g/m*3 13 C 0 km/h
1514 10-06-2011 15:11:02 13 C 9.07 g/m*3 13 C 0 km/h
1515 10-06-2011 15:23:02 21.5 C 6.03 g/m*3 21.5 C 0 km/h
1516 10-06-2011 15:35:02 21.7 C 5.91 g/m*3 21.7 C 0 km/h
1517 10-06-2011 15:47:02 22 C 5.43 g/m*3 22 C 0 km/h
1518 10-06-2011 15:59:02 24.1 C 5.69 g/m*3 24.1 C 0 km/h
1519 10-06-2011 16:11:02 26.7 C 5.06 g/m*3 26.7 C 0 km/h
1520 10-06-2011 16:23:02 27 C 5.15 g/m*3 27 C 0 km/h
1521 10-06-2011 16:35:01 24 C 4.35 g/m*3 24 C 0 km/h
1522 10-06-2011 16:47:03 27.6 C 5.32 g/m*3 27.6 C 0 km/h
1523 10-06-2011 16:59:03 26.3 C 4.95 g/m*3 26.3 C 0 km/h
1524 10-06-2011 17:11:03 23.3 C 4.39 g/m*3 23.3 C 0 km/h
1525 10-06-2011 17:23:02 22.5 C 4.79 g/m*3 22.5 C 0 km/h
Sensor: Nr:Datum:Temp:Abs-Feuchte:Windchill:Wind:
Aussen-T/F 1526 10-06-2011 17:35:02 22.5 C 4.79 g/m*3 22.5 C 0 km/h
1527 10-06-2011 17:47:02 20.6 C 6.62 g/m*3 20.6 C 0 km/h
1528 10-06-2011 17:59:02 19.3 C 7.63 g/m*3 19.3 C 0 km/h
1529 10-06-2011 18:11:01 18.8 C 7.57 g/m*3 18.8 C 0 km/h
1530 10-06-2011 18:23:01 18.1 C 6.18 g/m*3 18.1 C 0 km/h
1531 10-06-2011 18:35:02 18.2 C 6.53 g/m*3 18.2 C 0 km/h
1532 10-06-2011 18:47:02 18.2 C 6.53 g/m*3 18.2 C 0 km/h
1533 10-06-2011 18:59:02 18.2 C 6.53 g/m*3 18.2 C 0 km/h
1534 10-06-2011 19:11:02 18.2 C 6.53 g/m*3 18.2 C 0 km/h
1535 10-06-2011 19:23:02 18.2 C 7.77 g/m*3 18.2 C 0 km/h
1536 10-06-2011 19:35:02 18.2 C 7.77 g/m*3 18.2 C 0 km/h
1537 10-06-2011 19:47:02 18.2 C 7.77 g/m*3 18.2 C 0 km/h
1538 10-06-2011 19:59:02 18.2 C 7.77 g/m*3 18.2 C 0 km/h
1539 10-06-2011 20:11:02 18.2 C 7.77 g/m*3 18.2 C 0 km/h
1540 10-06-2011 20:23:02 18.2 C 7.77 g/m*3 18.2 C 0 km/h
1541 10-06-2011 20:35:02 18.2 C 7.77 g/m*3 18.2 C 0 km/h
1542 10-06-2011 20:47:01 18.2 C 7.77 g/m*3 18.2 C 0 km/h
1543 10-06-2011 20:59:01 18.2 C 7.77 g/m*3 18.2 C 0 km/h
1544 10-06-2011 21:11:01 18.2 C 7.77 g/m*3 18.2 C 0 km/h
1545 10-06-2011 21:23:01 18.2 C 7.77 g/m*3 18.2 C 0 km/h
1546 10-06-2011 21:35:01 14.3 C 8.72 g/m*3 14.3 C 0 km/h
1547 10-06-2011 21:47:01 14.3 C 8.72 g/m*3 14.3 C 0 km/h
1548 10-06-2011 21:59:01 14.3 C 8.72 g/m*3 14.3 C 0 km/h
1549 10-06-2011 22:11:02 14.4 C 8.9 g/m*3 14.4 C 0 km/h
1550 10-06-2011 22:24:03 14.4 C 8.9 g/m*3 14.4 C 0 km/h
Sensor: Nr:Datum:Temp:Abs-Feuchte:Windchill:Wind:
Aussen-T/F 1551 10-06-2011 22:36:03 14.4 C 8.9 g/m*3 14.4 C 0 km/h
1552 10-06-2011 22:48:03 14.4 C 8.9 g/m*3 14.4 C 0 km/h
1553 10-06-2011 23:00:03 14.4 C 8.9 g/m*3 14.4 C 0 km/h
1554 10-06-2011 23:12:03 14.4 C 8.9 g/m*3 14.4 C 0 km/h
1555 10-06-2011 23:24:03 14.4 C 8.9 g/m*3 14.4 C 0 km/h
1556 10-06-2011 23:36:03 15.1 C 7.87 g/m*3 15.1 C 0 km/h
1557 10-06-2011 23:48:03 15.1 C 7.87 g/m*3 15.1 C 0 km/h
1558 11-06-2011 00:00:03 15.1 C 7.87 g/m*3 15.1 C 0 km/h
1559 11-06-2011 00:12:03 12.6 C 9.07 g/m*3 12.6 C 0 km/h
1560 11-06-2011 00:24:03 12.6 C 9.07 g/m*3 12.6 C 0 km/h
1561 11-06-2011 00:36:03 12.6 C 9.07 g/m*3 12.6 C 0 km/h
1562 11-06-2011 00:48:03 12.6 C 9.07 g/m*3 12.6 C 0 km/h
1563 11-06-2011 01:00:03 12.6 C 9.07 g/m*3 12.6 C 0 km/h
1564 11-06-2011 01:12:03 12.6 C 9.07 g/m*3 12.6 C 0 km/h
1565 11-06-2011 01:24:03 12.6 C 9.07 g/m*3 12.6 C 0 km/h
1566 11-06-2011 01:36:04 12.6 C 9.07 g/m*3 12.6 C 0 km/h
1567 11-06-2011 01:48:04 12.6 C 9.07 g/m*3 12.6 C 0 km/h
1568 11-06-2011 02:00:04 12.6 C 9.07 g/m*3 12.6 C 0 km/h
1569 11-06-2011 02:12:04 12.6 C 9.07 g/m*3 12.6 C 0 km/h
1570 11-06-2011 02:24:04 12.6 C 9.07 g/m*3 12.6 C 0 km/h
1571 11-06-2011 02:36:04 12.6 C 9.07 g/m*3 12.6 C 0 km/h
1572 11-06-2011 02:48:04 12.6 C 9.07 g/m*3 12.6 C 0 km/h
1573 11-06-2011 03:00:04 12.6 C 9.07 g/m*3 12.6 C 0 km/h
1574 11-06-2011 03:12:04 12.6 C 9.07 g/m*3 12.6 C 0 km/h
1575 11-06-2011 03:24:04 12.6 C 9.07 g/m*3 12.6 C 0 km/h
Sensor: Nr:Datum:Temp:Abs-Feuchte:Windchill:Wind:
Aussen-T/F 1576 11-06-2011 03:36:04 12.6 C 9.07 g/m*3 12.6 C 0 km/h
1577 11-06-2011 03:48:04 12.6 C 9.07 g/m*3 12.6 C 0 km/h
1578 11-06-2011 04:00:04 12.6 C 9.07 g/m*3 12.6 C 0 km/h
1579 11-06-2011 04:12:04 12.6 C 9.07 g/m*3 12.6 C 0 km/h
1580 11-06-2011 04:24:04 12.6 C 9.07 g/m*3 12.6 C 0 km/h
1581 11-06-2011 04:36:04 12.6 C 9.07 g/m*3 12.6 C 0 km/h
1582 11-06-2011 04:48:04 12.6 C 9.07 g/m*3 12.6 C 0 km/h
1583 11-06-2011 05:00:04 12.6 C 9.07 g/m*3 12.6 C 0 km/h
1584 11-06-2011 05:12:04 12.6 C 9.07 g/m*3 12.6 C 0 km/h
1585 11-06-2011 05:24:04 12.6 C 9.07 g/m*3 12.6 C 0 km/h
1586 11-06-2011 05:36:04 12.6 C 9.07 g/m*3 12.6 C 0 km/h
1587 11-06-2011 05:48:05 12.6 C 9.07 g/m*3 12.6 C 0 km/h
1588 11-06-2011 06:00:05 12.6 C 9.07 g/m*3 12.6 C 0 km/h
1589 11-06-2011 06:12:05 12.6 C 9.07 g/m*3 12.6 C 0 km/h
1590 11-06-2011 06:24:05 12.6 C 9.07 g/m*3 12.6 C 0 km/h
1591 11-06-2011 06:36:05 12.6 C 9.07 g/m*3 12.6 C 0 km/h
1592 11-06-2011 06:48:05 12.6 C 9.07 g/m*3 12.6 C 0 km/h
1593 11-06-2011 07:00:05 12.6 C 9.07 g/m*3 12.6 C 0 km/h
1594 11-06-2011 07:12:05 12.6 C 9.07 g/m*3 12.6 C 0 km/h
1595 11-06-2011 07:24:05 10 C 8.36 g/m*3 10 C 0 km/h
1596 11-06-2011 07:36:05 10.5 C 8.73 g/m*3 10.5 C 0 km/h
1597 11-06-2011 07:48:02 11.2 C 9.02 g/m*3 11.2 C 0 km/h
1598 11-06-2011 08:00:02 10.8 C 8.8 g/m*3 10.8 C 0 km/h
1599 11-06-2011 08:12:02 10.8 C 8.8 g/m*3 10.8 C 0 km/h
1600 11-06-2011 08:24:02 12.2 C 9.39 g/m*3 12.2 C 0 km/h
Sensor: Nr:Datum:Temp:Abs-Feuchte:Windchill:Wind:
Aussen-T/F 1601 11-06-2011 08:36:01 11.9 C 8.9 g/m*3 11.9 C 0 km/h
1602 11-06-2011 08:48:02 11.9 C 8.9 g/m*3 11.9 C 0 km/h
1603 11-06-2011 09:00:02 11.9 C 8.9 g/m*3 11.9 C 0 km/h
1604 11-06-2011 09:12:01 11.9 C 8.9 g/m*3 11.9 C 0 km/h
1605 11-06-2011 09:24:02 13.4 C 7.32 g/m*3 13.4 C 0 km/h
1606 11-06-2011 09:36:01 13.1 C 6.96 g/m*3 13.1 C 0 km/h
1607 11-06-2011 09:48:03 13.5 C 7.49 g/m*3 13.5 C 0 km/h
1608 11-06-2011 10:00:03 13.6 C 7.3 g/m*3 13.6 C 0 km/h
1609 11-06-2011 10:12:02 13.6 C 7.3 g/m*3 13.6 C 0 km/h
1610 11-06-2011 10:24:02 13.6 C 7.3 g/m*3 13.6 C 0 km/h
1611 11-06-2011 10:36:02 13.6 C 7.3 g/m*3 13.6 C 0 km/h
1612 11-06-2011 10:48:02 13.6 C 7.3 g/m*3 13.6 C 0 km/h
1613 11-06-2011 11:00:02 13.6 C 7.3 g/m*3 13.6 C 0 km/h
1614 11-06-2011 11:12:01 13.6 C 7.3 g/m*3 13.6 C 0 km/h
1615 11-06-2011 11:24:02 13.6 C 7.3 g/m*3 13.6 C 0 km/h
1616 11-06-2011 11:36:02 13.6 C 7.3 g/m*3 13.6 C 0 km/h
1617 11-06-2011 11:48:01 13.6 C 7.3 g/m*3 13.6 C 0 km/h
1618 11-06-2011 12:00:01 13.6 C 7.3 g/m*3 13.6 C 0 km/h
1619 11-06-2011 12:12:01 13.6 C 7.3 g/m*3 13.6 C 0 km/h
1620 11-06-2011 12:24:01 13.6 C 7.3 g/m*3 13.6 C 0 km/h
1621 11-06-2011 12:36:02 13.6 C 7.3 g/m*3 13.6 C 0 km/h
1622 11-06-2011 12:48:02 13.6 C 7.3 g/m*3 13.6 C 0 km/h
1623 11-06-2011 13:00:02 17.8 C 5.01 g/m*3 17.8 C 0 km/h
1624 11-06-2011 13:12:02 17.8 C 4.71 g/m*3 17.8 C 0 km/h
1625 11-06-2011 13:24:01 21.4 C 5.44 g/m*3 21.4 C 0 km/h
Sensor: Nr:Datum:Temp:Abs-Feuchte:Windchill:Wind:
Aussen-T/F 1626 11-06-2011 13:36:02 22.7 C 4.24 g/m*3 22.7 C 0 km/h
1627 11-06-2011 13:48:02 20.2 C 4.9 g/m*3 20.2 C 0 km/h
1628 11-06-2011 14:00:02 20.3 C 5.28 g/m*3 20.3 C 0 km/h
1629 11-06-2011 14:12:02 23.7 C 5.13 g/m*3 23.7 C 0 km/h
1630 11-06-2011 14:24:01 20.8 C 4.89 g/m*3 20.8 C 0 km/h
1631 11-06-2011 14:36:02 19.8 C 4.95 g/m*3 19.8 C 0 km/h
1632 11-06-2011 14:48:02 21.7 C 4.77 g/m*3 21.7 C 0 km/h
1633 11-06-2011 15:00:02 25.9 C 4.84 g/m*3 25.9 C 0 km/h
1634 11-06-2011 15:12:02 27.5 C 5.29 g/m*3 27.5 C 0 km/h
1635 11-06-2011 15:24:02 27.6 C 5.32 g/m*3 27.6 C 0 km/h
1636 11-06-2011 15:36:02 22.5 C 3.99 g/m*3 22.5 C 0 km/h
1637 11-06-2011 15:48:02 27.4 C 5.26 g/m*3 27.4 C 0 km/h
1638 11-06-2011 16:00:02 26.3 C 4.95 g/m*3 26.3 C 0 km/h
1639 11-06-2011 16:12:02 22.7 C 4.04 g/m*3 22.7 C 0 km/h
1640 11-06-2011 16:24:02 25.5 C 4.73 g/m*3 25.5 C 0 km/h
1641 11-06-2011 16:36:01 25.5 C 4.73 g/m*3 25.5 C 0 km/h
1642 11-06-2011 16:48:02 25.5 C 4.73 g/m*3 25.5 C 0 km/h
1643 11-06-2011 17:00:02 25.5 C 4.73 g/m*3 25.5 C 0 km/h
1644 11-06-2011 17:12:01 25.5 C 4.73 g/m*3 25.5 C 0 km/h
1645 11-06-2011 17:24:01 25.5 C 4.73 g/m*3 25.5 C 0 km/h
1646 11-06-2011 17:36:01 25.5 C 4.73 g/m*3 25.5 C 0 km/h
1647 11-06-2011 17:48:02 25.5 C 4.73 g/m*3 25.5 C 0 km/h
1648 11-06-2011 18:00:03 25.5 C 4.73 g/m*3 25.5 C 0 km/h
1649 11-06-2011 18:12:02 25.5 C 4.73 g/m*3 25.5 C 0 km/h
1650 11-06-2011 18:24:02 25.5 C 4.73 g/m*3 25.5 C 0 km/h
Sensor: Nr:Datum:Temp:Abs-Feuchte:Windchill:Wind:
Aussen-T/F 1651 11-06-2011 18:36:02 23.6 C 4.89 g/m*3 23.6 C 0 km/h
1652 11-06-2011 18:48:01 23.6 C 4.89 g/m*3 23.6 C 0 km/h
1653 11-06-2011 19:00:01 22.1 C 5.27 g/m*3 22.1 C 0 km/h
1654 11-06-2011 19:12:02 18.9 C 5.51 g/m*3 18.9 C 0 km/h
1655 11-06-2011 19:24:01 18.9 C 5.51 g/m*3 18.9 C 0 km/h
1656 11-06-2011 19:36:02 18 C 7.22 g/m*3 18 C 0 km/h
1657 11-06-2011 19:48:01 17.6 C 7.8 g/m*3 17.6 C 0 km/h
1658 11-06-2011 20:00:01 16.8 C 7.72 g/m*3 16.8 C 0 km/h
1659 11-06-2011 20:12:02 16.6 C 7.63 g/m*3 16.6 C 0 km/h
1660 11-06-2011 20:24:01 16.2 C 7.86 g/m*3 16.2 C 0 km/h
1661 11-06-2011 20:36:02 15.7 C 8.16 g/m*3 15.7 C 0 km/h
1662 11-06-2011 20:48:01 15.4 C 7.88 g/m*3 15.4 C 0 km/h
1663 11-06-2011 21:00:01 15 C 7.82 g/m*3 15 C 0 km/h
1664 11-06-2011 21:12:02 15.8 C 6.6 g/m*3 15.8 C 0 km/h
1665 11-06-2011 21:24:01 15.7 C 6.69 g/m*3 15.7 C 0 km/h
1666 11-06-2011 21:36:01 15.2 C 6.88 g/m*3 15.2 C 0 km/h
1667 11-06-2011 21:48:01 14.9 C 6.88 g/m*3 14.9 C 0 km/h
1668 11-06-2011 22:00:01 14.5 C 6.84 g/m*3 14.5 C 0 km/h
1669 11-06-2011 22:12:02 14.1 C 7.28 g/m*3 14.1 C 0 km/h
1670 11-06-2011 22:24:02 13.6 C 7.41 g/m*3 13.6 C 0 km/h
1671 11-06-2011 22:36:01 12.8 C 7.39 g/m*3 12.8 C 0 km/h
1672 11-06-2011 22:49:03 12.4 C 7.54 g/m*3 12.4 C 0 km/h
1673 11-06-2011 23:01:03 12.4 C 7.43 g/m*3 12.4 C 0 km/h
1674 11-06-2011 23:13:03 12.2 C 7.34 g/m*3 12.2 C 0 km/h
1675 11-06-2011 23:25:03 12.1 C 7.4 g/m*3 12.1 C 0 km/h
Sensor: Nr:Datum:Temp:Abs-Feuchte:Windchill:Wind:
Aussen-T/F 1676 11-06-2011 23:37:04 11.7 C 7.64 g/m*3 11.7 C 0 km/h
1677 11-06-2011 23:49:04 11.1 C 7.45 g/m*3 11.1 C 0 km/h
1678 12-06-2011 00:01:04 10.9 C 7.56 g/m*3 10.9 C 0 km/h
1679 12-06-2011 00:13:04 10.8 C 7.61 g/m*3 10.8 C 0 km/h
1680 12-06-2011 00:25:04 10.2 C 7.42 g/m*3 10.2 C 0 km/h
1681 12-06-2011 00:37:04 9.7 C 7.38 g/m*3 9.7 C 0 km/h
1682 12-06-2011 00:49:04 9.7 C 7.56 g/m*3 9.7 C 0 km/h
1683 12-06-2011 01:01:04 9.4 C 7.42 g/m*3 9.4 C 0 km/h
1684 12-06-2011 01:13:04 9.6 C 7.6 g/m*3 9.6 C 0 km/h
1685 12-06-2011 01:25:04 9.3 C 7.55 g/m*3 9.3 C 0 km/h
1686 12-06-2011 01:37:04 9.4 C 7.69 g/m*3 9.4 C 0 km/h
1687 12-06-2011 01:49:04 9.1 C 7.54 g/m*3 9.1 C 0 km/h
1688 12-06-2011 02:01:04 8.7 C 7.44 g/m*3 8.7 C 0 km/h
1689 12-06-2011 02:13:04 8.4 C 7.3 g/m*3 8.4 C 0 km/h
1690 12-06-2011 02:25:04 8.8 C 7.57 g/m*3 8.8 C 0 km/h
1691 12-06-2011 02:37:04 8.7 C 7.52 g/m*3 8.7 C 0 km/h
1692 12-06-2011 02:49:04 8.3 C 7.33 g/m*3 8.3 C 0 km/h
1693 12-06-2011 03:01:04 8 C 7.19 g/m*3 8 C 0 km/h
1694 12-06-2011 03:13:04 8.5 C 7.51 g/m*3 8.5 C 0 km/h
1695 12-06-2011 03:25:04 8.2 C 7.37 g/m*3 8.2 C 0 km/h
1696 12-06-2011 03:37:04 7.6 C 7.09 g/m*3 7.6 C 0 km/h
1697 12-06-2011 03:49:05 7.8 C 7.26 g/m*3 7.8 C 0 km/h
1698 12-06-2011 04:01:05 7.9 C 7.31 g/m*3 7.9 C 0 km/h
1699 12-06-2011 04:13:05 7.9 C 7.39 g/m*3 7.9 C 0 km/h
1700 12-06-2011 04:25:05 7.6 C 7.25 g/m*3 7.6 C 0 km/h
Sensor: Nr:Datum:Temp:Abs-Feuchte:Windchill:Wind:
Aussen-T/F 1701 12-06-2011 04:37:05 7.3 C 7.11 g/m*3 7.3 C 0 km/h
1702 12-06-2011 04:49:05 6.9 C 7.01 g/m*3 6.9 C 0 km/h
1703 12-06-2011 05:01:05 7.2 C 7.06 g/m*3 7.2 C 0 km/h
1704 12-06-2011 05:13:05 6.9 C 7.01 g/m*3 6.9 C 0 km/h
1705 12-06-2011 05:25:05 6.7 C 6.91 g/m*3 6.7 C 0 km/h
1706 12-06-2011 05:37:05 7 C 6.97 g/m*3 7 C 0 km/h
1707 12-06-2011 05:49:05 6.7 C 6.91 g/m*3 6.7 C 0 km/h
1708 12-06-2011 06:01:05 7 C 6.97 g/m*3 7 C 0 km/h
1709 12-06-2011 06:13:05 7 C 6.97 g/m*3 7 C 0 km/h
1710 12-06-2011 06:25:05 7 C 6.97 g/m*3 7 C 0 km/h
1711 12-06-2011 06:37:05 7.5 C 7.28 g/m*3 7.5 C 0 km/h
1712 12-06-2011 06:49:05 7.5 C 7.28 g/m*3 7.5 C 0 km/h
1713 12-06-2011 07:01:04 8.1 C 7.49 g/m*3 8.1 C 0 km/h
1714 12-06-2011 07:13:04 8.7 C 7.78 g/m*3 8.7 C 0 km/h
1715 12-06-2011 07:25:03 8.8 C 7.75 g/m*3 8.8 C 0 km/h
1716 12-06-2011 07:37:03 9.2 C 7.86 g/m*3 9.2 C 0 km/h
1717 12-06-2011 07:49:02 9.7 C 8.11 g/m*3 9.7 C 0 km/h
1718 12-06-2011 08:01:02 10.6 C 8.49 g/m*3 10.6 C 0 km/h
1719 12-06-2011 08:13:02 11.6 C 8.52 g/m*3 11.6 C 0 km/h
1720 12-06-2011 08:25:01 12.1 C 7.83 g/m*3 12.1 C 0 km/h
1721 12-06-2011 08:37:02 12.5 C 7.92 g/m*3 12.5 C 0 km/h
1722 12-06-2011 08:49:01 12.6 C 7.74 g/m*3 12.6 C 0 km/h
1723 12-06-2011 09:01:02 13.1 C 7.76 g/m*3 13.1 C 0 km/h
1724 12-06-2011 09:13:02 13.3 C 7.16 g/m*3 13.3 C 0 km/h
1725 12-06-2011 09:25:01 13.7 C 7.22 g/m*3 13.7 C 0 km/h
Sensor: Nr:Datum:Temp:Abs-Feuchte:Windchill:Wind:
Aussen-T/F 1726 12-06-2011 09:37:02 13.9 C 7.43 g/m*3 13.9 C 0 km/h
1727 12-06-2011 09:49:01 14.4 C 7.29 g/m*3 14.4 C 0 km/h
1728 12-06-2011 10:01:02 15.5 C 7.53 g/m*3 15.5 C 0 km/h
1729 12-06-2011 10:13:02 16.5 C 7.3 g/m*3 16.5 C 0 km/h
1730 12-06-2011 10:25:02 16.2 C 7.03 g/m*3 16.2 C 0 km/h
1731 12-06-2011 10:37:01 16 C 6.81 g/m*3 16 C 0 km/h
1732 12-06-2011 10:49:02 16.5 C 7.02 g/m*3 16.5 C 0 km/h
1733 12-06-2011 11:01:01 17 C 6.66 g/m*3 17 C 0 km/h
1734 12-06-2011 11:13:01 17.5 C 6.71 g/m*3 17.5 C 0 km/h
1735 12-06-2011 11:25:02 16.4 C 7.68 g/m*3 16.4 C 0 km/h
1736 12-06-2011 11:37:01 18.3 C 5.63 g/m*3 18.3 C 0 km/h
1737 12-06-2011 11:49:02 18.3 C 5.47 g/m*3 18.3 C 0 km/h
1738 12-06-2011 12:01:02 17.7 C 5.58 g/m*3 17.7 C 0 km/h
1739 12-06-2011 12:13:02 18.3 C 5.94 g/m*3 18.3 C 0 km/h
1740 12-06-2011 12:25:02 17.7 C 6.04 g/m*3 17.7 C 0 km/h
1741 12-06-2011 12:37:02 18.1 C 6.49 g/m*3 18.1 C 0 km/h
1742 12-06-2011 12:49:01 18.9 C 5.99 g/m*3 18.9 C 0 km/h
1743 12-06-2011 13:01:02 18.8 C 5.8 g/m*3 18.8 C 0 km/h
1744 12-06-2011 13:13:02 19.6 C 5.91 g/m*3 19.6 C 0 km/h
1745 12-06-2011 13:25:01 21.9 C 5.79 g/m*3 21.9 C 0 km/h
1746 12-06-2011 13:37:02 24.6 C 4.5 g/m*3 24.6 C 0 km/h
1747 12-06-2011 13:49:02 25.1 C 4.63 g/m*3 25.1 C 0 km/h
1748 12-06-2011 14:01:02 23.6 C 4.68 g/m*3 23.6 C 0 km/h
1749 12-06-2011 14:13:02 26.1 C 4.9 g/m*3 26.1 C 0 km/h
1750 12-06-2011 14:25:01 26.1 C 4.9 g/m*3 26.1 C 0 km/h
Sensor: Nr:Datum:Temp:Abs-Feuchte:Windchill:Wind:
Aussen-T/F 1751 12-06-2011 14:37:02 26.4 C 4.98 g/m*3 26.4 C 0 km/h
1752 12-06-2011 14:49:01 25.9 C 4.84 g/m*3 25.9 C 0 km/h
1753 12-06-2011 15:01:02 23.4 C 4.21 g/m*3 23.4 C 0 km/h
1754 12-06-2011 15:13:02 22.5 C 3.99 g/m*3 22.5 C 0 km/h
1755 12-06-2011 15:25:01 23.3 C 4.18 g/m*3 23.3 C 0 km/h
1756 12-06-2011 15:37:02 23.7 C 4.28 g/m*3 23.7 C 0 km/h
1757 12-06-2011 15:49:01 22.7 C 4.04 g/m*3 22.7 C 0 km/h
1758 12-06-2011 16:01:02 22.8 C 4.27 g/m*3 22.8 C 0 km/h
1759 12-06-2011 16:13:02 24.7 C 4.53 g/m*3 24.7 C 0 km/h
1760 12-06-2011 16:25:02 25.8 C 4.82 g/m*3 25.8 C 0 km/h
1761 12-06-2011 16:37:01 23 C 4.11 g/m*3 23 C 0 km/h
1762 12-06-2011 16:49:02 23.2 C 4.16 g/m*3 23.2 C 0 km/h
1763 12-06-2011 17:01:01 23.5 C 4.23 g/m*3 23.5 C 0 km/h
1764 12-06-2011 17:13:01 23 C 4.11 g/m*3 23 C 0 km/h
1765 12-06-2011 17:25:02 22.2 C 4.52 g/m*3 22.2 C 0 km/h
1766 12-06-2011 17:37:01 23.2 C 4.16 g/m*3 23.2 C 0 km/h
1767 12-06-2011 17:49:02 21.9 C 5.98 g/m*3 21.9 C 0 km/h
1768 12-06-2011 18:01:02 21.9 C 5.79 g/m*3 21.9 C 0 km/h
1769 12-06-2011 18:13:02 23.7 C 4.49 g/m*3 23.7 C 0 km/h
1770 12-06-2011 18:25:02 24.4 C 4.45 g/m*3 24.4 C 0 km/h
1771 12-06-2011 18:37:02 23.3 C 4.39 g/m*3 23.3 C 0 km/h
1772 12-06-2011 18:49:01 22.1 C 4.88 g/m*3 22.1 C 0 km/h
1773 12-06-2011 19:01:02 21.8 C 6.91 g/m*3 21.8 C 0 km/h
1774 12-06-2011 19:13:02 24 C 4.35 g/m*3 24 C 0 km/h
1775 12-06-2011 19:25:01 21.6 C 4.36 g/m*3 21.6 C 0 km/h
Sensor: Nr:Datum:Temp:Abs-Feuchte:Windchill:Wind:
Aussen-T/F 1776 12-06-2011 19:37:02 19.5 C 7.55 g/m*3 19.5 C 0 km/h
1777 12-06-2011 19:49:01 18.6 C 7.64 g/m*3 18.6 C 0 km/h
1778 12-06-2011 20:01:02 18.7 C 7.84 g/m*3 18.7 C 0 km/h
1779 12-06-2011 20:13:02 18.2 C 7.77 g/m*3 18.2 C 0 km/h
1780 12-06-2011 20:25:01 17.2 C 7.61 g/m*3 17.2 C 0 km/h
1781 12-06-2011 20:37:02 16.5 C 7.44 g/m*3 16.5 C 0 km/h
1782 12-06-2011 20:49:01 16 C 6.54 g/m*3 16 C 0 km/h
1783 12-06-2011 21:01:02 15.9 C 6.23 g/m*3 15.9 C 0 km/h
1784 12-06-2011 21:13:02 15.6 C 6.25 g/m*3 15.6 C 0 km/h
1785 12-06-2011 21:25:01 15.1 C 6.06 g/m*3 15.1 C 0 km/h
1786 12-06-2011 21:37:02 14.9 C 6.25 g/m*3 14.9 C 0 km/h
1787 12-06-2011 21:49:01 14.7 C 6.8 g/m*3 14.7 C 0 km/h
1788 12-06-2011 22:01:02 14.5 C 7.21 g/m*3 14.5 C 0 km/h
1789 12-06-2011 22:13:02 14.2 C 7.2 g/m*3 14.2 C 0 km/h
1790 12-06-2011 22:25:02 14 C 7.36 g/m*3 14 C 0 km/h
1791 12-06-2011 22:38:03 13.5 C 7.13 g/m*3 13.5 C 0 km/h
1792 12-06-2011 22:50:03 13.4 C 7.44 g/m*3 13.4 C 0 km/h
1793 12-06-2011 23:02:03 13.2 C 7.12 g/m*3 13.2 C 0 km/h
1794 12-06-2011 23:14:03 13.2 C 7.35 g/m*3 13.2 C 0 km/h
1795 12-06-2011 23:26:03 13 C 7.03 g/m*3 13 C 0 km/h
1796 12-06-2011 23:38:03 12.7 C 7.12 g/m*3 12.7 C 0 km/h
1797 12-06-2011 23:50:03 12.6 C 7.08 g/m*3 12.6 C 0 km/h
1798 13-06-2011 00:02:03 12.5 C 7.04 g/m*3 12.5 C 0 km/h
1799 13-06-2011 00:14:03 12.5 C 7.15 g/m*3 12.5 C 0 km/h
1800 13-06-2011 00:26:03 12.4 C 7.1 g/m*3 12.4 C 0 km/h
Sensor: Nr:Datum:Temp:Abs-Feuchte:Windchill:Wind:
Aussen-T/F 1801 13-06-2011 00:38:03 12.3 C 7.17 g/m*3 12.3 C 0 km/h
1802 13-06-2011 00:50:03 12.2 C 7.01 g/m*3 12.2 C 0 km/h
1803 13-06-2011 01:02:03 12 C 6.93 g/m*3 12 C 0 km/h
1804 13-06-2011 01:14:03 11.8 C 6.95 g/m*3 11.8 C 0 km/h
1805 13-06-2011 01:26:03 11.8 C 7.26 g/m*3 11.8 C 0 km/h
1806 13-06-2011 01:38:03 11.7 C 7.22 g/m*3 11.7 C 0 km/h
1807 13-06-2011 01:50:03 11.7 C 7.22 g/m*3 11.7 C 0 km/h
1808 13-06-2011 02:02:03 11.9 C 7.41 g/m*3 11.9 C 0 km/h
1809 13-06-2011 02:14:04 11.8 C 7.26 g/m*3 11.8 C 0 km/h
1810 13-06-2011 02:26:04 11.9 C 7.31 g/m*3 11.9 C 0 km/h
1811 13-06-2011 02:38:04 12 C 7.35 g/m*3 12 C 0 km/h
1812 13-06-2011 02:50:04 12 C 7.25 g/m*3 12 C 0 km/h
1813 13-06-2011 03:02:04 12.1 C 7.51 g/m*3 12.1 C 0 km/h
1814 13-06-2011 03:14:04 12.3 C 7.6 g/m*3 12.3 C 0 km/h
1815 13-06-2011 03:26:04 12.3 C 7.71 g/m*3 12.3 C 0 km/h
1816 13-06-2011 03:38:04 12.4 C 7.76 g/m*3 12.4 C 0 km/h
1817 13-06-2011 03:50:04 12.3 C 7.71 g/m*3 12.3 C 0 km/h
1818 13-06-2011 04:02:04 12.6 C 7.63 g/m*3 12.6 C 0 km/h
1819 13-06-2011 04:14:04 12.7 C 7.79 g/m*3 12.7 C 0 km/h
1820 13-06-2011 04:26:04 12.7 C 7.68 g/m*3 12.7 C 0 km/h
1821 13-06-2011 04:38:04 12.8 C 7.73 g/m*3 12.8 C 0 km/h
1822 13-06-2011 04:50:04 12.8 C 7.84 g/m*3 12.8 C 0 km/h
1823 13-06-2011 05:02:04 12.8 C 7.95 g/m*3 12.8 C 0 km/h
1824 13-06-2011 05:14:04 12.7 C 8.13 g/m*3 12.7 C 0 km/h
1825 13-06-2011 05:26:04 12.6 C 8.08 g/m*3 12.6 C 0 km/h
Sensor: Nr:Datum:Temp:Abs-Feuchte:Windchill:Wind:
Aussen-T/F 1826 13-06-2011 05:38:04 12.7 C 8.13 g/m*3 12.7 C 0 km/h
1827 13-06-2011 05:50:04 12.7 C 8.13 g/m*3 12.7 C 0 km/h
1828 13-06-2011 06:02:04 12.8 C 8.18 g/m*3 12.8 C 0 km/h
1829 13-06-2011 06:14:04 12.8 C 8.18 g/m*3 12.8 C 0 km/h
1830 13-06-2011 06:26:05 12.9 C 8.34 g/m*3 12.9 C 0 km/h
1831 13-06-2011 06:38:05 13.1 C 8.22 g/m*3 13.1 C 0 km/h
1832 13-06-2011 06:50:05 13.2 C 8.15 g/m*3 13.2 C 0 km/h
1833 13-06-2011 07:02:05 13.6 C 8.36 g/m*3 13.6 C 0 km/h
1834 13-06-2011 07:14:05 13.8 C 8.46 g/m*3 13.8 C 0 km/h
1835 13-06-2011 07:26:05 13.8 C 8.46 g/m*3 13.8 C 0 km/h
1836 13-06-2011 07:38:05 14 C 8.32 g/m*3 14 C 0 km/h
1837 13-06-2011 07:50:03 14.1 C 8.01 g/m*3 14.1 C 0 km/h
1838 13-06-2011 08:02:02 14.2 C 7.82 g/m*3 14.2 C 0 km/h
1839 13-06-2011 08:14:02 14.5 C 8.21 g/m*3 14.5 C 0 km/h
1840 13-06-2011 08:26:02 14.7 C 8.18 g/m*3 14.7 C 0 km/h
1841 13-06-2011 08:38:03 14.8 C 8.36 g/m*3 14.8 C 0 km/h
1842 13-06-2011 08:50:02 14.9 C 8.28 g/m*3 14.9 C 0 km/h
1843 13-06-2011 09:02:02 15.2 C 8.31 g/m*3 15.2 C 0 km/h
1844 13-06-2011 09:14:02 15 C 8.08 g/m*3 15 C 0 km/h
1845 13-06-2011 09:26:02 15.4 C 8.54 g/m*3 15.4 C 0 km/h
1846 13-06-2011 09:38:02 15.8 C 8.62 g/m*3 15.8 C 0 km/h
1847 13-06-2011 09:50:01 16.6 C 8.62 g/m*3 16.6 C 0 km/h
1848 13-06-2011 10:02:02 16.5 C 8.28 g/m*3 16.5 C 0 km/h
1849 13-06-2011 10:14:02 16 C 8.17 g/m*3 16 C 0 km/h
1850 13-06-2011 10:26:01 16.4 C 8.23 g/m*3 16.4 C 0 km/h
Sensor: Nr:Datum:Temp:Abs-Feuchte:Windchill:Wind:
Aussen-T/F 1851 13-06-2011 10:38:01 16.4 C 8.23 g/m*3 16.4 C 0 km/h
1852 13-06-2011 10:50:01 16.7 C 8.24 g/m*3 16.7 C 0 km/h
1853 13-06-2011 11:02:02 17 C 7.96 g/m*3 17 C 0 km/h
1854 13-06-2011 11:14:02 16.6 C 8.05 g/m*3 16.6 C 0 km/h
1855 13-06-2011 11:26:01 17 C 8.1 g/m*3 17 C 0 km/h
1856 13-06-2011 11:38:01 17.4 C 8.15 g/m*3 17.4 C 0 km/h
1857 13-06-2011 11:50:01 17.3 C 7.96 g/m*3 17.3 C 0 km/h
1858 13-06-2011 12:02:01 17.7 C 8.15 g/m*3 17.7 C 0 km/h
1859 13-06-2011 12:14:01 18.1 C 8.19 g/m*3 18.1 C 0 km/h
1860 13-06-2011 12:26:02 18.8 C 8.21 g/m*3 18.8 C 0 km/h
1861 13-06-2011 12:38:01 20.3 C 8.09 g/m*3 20.3 C 0 km/h
1862 13-06-2011 12:50:03 18.7 C 7.68 g/m*3 18.7 C 0 km/h
1863 13-06-2011 13:02:02 19.2 C 7.91 g/m*3 19.2 C 0 km/h
1864 13-06-2011 13:14:02 19.4 C 7.84 g/m*3 19.4 C 0 km/h
1865 13-06-2011 13:26:02 19.1 C 7.7 g/m*3 19.1 C 0 km/h
1866 13-06-2011 13:38:02 19.7 C 7.98 g/m*3 19.7 C 0 km/h
1867 13-06-2011 13:50:02 20.4 C 8.14 g/m*3 20.4 C 0 km/h
1868 13-06-2011 14:02:01 20.9 C 8.2 g/m*3 20.9 C 0 km/h
1869 13-06-2011 14:14:01 21.5 C 8.11 g/m*3 21.5 C 0 km/h
1870 13-06-2011 14:26:02 20.7 C 7.92 g/m*3 20.7 C 0 km/h
1871 13-06-2011 14:38:02 21.6 C 7.97 g/m*3 21.6 C 0 km/h
1872 13-06-2011 14:50:01 21.4 C 7.69 g/m*3 21.4 C 0 km/h
1873 13-06-2011 15:02:02 22 C 7.57 g/m*3 22 C 0 km/h
1874 13-06-2011 15:14:02 22.5 C 7.79 g/m*3 22.5 C 0 km/h
1875 13-06-2011 15:26:01 22.7 C 7.48 g/m*3 22.7 C 0 km/h
Sensor: Nr:Datum:Temp:Abs-Feuchte:Windchill:Wind:
Aussen-T/F 1876 13-06-2011 15:38:01 22 C 7.76 g/m*3 22 C 0 km/h
1877 13-06-2011 15:50:01 22.2 C 8.05 g/m*3 22.2 C 0 km/h
1878 13-06-2011 16:02:02 22.6 C 8.04 g/m*3 22.6 C 0 km/h
1879 13-06-2011 16:14:02 24.1 C 7.88 g/m*3 24.1 C 0 km/h
1880 13-06-2011 16:26:01 22.5 C 7.79 g/m*3 22.5 C 0 km/h
1881 13-06-2011 16:38:02 24.5 C 8.06 g/m*3 24.5 C 0 km/h
1882 13-06-2011 16:50:01 25.1 C 7.64 g/m*3 25.1 C 0 km/h
1883 13-06-2011 17:02:02 22.9 C 7.97 g/m*3 22.9 C 0 km/h
1884 13-06-2011 17:14:02 23.4 C 7.99 g/m*3 23.4 C 0 km/h
1885 13-06-2011 17:26:01 21.6 C 7.97 g/m*3 21.6 C 0 km/h
1886 13-06-2011 17:38:02 21.2 C 8.34 g/m*3 21.2 C 0 km/h
1887 13-06-2011 17:50:01 21.1 C 8.66 g/m*3 21.1 C 0 km/h
1888 13-06-2011 18:02:02 21.5 C 8.49 g/m*3 21.5 C 0 km/h
1889 13-06-2011 18:14:02 21.2 C 8.52 g/m*3 21.2 C 0 km/h
1890 13-06-2011 18:26:02 20.9 C 8.56 g/m*3 20.9 C 0 km/h
1891 13-06-2011 18:38:01 21.1 C 9.03 g/m*3 21.1 C 0 km/h
1892 13-06-2011 18:50:02 21 C 8.79 g/m*3 21 C 0 km/h
1893 13-06-2011 19:02:01 21.3 C 8.76 g/m*3 21.3 C 0 km/h
1894 13-06-2011 19:14:01 20.8 C 8.69 g/m*3 20.8 C 0 km/h
1895 13-06-2011 19:26:02 20.4 C 8.85 g/m*3 20.4 C 0 km/h
1896 13-06-2011 19:38:01 20.7 C 8.82 g/m*3 20.7 C 0 km/h
1897 13-06-2011 19:50:02 21.3 C 8.57 g/m*3 21.3 C 0 km/h
1898 13-06-2011 20:02:02 21.1 C 8.66 g/m*3 21.1 C 0 km/h
1899 13-06-2011 20:14:02 20 C 8.99 g/m*3 20 C 0 km/h
1900 13-06-2011 20:26:02 19.6 C 9.28 g/m*3 19.6 C 0 km/h
Sensor: Nr:Datum:Temp:Abs-Feuchte:Windchill:Wind:
Aussen-T/F 1901 13-06-2011 20:38:02 19.2 C 9.23 g/m*3 19.2 C 0 km/h
1902 13-06-2011 20:50:01 18.7 C 9.77 g/m*3 18.7 C 0 km/h
1903 13-06-2011 21:02:02 18.3 C 9.85 g/m*3 18.3 C 0 km/h
1904 13-06-2011 21:14:02 18.1 C 9.73 g/m*3 18.1 C 0 km/h
1905 13-06-2011 21:26:01 18 C 9.83 g/m*3 18 C 0 km/h
1906 13-06-2011 21:38:02 17.7 C 10.11 g/m*3 17.7 C 0 km/h
1907 13-06-2011 21:50:02 17.6 C 10.05 g/m*3 17.6 C 0 km/h
1908 13-06-2011 22:02:02 17.5 C 10.14 g/m*3 17.5 C 0 km/h
1909 13-06-2011 22:14:02 17.6 C 10.05 g/m*3 17.6 C 0 km/h
1910 13-06-2011 22:27:03 17.5 C 9.99 g/m*3 17.5 C 0 km/h
1911 13-06-2011 22:39:03 17.5 C 9.99 g/m*3 17.5 C 0 km/h
1912 13-06-2011 22:51:03 17.4 C 10.08 g/m*3 17.4 C 0 km/h
1913 13-06-2011 23:03:03 17.4 C 10.08 g/m*3 17.4 C 0 km/h
1914 13-06-2011 23:15:03 17.2 C 10.1 g/m*3 17.2 C 0 km/h
1915 13-06-2011 23:27:03 16.9 C 10.21 g/m*3 16.9 C 0 km/h
1916 13-06-2011 23:39:03 16.9 C 10.36 g/m*3 16.9 C 0 km/h
1917 13-06-2011 23:51:03 16.8 C 10.29 g/m*3 16.8 C 0 km/h
1918 14-06-2011 00:03:03 16.7 C 10.37 g/m*3 16.7 C 0 km/h
1919 14-06-2011 00:15:03 16.6 C 10.45 g/m*3 16.6 C 0 km/h
1920 14-06-2011 00:27:03 16.6 C 10.31 g/m*3 16.6 C 0 km/h
1921 14-06-2011 00:39:03 16.6 C 10.45 g/m*3 16.6 C 0 km/h
1922 14-06-2011 00:51:03 16.6 C 10.45 g/m*3 16.6 C 0 km/h
1923 14-06-2011 01:03:03 16.4 C 10.33 g/m*3 16.4 C 0 km/h
1924 14-06-2011 01:15:03 16.4 C 10.33 g/m*3 16.4 C 0 km/h
1925 14-06-2011 01:27:03 16.4 C 10.47 g/m*3 16.4 C 0 km/h
Sensor: Nr:Datum:Temp:Abs-Feuchte:Windchill:Wind:
Aussen-T/F 1926 14-06-2011 01:39:03 16.3 C 10.41 g/m*3 16.3 C 0 km/h
1927 14-06-2011 01:51:04 16.2 C 10.34 g/m*3 16.2 C 0 km/h
1928 14-06-2011 02:03:04 16.1 C 10.28 g/m*3 16.1 C 0 km/h
1929 14-06-2011 02:15:04 15.8 C 10.5 g/m*3 15.8 C 0 km/h
1930 14-06-2011 02:27:04 15 C 10 g/m*3 15 C 0 km/h
1931 14-06-2011 02:39:04 14.4 C 9.77 g/m*3 14.4 C 0 km/h
1932 14-06-2011 02:51:04 13.9 C 9.83 g/m*3 13.9 C 0 km/h
1933 14-06-2011 03:03:04 14.1 C 9.95 g/m*3 14.1 C 0 km/h
1934 14-06-2011 03:15:04 13.8 C 10.01 g/m*3 13.8 C 0 km/h
1935 14-06-2011 03:27:04 13.5 C 9.94 g/m*3 13.5 C 0 km/h
1936 14-06-2011 03:39:04 13.6 C 10 g/m*3 13.6 C 0 km/h
1937 14-06-2011 03:51:04 13.7 C 10.18 g/m*3 13.7 C 0 km/h
1938 14-06-2011 04:03:04 14.2 C 10.5 g/m*3 14.2 C 0 km/h
1939 14-06-2011 04:15:04 14.3 C 10.69 g/m*3 14.3 C 0 km/h
1940 14-06-2011 04:27:04 14.5 C 10.82 g/m*3 14.5 C 0 km/h
1941 14-06-2011 04:39:04 14.6 C 10.89 g/m*3 14.6 C 0 km/h
1942 14-06-2011 04:51:04 14.6 C 10.89 g/m*3 14.6 C 0 km/h
1943 14-06-2011 05:03:04 14.7 C 10.95 g/m*3 14.7 C 0 km/h
1944 14-06-2011 05:15:04 14.7 C 10.95 g/m*3 14.7 C 0 km/h
1945 14-06-2011 05:27:04 14.7 C 10.95 g/m*3 14.7 C 0 km/h
1946 14-06-2011 05:39:04 14.8 C 11.02 g/m*3 14.8 C 0 km/h
1947 14-06-2011 05:51:04 14.8 C 11.02 g/m*3 14.8 C 0 km/h
1948 14-06-2011 06:03:05 15 C 11.16 g/m*3 15 C 0 km/h
1949 14-06-2011 06:15:05 15.1 C 11.22 g/m*3 15.1 C 0 km/h
1950 14-06-2011 06:27:05 15.2 C 11.29 g/m*3 15.2 C 0 km/h
Sensor: Nr:Datum:Temp:Abs-Feuchte:Windchill:Wind:
Aussen-T/F 1951 14-06-2011 06:39:05 15.4 C 11.43 g/m*3 15.4 C 0 km/h
1952 14-06-2011 06:51:05 15.4 C 11.43 g/m*3 15.4 C 0 km/h
1953 14-06-2011 07:03:03 15.5 C 11.5 g/m*3 15.5 C 0 km/h
1954 14-06-2011 07:15:03 15.8 C 11.71 g/m*3 15.8 C 0 km/h
1955 14-06-2011 07:27:03 16.2 C 11.86 g/m*3 16.2 C 0 km/h
1956 14-06-2011 07:39:03 17.1 C 12.23 g/m*3 17.1 C 0 km/h
1957 14-06-2011 07:51:02 17.1 C 11.65 g/m*3 17.1 C 0 km/h
1958 14-06-2011 08:03:02 17.1 C 11.5 g/m*3 17.1 C 0 km/h
1959 14-06-2011 08:15:02 17.8 C 11.84 g/m*3 17.8 C 0 km/h
1960 14-06-2011 08:27:03 18.1 C 11.43 g/m*3 18.1 C 0 km/h
1961 14-06-2011 08:39:01 18 C 11.37 g/m*3 18 C 0 km/h
1962 14-06-2011 08:51:02 18.5 C 11.71 g/m*3 18.5 C 0 km/h
1963 14-06-2011 09:03:01 18.8 C 11.6 g/m*3 18.8 C 0 km/h
1964 14-06-2011 09:15:01 18.5 C 11.39 g/m*3 18.5 C 0 km/h
1965 14-06-2011 09:27:01 18.8 C 11.6 g/m*3 18.8 C 0 km/h
1966 14-06-2011 09:39:02 19.4 C 11.68 g/m*3 19.4 C 0 km/h
1967 14-06-2011 09:51:02 20.2 C 11.71 g/m*3 20.2 C 0 km/h
1968 14-06-2011 10:03:02 21.3 C 10.62 g/m*3 21.3 C 0 km/h
1969 14-06-2011 10:15:01 20.9 C 10.75 g/m*3 20.9 C 0 km/h
1970 14-06-2011 10:27:01 20.2 C 10.84 g/m*3 20.2 C 0 km/h
1971 14-06-2011 10:39:02 20.3 C 10.73 g/m*3 20.3 C 0 km/h
1972 14-06-2011 10:51:02 21.1 C 10.69 g/m*3 21.1 C 0 km/h
1973 14-06-2011 11:03:02 21.2 C 10.19 g/m*3 21.2 C 0 km/h
1974 14-06-2011 11:15:02 22.6 C 10.25 g/m*3 22.6 C 0 km/h
1975 14-06-2011 11:27:02 23.5 C 9.73 g/m*3 23.5 C 0 km/h
Sensor: Nr:Datum:Temp:Abs-Feuchte:Windchill:Wind:
Aussen-T/F 1976 14-06-2011 11:39:02 21 C 10.44 g/m*3 21 C 0 km/h
1977 14-06-2011 11:51:02 20.9 C 10.75 g/m*3 20.9 C 0 km/h
1978 14-06-2011 12:03:02 21 C 10.99 g/m*3 21 C 0 km/h
1979 14-06-2011 12:15:02 22.3 C 10.47 g/m*3 22.3 C 0 km/h
1980 14-06-2011 12:27:02 23.1 C 9.92 g/m*3 23.1 C 0 km/h
1981 14-06-2011 12:39:02 23.6 C 9.78 g/m*3 23.6 C 0 km/h
1982 14-06-2011 12:51:02 23.5 C 10.15 g/m*3 23.5 C 0 km/h
1983 14-06-2011 13:03:02 22.9 C 10.22 g/m*3 22.9 C 0 km/h
1984 14-06-2011 13:15:02 22.8 C 9.75 g/m*3 22.8 C 0 km/h
1985 14-06-2011 13:27:02 23.9 C 9.74 g/m*3 23.9 C 0 km/h
1986 14-06-2011 13:39:01 22 C 11.26 g/m*3 22 C 0 km/h
1987 14-06-2011 13:51:02 22.1 C 9.17 g/m*3 22.1 C 0 km/h
1988 14-06-2011 14:03:01 27 C 9.26 g/m*3 27 C 0 km/h
1989 14-06-2011 14:15:02 26.4 C 8.71 g/m*3 26.4 C 0 km/h
1990 14-06-2011 14:27:02 29.6 C 8.61 g/m*3 29.6 C 0 km/h
1991 14-06-2011 14:39:01 28.2 C 8.25 g/m*3 28.2 C 0 km/h
1992 14-06-2011 14:51:02 27.5 C 7.94 g/m*3 27.5 C 0 km/h
1993 14-06-2011 15:03:02 27 C 8.24 g/m*3 27 C 0 km/h
1994 14-06-2011 15:15:02 28.8 C 8.24 g/m*3 28.8 C 0 km/h
1995 14-06-2011 15:27:02 26.9 C 7.42 g/m*3 26.9 C 0 km/h
1996 14-06-2011 15:39:03 30.6 C 7.2 g/m*3 30.6 C 0 km/h
1997 14-06-2011 15:51:02 30.6 C 6.89 g/m*3 30.6 C 0 km/h
1998 14-06-2011 16:03:02 30.9 C 6.68 g/m*3 30.9 C 0 km/h
1999 14-06-2011 16:15:01 31.2 C 6.47 g/m*3 31.2 C 0 km/h
2000 14-06-2011 16:27:01 31.2 C 6.47 g/m*3 31.2 C 0 km/h
Sensor: Nr:Datum:Temp:Abs-Feuchte:Windchill:Wind:
Aussen-T/F 2001 14-06-2011 16:39:02 31.6 C 6.61 g/m*3 31.6 C 0 km/h
2002 14-06-2011 16:51:02 30.9 C 6.68 g/m*3 30.9 C 0 km/h
2003 14-06-2011 17:03:02 27.7 C 7.49 g/m*3 27.7 C 0 km/h
2004 14-06-2011 17:15:02 30.7 C 6.61 g/m*3 30.7 C 0 km/h
2005 14-06-2011 17:27:02 31.7 C 6.64 g/m*3 31.7 C 0 km/h
2006 14-06-2011 17:39:02 30.5 C 6.54 g/m*3 30.5 C 0 km/h
2007 14-06-2011 17:51:02 30.4 C 7.75 g/m*3 30.4 C 0 km/h
2008 14-06-2011 18:03:02 29.9 C 7.54 g/m*3 29.9 C 0 km/h
2009 14-06-2011 18:15:02 28.9 C 7.14 g/m*3 28.9 C 0 km/h
2010 14-06-2011 18:27:02 30.4 C 7.13 g/m*3 30.4 C 0 km/h
2011 14-06-2011 18:39:02 30.7 C 7.24 g/m*3 30.7 C 0 km/h
2012 14-06-2011 18:51:02 26.5 C 7.01 g/m*3 26.5 C 0 km/h
2013 14-06-2011 19:03:02 28 C 8.16 g/m*3 28 C 0 km/h
2014 14-06-2011 19:15:02 26.9 C 7.93 g/m*3 26.9 C 0 km/h
2015 14-06-2011 19:27:02 25.1 C 8.57 g/m*3 25.1 C 0 km/h
2016 14-06-2011 19:39:02 26 C 8.28 g/m*3 26 C 0 km/h
2017 14-06-2011 19:51:02 25 C 8.52 g/m*3 25 C 0 km/h
2018 14-06-2011 20:03:02 23.6 C 8.72 g/m*3 23.6 C 0 km/h
2019 14-06-2011 20:15:02 22.8 C 9.14 g/m*3 22.8 C 0 km/h
2020 14-06-2011 20:27:02 22.3 C 9.08 g/m*3 22.3 C 0 km/h
2021 14-06-2011 20:39:01 22.3 C 9.08 g/m*3 22.3 C 0 km/h
2022 14-06-2011 20:51:02 21.7 C 9.73 g/m*3 21.7 C 0 km/h
2023 14-06-2011 21:03:01 21.3 C 9.88 g/m*3 21.3 C 0 km/h
2024 14-06-2011 21:15:01 20.7 C 9.72 g/m*3 20.7 C 0 km/h
2025 14-06-2011 21:27:01 19.4 C 9.84 g/m*3 19.4 C 0 km/h
Sensor: Nr:Datum:Temp:Abs-Feuchte:Windchill:Wind:
Aussen-T/F 2026 14-06-2011 21:39:02 18.7 C 9.93 g/m*3 18.7 C 0 km/h
2027 14-06-2011 21:51:02 18.1 C 10.04 g/m*3 18.1 C 0 km/h
2028 14-06-2011 22:03:02 17.6 C 10.05 g/m*3 17.6 C 0 km/h
2029 14-06-2011 22:15:02 17.1 C 9.9 g/m*3 17.1 C 0 km/h
2030 14-06-2011 22:27:02 16.6 C 9.75 g/m*3 16.6 C 0 km/h
2031 14-06-2011 22:40:02 16.2 C 9.52 g/m*3 16.2 C 0 km/h
2032 14-06-2011 22:52:02 16.5 C 9.97 g/m*3 16.5 C 0 km/h
2033 14-06-2011 23:04:02 15.8 C 9.69 g/m*3 15.8 C 0 km/h
2034 14-06-2011 23:16:02 15.9 C 10.02 g/m*3 15.9 C 0 km/h
2035 14-06-2011 23:28:02 15.4 C 9.85 g/m*3 15.4 C 0 km/h
2036 14-06-2011 23:40:03 14.8 C 9.63 g/m*3 14.8 C 0 km/h
2037 14-06-2011 23:52:03 14.6 C 9.64 g/m*3 14.6 C 0 km/h
2038 15-06-2011 00:04:03 14.3 C 9.71 g/m*3 14.3 C 0 km/h
2039 15-06-2011 00:16:03 14.1 C 9.59 g/m*3 14.1 C 0 km/h
2040 15-06-2011 00:28:03 14.1 C 9.71 g/m*3 14.1 C 0 km/h
2041 15-06-2011 00:40:03 14.2 C 9.89 g/m*3 14.2 C 0 km/h
2042 15-06-2011 00:52:03 13.8 C 9.77 g/m*3 13.8 C 0 km/h
2043 15-06-2011 01:04:03 13.5 C 9.59 g/m*3 13.5 C 0 km/h
2044 15-06-2011 01:16:03 13.5 C 9.71 g/m*3 13.5 C 0 km/h
2045 15-06-2011 01:28:03 13.2 C 9.53 g/m*3 13.2 C 0 km/h
2046 15-06-2011 01:40:03 13.2 C 9.64 g/m*3 13.2 C 0 km/h
2047 15-06-2011 01:52:03 13.1 C 9.59 g/m*3 13.1 C 0 km/h
2048 15-06-2011 02:04:03 13 C 9.53 g/m*3 13 C 0 km/h
2049 15-06-2011 02:16:03 12.9 C 9.58 g/m*3 12.9 C 0 km/h
2050 15-06-2011 02:28:03 12.8 C 9.63 g/m*3 12.8 C 0 km/h
Sensor: Nr:Datum:Temp:Abs-Feuchte:Windchill:Wind:
Aussen-T/F 2051 15-06-2011 02:40:03 12.7 C 9.57 g/m*3 12.7 C 0 km/h
2052 15-06-2011 02:52:03 12.6 C 9.51 g/m*3 12.6 C 0 km/h
2053 15-06-2011 03:04:03 12.6 C 9.51 g/m*3 12.6 C 0 km/h
2054 15-06-2011 03:16:03 12.7 C 9.68 g/m*3 12.7 C 0 km/h
2055 15-06-2011 03:28:03 12.9 C 9.81 g/m*3 12.9 C 0 km/h
2056 15-06-2011 03:40:03 12.4 C 9.51 g/m*3 12.4 C 0 km/h
2057 15-06-2011 03:52:04 12.1 C 9.33 g/m*3 12.1 C 0 km/h
2058 15-06-2011 04:04:04 12 C 9.27 g/m*3 12 C 0 km/h
2059 15-06-2011 04:16:04 12.3 C 9.56 g/m*3 12.3 C 0 km/h
2060 15-06-2011 04:28:04 11.9 C 9.32 g/m*3 11.9 C 0 km/h
2061 15-06-2011 04:40:04 12.1 C 9.44 g/m*3 12.1 C 0 km/h
2062 15-06-2011 04:52:04 11.9 C 9.43 g/m*3 11.9 C 0 km/h
2063 15-06-2011 05:04:04 11.8 C 9.37 g/m*3 11.8 C 0 km/h
2064 15-06-2011 05:16:04 12.2 C 9.6 g/m*3 12.2 C 0 km/h
2065 15-06-2011 05:28:04 12.7 C 9.91 g/m*3 12.7 C 0 km/h
2066 15-06-2011 05:40:04 12.8 C 9.97 g/m*3 12.8 C 0 km/h
2067 15-06-2011 05:52:04 13 C 10.09 g/m*3 13 C 0 km/h
2068 15-06-2011 06:04:04 13.3 C 10.28 g/m*3 13.3 C 0 km/h
2069 15-06-2011 06:16:04 13.3 C 10.28 g/m*3 13.3 C 0 km/h
2070 15-06-2011 06:28:04 13.7 C 10.42 g/m*3 13.7 C 0 km/h
2071 15-06-2011 06:40:04 13.9 C 10.43 g/m*3 13.9 C 0 km/h
2072 15-06-2011 06:52:04 14.1 C 10.44 g/m*3 14.1 C 0 km/h
2073 15-06-2011 07:04:03 14.3 C 10.44 g/m*3 14.3 C 0 km/h
2074 15-06-2011 07:16:02 14.7 C 10.45 g/m*3 14.7 C 0 km/h
2075 15-06-2011 07:28:02 15 C 10.13 g/m*3 15 C 0 km/h
Sensor: Nr:Datum:Temp:Abs-Feuchte:Windchill:Wind:
Aussen-T/F 2076 15-06-2011 07:40:03 15.4 C 10.12 g/m*3 15.4 C 0 km/h
2077 15-06-2011 07:52:02 16 C 9.81 g/m*3 16 C 0 km/h
2078 15-06-2011 08:04:02 16.4 C 9.63 g/m*3 16.4 C 0 km/h
2079 15-06-2011 08:16:01 17 C 9.84 g/m*3 17 C 0 km/h
2080 15-06-2011 08:28:01 16.7 C 9.66 g/m*3 16.7 C 0 km/h
2081 15-06-2011 08:40:02 17 C 9.84 g/m*3 17 C 0 km/h
2082 15-06-2011 08:52:02 17.6 C 9.9 g/m*3 17.6 C 0 km/h
2083 15-06-2011 09:04:02 18.3 C 9.69 g/m*3 18.3 C 0 km/h
2084 15-06-2011 09:16:01 18.2 C 9.64 g/m*3 18.2 C 0 km/h
2085 15-06-2011 09:28:01 18.2 C 9.64 g/m*3 18.2 C 0 km/h
2086 15-06-2011 09:40:02 18.9 C 9.88 g/m*3 18.9 C 0 km/h
2087 15-06-2011 09:52:02 19.1 C 9.67 g/m*3 19.1 C 0 km/h
2088 15-06-2011 10:04:02 19.7 C 9.51 g/m*3 19.7 C 0 km/h
2089 15-06-2011 10:16:02 20.3 C 9.67 g/m*3 20.3 C 0 km/h
2090 15-06-2011 10:28:02 20 C 9.51 g/m*3 20 C 0 km/h
2091 15-06-2011 10:40:02 20.5 C 9.61 g/m*3 20.5 C 0 km/h
2092 15-06-2011 10:52:02 21.8 C 9.78 g/m*3 21.8 C 0 km/h
2093 15-06-2011 11:04:02 23.5 C 9.73 g/m*3 23.5 C 0 km/h
2094 15-06-2011 11:16:02 23.6 C 9.78 g/m*3 23.6 C 0 km/h
2095 15-06-2011 11:28:02 24.2 C 9.9 g/m*3 24.2 C 0 km/h
2096 15-06-2011 11:40:01 24.6 C 9.68 g/m*3 24.6 C 0 km/h
2097 15-06-2011 11:52:02 24.3 C 9.74 g/m*3 24.3 C 0 km/h
2098 15-06-2011 12:04:01 24.1 C 10.06 g/m*3 24.1 C 0 km/h
2099 15-06-2011 12:16:01 24.1 C 10.06 g/m*3 24.1 C 0 km/h
2100 15-06-2011 12:28:01 24.8 C 9.56 g/m*3 24.8 C 0 km/h
Sensor: Nr:Datum:Temp:Abs-Feuchte:Windchill:Wind:
Aussen-T/F 2101 15-06-2011 12:40:02 25.1 C 9.49 g/m*3 25.1 C 0 km/h
2102 15-06-2011 12:52:02 25.1 C 8.8 g/m*3 25.1 C 0 km/h
2103 15-06-2011 13:04:02 26.2 C 8.86 g/m*3 26.2 C 0 km/h
2104 15-06-2011 13:16:02 27.2 C 8.07 g/m*3 27.2 C 0 km/h
2105 15-06-2011 13:28:02 28.2 C 8.25 g/m*3 28.2 C 0 km/h
2106 15-06-2011 13:40:02 30 C 8.19 g/m*3 30 C 0 km/h
2107 15-06-2011 13:52:01 28.8 C 8.52 g/m*3 28.8 C 0 km/h
2108 15-06-2011 14:04:02 26.6 C 7.55 g/m*3 26.6 C 0 km/h
2109 15-06-2011 14:16:01 25.7 C 8.14 g/m*3 25.7 C 0 km/h
2110 15-06-2011 14:28:01 24.7 C 8.6 g/m*3 24.7 C 0 km/h
2111 15-06-2011 14:40:01 24 C 9.14 g/m*3 24 C 0 km/h
2112 15-06-2011 14:52:01 23.3 C 9.83 g/m*3 23.3 C 0 km/h
2113 15-06-2011 15:04:02 23 C 9.25 g/m*3 23 C 0 km/h
2114 15-06-2011 15:16:01 22.6 C 10.04 g/m*3 22.6 C 0 km/h
2115 15-06-2011 15:28:01 24 C 9.57 g/m*3 24 C 0 km/h
2116 15-06-2011 15:40:02 25 C 8.75 g/m*3 25 C 0 km/h
2117 15-06-2011 15:52:03 26.6 C 8.81 g/m*3 26.6 C 0 km/h
2118 15-06-2011 16:04:02 26.2 C 8.86 g/m*3 26.2 C 0 km/h
2119 15-06-2011 16:16:02 25.6 C 8.57 g/m*3 25.6 C 0 km/h
2120 15-06-2011 16:28:02 26.8 C 8.14 g/m*3 26.8 C 0 km/h
2121 15-06-2011 16:40:02 27 C 7.72 g/m*3 27 C 0 km/h
2122 15-06-2011 16:52:02 27 C 7.98 g/m*3 27 C 0 km/h
2123 15-06-2011 17:04:02 28 C 7.89 g/m*3 28 C 0 km/h
2124 15-06-2011 17:16:01 28.3 C 7.46 g/m*3 28.3 C 0 km/h
2125 15-06-2011 17:28:01 28.3 C 7.46 g/m*3 28.3 C 0 km/h
Sensor: Nr:Datum:Temp:Abs-Feuchte:Windchill:Wind:
Aussen-T/F 2126 15-06-2011 17:40:01 28.5 C 7.27 g/m*3 28.5 C 0 km/h
2127 15-06-2011 17:52:01 27.7 C 8.02 g/m*3 27.7 C 0 km/h
2128 15-06-2011 18:04:02 27 C 7.98 g/m*3 27 C 0 km/h
2129 15-06-2011 18:16:01 26.9 C 8.19 g/m*3 26.9 C 0 km/h
2130 15-06-2011 18:28:01 27.1 C 8.02 g/m*3 27.1 C 0 km/h
2131 15-06-2011 18:40:02 28 C 7.89 g/m*3 28 C 0 km/h
2132 15-06-2011 18:52:02 25.9 C 9.2 g/m*3 25.9 C 0 km/h
2133 15-06-2011 19:04:02 27.5 C 7.67 g/m*3 27.5 C 0 km/h
2134 15-06-2011 19:16:01 28.6 C 7.87 g/m*3 28.6 C 0 km/h
2135 15-06-2011 19:28:01 25.9 C 8.96 g/m*3 25.9 C 0 km/h
2136 15-06-2011 19:40:02 25.1 C 9.72 g/m*3 25.1 C 0 km/h
2137 15-06-2011 19:52:01 23.6 C 10.42 g/m*3 23.6 C 0 km/h
2138 15-06-2011 20:04:02 22.9 C 10.63 g/m*3 22.9 C 0 km/h
2139 15-06-2011 20:16:02 22.8 C 9.96 g/m*3 22.8 C 0 km/h
2140 15-06-2011 20:28:02 21.9 C 10.61 g/m*3 21.9 C 0 km/h
2141 15-06-2011 20:40:02 21.2 C 10.56 g/m*3 21.2 C 0 km/h
2142 15-06-2011 20:52:02 21 C 10.26 g/m*3 21 C 0 km/h
2143 15-06-2011 21:04:02 20.8 C 10.32 g/m*3 20.8 C 0 km/h
2144 15-06-2011 21:16:02 20.5 C 10.14 g/m*3 20.5 C 0 km/h
2145 15-06-2011 21:28:02 20 C 10.02 g/m*3 20 C 0 km/h
2146 15-06-2011 21:40:02 19.7 C 10.36 g/m*3 19.7 C 0 km/h
2147 15-06-2011 21:52:02 18.9 C 10.21 g/m*3 18.9 C 0 km/h
2148 16-06-2011 20:53:01 17.2 C 9.23 g/m*3 17.2 C 0 km/h
2149 16-06-2011 21:05:02 17.7 C 9.2 g/m*3 17.7 C 0 km/h
2150 16-06-2011 21:17:01 17.2 C 9.08 g/m*3 17.2 C 0 km/h
Sensor: Nr:Datum:Temp:Abs-Feuchte:Windchill:Wind:
Aussen-T/F 2151 16-06-2011 21:29:01 16.7 C 9.1 g/m*3 16.7 C 0 km/h
2152 16-06-2011 21:41:02 16.2 C 9.1 g/m*3 16.2 C 0 km/h
2153 16-06-2011 21:53:02 15.9 C 9.34 g/m*3 15.9 C 0 km/h
2154 16-06-2011 22:06:15 16 C 9.26 g/m*3 16 C 0 km/h
2155 16-06-2011 22:18:15 15.9 C 8.94 g/m*3 15.9 C 0 km/h
2156 16-06-2011 22:30:15 15.7 C 8.83 g/m*3 15.7 C 0 km/h
2157 16-06-2011 22:42:15 16.2 C 7.72 g/m*3 16.2 C 0 km/h
2158 16-06-2011 22:54:15 16.1 C 7.26 g/m*3 16.1 C 0 km/h
2159 16-06-2011 23:06:15 15.8 C 7.4 g/m*3 15.8 C 0 km/h
2160 16-06-2011 23:18:15 15.4 C 7.36 g/m*3 15.4 C 0 km/h
2161 16-06-2011 23:30:15 14.8 C 7.47 g/m*3 14.8 C 0 km/h
2162 16-06-2011 23:42:15 14.7 C 7.43 g/m*3 14.7 C 0 km/h
2163 16-06-2011 23:54:15 14.4 C 7.05 g/m*3 14.4 C 0 km/h
2164 17-06-2011 00:06:15 14.1 C 6.67 g/m*3 14.1 C 0 km/h
2165 17-06-2011 00:18:15 13.5 C 6.55 g/m*3 13.5 C 0 km/h
2166 17-06-2011 00:30:15 13 C 6.46 g/m*3 13 C 0 km/h
2167 17-06-2011 00:42:15 12.8 C 6.83 g/m*3 12.8 C 0 km/h
2168 17-06-2011 00:54:15 12.2 C 6.91 g/m*3 12.2 C 0 km/h
2169 17-06-2011 01:06:15 11.8 C 7.16 g/m*3 11.8 C 0 km/h
2170 17-06-2011 01:18:15 12 C 7.03 g/m*3 12 C 0 km/h
2171 17-06-2011 01:30:15 13 C 6.46 g/m*3 13 C 0 km/h
2172 17-06-2011 01:42:16 12.5 C 6.49 g/m*3 12.5 C 0 km/h
2173 17-06-2011 01:54:16 12.1 C 6.54 g/m*3 12.1 C 0 km/h
2174 17-06-2011 02:06:16 11.5 C 6.71 g/m*3 11.5 C 0 km/h
2175 17-06-2011 02:18:16 10.8 C 6.72 g/m*3 10.8 C 0 km/h
Sensor: Nr:Datum:Temp:Abs-Feuchte:Windchill:Wind:
Aussen-T/F 2176 17-06-2011 02:30:16 10.5 C 6.89 g/m*3 10.5 C 0 km/h
2177 17-06-2011 02:42:16 10 C 6.77 g/m*3 10 C 0 km/h
2178 17-06-2011 02:54:16 10.2 C 7.04 g/m*3 10.2 C 0 km/h
2179 17-06-2011 03:06:16 10.1 C 7 g/m*3 10.1 C 0 km/h
2180 17-06-2011 03:18:16 9.3 C 7.01 g/m*3 9.3 C 0 km/h
2181 17-06-2011 03:30:16 9.1 C 7.01 g/m*3 9.1 C 0 km/h
2182 17-06-2011 03:42:16 8.8 C 7.14 g/m*3 8.8 C 0 km/h
2183 17-06-2011 03:54:16 9 C 7.23 g/m*3 9 C 0 km/h
2184 17-06-2011 04:06:16 8.7 C 7.18 g/m*3 8.7 C 0 km/h
2185 17-06-2011 04:18:16 8.3 C 7.08 g/m*3 8.3 C 0 km/h
2186 17-06-2011 04:30:16 8 C 7.03 g/m*3 8 C 0 km/h
2187 17-06-2011 04:42:16 7.9 C 7.06 g/m*3 7.9 C 0 km/h
2188 17-06-2011 04:54:16 7.6 C 7.01 g/m*3 7.6 C 0 km/h
2189 17-06-2011 05:06:16 7.5 C 6.96 g/m*3 7.5 C 0 km/h
2190 17-06-2011 05:18:16 7.4 C 6.92 g/m*3 7.4 C 0 km/h
2191 17-06-2011 05:30:16 7.4 C 6.92 g/m*3 7.4 C 0 km/h
2192 17-06-2011 05:42:17 7.5 C 7.04 g/m*3 7.5 C 0 km/h
2193 17-06-2011 05:54:17 7.5 C 7.04 g/m*3 7.5 C 0 km/h
2194 17-06-2011 06:06:17 7.5 C 7.04 g/m*3 7.5 C 0 km/h
2195 17-06-2011 06:18:17 7.5 C 7.04 g/m*3 7.5 C 0 km/h
2196 17-06-2011 06:30:17 7.6 C 7.17 g/m*3 7.6 C 0 km/h
2197 17-06-2011 06:42:17 8.1 C 7.32 g/m*3 8.1 C 0 km/h
2198 17-06-2011 06:54:17 8.3 C 7.42 g/m*3 8.3 C 0 km/h
2199 17-06-2011 07:06:17 8.9 C 7.8 g/m*3 8.9 C 0 km/h
2200 17-06-2011 07:18:17 9 C 7.76 g/m*3 9 C 0 km/h
Sensor: Nr:Datum:Temp:Abs-Feuchte:Windchill:Wind:
Aussen-T/F 2201 17-06-2011 07:30:17 9.1 C 7.72 g/m*3 9.1 C 0 km/h
2202 17-06-2011 07:42:17 9.8 C 8.16 g/m*3 9.8 C 0 km/h
2203 17-06-2011 07:54:17 10.3 C 8.24 g/m*3 10.3 C 0 km/h
2204 17-06-2011 08:06:17 11.3 C 8.57 g/m*3 11.3 C 0 km/h
2205 17-06-2011 08:18:17 11.9 C 8.37 g/m*3 11.9 C 0 km/h
2206 17-06-2011 08:30:17 12.4 C 7.65 g/m*3 12.4 C 0 km/h
2207 17-06-2011 08:42:17 12.7 C 7.9 g/m*3 12.7 C 0 km/h
2208 17-06-2011 08:54:17 13.2 C 7.92 g/m*3 13.2 C 0 km/h
2209 17-06-2011 09:06:17 14.1 C 8.13 g/m*3 14.1 C 0 km/h
2210 17-06-2011 09:18:17 14.2 C 7.69 g/m*3 14.2 C 0 km/h
2211 17-06-2011 09:30:17 14.6 C 8.01 g/m*3 14.6 C 0 km/h
2212 17-06-2011 09:42:18 16 C 6.95 g/m*3 16 C 0 km/h
2213 17-06-2011 09:54:18 16.9 C 6.47 g/m*3 16.9 C 0 km/h
2214 17-06-2011 10:06:18 17.5 C 6.71 g/m*3 17.5 C 0 km/h
2215 17-06-2011 10:18:18 17.6 C 6.15 g/m*3 17.6 C 0 km/h
2216 17-06-2011 10:30:18 18.1 C 6.33 g/m*3 18.1 C 0 km/h
2217 17-06-2011 10:42:18 18.6 C 6.05 g/m*3 18.6 C 0 km/h
2218 17-06-2011 10:54:18 18.9 C 5.67 g/m*3 18.9 C 0 km/h
2219 17-06-2011 11:06:18 19 C 5.54 g/m*3 19 C 0 km/h
2220 17-06-2011 11:18:18 19.4 C 5.34 g/m*3 19.4 C 0 km/h
2221 17-06-2011 11:30:18 19.1 C 5.74 g/m*3 19.1 C 0 km/h
2222 17-06-2011 11:42:18 19.7 C 5.6 g/m*3 19.7 C 0 km/h
2223 17-06-2011 11:54:18 20 C 5.7 g/m*3 20 C 0 km/h
2224 17-06-2011 12:06:18 20.3 C 5.63 g/m*3 20.3 C 0 km/h
2225 17-06-2011 12:18:18 20.7 C 5.58 g/m*3 20.7 C 0 km/h
Sensor: Nr:Datum:Temp:Abs-Feuchte:Windchill:Wind:
Aussen-T/F 2226 17-06-2011 12:30:18 20.9 C 5.46 g/m*3 20.9 C 0 km/h
2227 17-06-2011 12:42:18 21.3 C 5.59 g/m*3 21.3 C 0 km/h
2228 17-06-2011 12:54:18 21.4 C 5.44 g/m*3 21.4 C 0 km/h
2229 17-06-2011 13:06:18 22 C 5.82 g/m*3 22 C 0 km/h
2230 17-06-2011 13:18:18 22.9 C 6.13 g/m*3 22.9 C 0 km/h
2231 17-06-2011 13:30:18 22.9 C 5.52 g/m*3 22.9 C 0 km/h
2232 17-06-2011 13:42:18 25.8 C 6.26 g/m*3 25.8 C 0 km/h
2233 17-06-2011 13:54:19 23.4 C 5.47 g/m*3 23.4 C 0 km/h
2234 17-06-2011 14:06:19 28.3 C 5.81 g/m*3 28.3 C 0 km/h
2235 17-06-2011 14:18:19 25.8 C 5.3 g/m*3 25.8 C 0 km/h
2236 17-06-2011 14:30:19 25 C 5.75 g/m*3 25 C 0 km/h
2237 17-06-2011 14:42:19 24.8 C 5.69 g/m*3 24.8 C 0 km/h
2238 17-06-2011 14:54:19 24.5 C 5.6 g/m*3 24.5 C 0 km/h
2239 17-06-2011 15:06:19 25.1 C 5.09 g/m*3 25.1 C 0 km/h
2240 17-06-2011 15:18:19 26.2 C 5.17 g/m*3 26.2 C 0 km/h
2241 17-06-2011 15:30:01 24.5 C 4.92 g/m*3 24.5 C 0 km/h
2242 17-06-2011 15:42:01 23.3 C 6.06 g/m*3 23.3 C 0 km/h
2243 17-06-2011 15:54:01 22.8 C 6.3 g/m*3 22.8 C 0 km/h
2244 17-06-2011 16:06:01 22.3 C 7.31 g/m*3 22.3 C 0 km/h
2245 17-06-2011 16:18:02 21.8 C 7.29 g/m*3 21.8 C 0 km/h
2246 17-06-2011 16:30:02 22 C 6.99 g/m*3 22 C 0 km/h
2247 17-06-2011 16:42:01 22.6 C 8.24 g/m*3 22.6 C 0 km/h
2248 17-06-2011 16:54:02 22.4 C 7.94 g/m*3 22.4 C 0 km/h
2249 17-06-2011 17:06:02 22.4 C 8.74 g/m*3 22.4 C 0 km/h
2250 17-06-2011 17:18:02 21.5 C 9.05 g/m*3 21.5 C 0 km/h
Sensor: Nr:Datum:Temp:Abs-Feuchte:Windchill:Wind:
Aussen-T/F 2251 17-06-2011 17:30:03 21.6 C 8.91 g/m*3 21.6 C 0 km/h
2252 17-06-2011 17:42:02 21.2 C 8.52 g/m*3 21.2 C 0 km/h
2253 17-06-2011 17:54:02 20.7 C 8.64 g/m*3 20.7 C 0 km/h
2254 17-06-2011 18:06:02 20.5 C 8.72 g/m*3 20.5 C 0 km/h
2255 17-06-2011 18:18:02 20.5 C 9.25 g/m*3 20.5 C 0 km/h
2256 17-06-2011 18:30:02 21 C 9.34 g/m*3 21 C 0 km/h
2257 17-06-2011 18:42:02 20.9 C 9.11 g/m*3 20.9 C 0 km/h
2258 17-06-2011 18:54:02 21.2 C 8.9 g/m*3 21.2 C 0 km/h
2259 17-06-2011 19:06:02 20.5 C 8.72 g/m*3 20.5 C 0 km/h
2260 17-06-2011 19:18:02 20 C 8.99 g/m*3 20 C 0 km/h
2261 17-06-2011 19:30:02 19.9 C 8.93 g/m*3 19.9 C 0 km/h
2262 17-06-2011 19:42:02 19.5 C 8.73 g/m*3 19.5 C 0 km/h
2263 17-06-2011 19:54:02 19.1 C 8.69 g/m*3 19.1 C 0 km/h
2264 17-06-2011 20:06:02 18.9 C 8.91 g/m*3 18.9 C 0 km/h
2265 17-06-2011 20:18:02 18.1 C 8.81 g/m*3 18.1 C 0 km/h
2266 17-06-2011 20:30:02 17 C 9.12 g/m*3 17 C 0 km/h
2267 17-06-2011 20:42:01 16.2 C 9.93 g/m*3 16.2 C 0 km/h
2268 17-06-2011 20:54:02 15.9 C 10.02 g/m*3 15.9 C 0 km/h
2269 17-06-2011 21:06:01 15.8 C 10.23 g/m*3 15.8 C 0 km/h
2270 17-06-2011 21:18:02 15.7 C 10.44 g/m*3 15.7 C 0 km/h
2271 17-06-2011 21:30:02 15.4 C 10.38 g/m*3 15.4 C 0 km/h
2272 17-06-2011 21:42:01 15.2 C 10.51 g/m*3 15.2 C 0 km/h
2273 17-06-2011 21:54:01 15 C 10.51 g/m*3 15 C 0 km/h
2274 17-06-2011 22:06:01 15 C 10.64 g/m*3 15 C 0 km/h
2275 17-06-2011 22:18:02 14.8 C 10.77 g/m*3 14.8 C 0 km/h
Sensor: Nr:Datum:Temp:Abs-Feuchte:Windchill:Wind:
Aussen-T/F 2276 17-06-2011 22:30:02 14.5 C 10.57 g/m*3 14.5 C 0 km/h
2277 17-06-2011 22:43:02 14.3 C 10.44 g/m*3 14.3 C 0 km/h
2278 17-06-2011 22:55:02 14.2 C 10.5 g/m*3 14.2 C 0 km/h
2279 17-06-2011 23:07:02 14.2 C 10.5 g/m*3 14.2 C 0 km/h
2280 17-06-2011 23:19:02 14.2 C 10.62 g/m*3 14.2 C 0 km/h
2281 17-06-2011 23:31:02 14.2 C 10.62 g/m*3 14.2 C 0 km/h
2282 17-06-2011 23:43:02 14.1 C 10.56 g/m*3 14.1 C 0 km/h
2283 17-06-2011 23:55:02 14.1 C 10.56 g/m*3 14.1 C 0 km/h
2284 18-06-2011 00:07:02 14.1 C 10.56 g/m*3 14.1 C 0 km/h
2285 18-06-2011 00:19:02 14 C 10.49 g/m*3 14 C 0 km/h
2286 18-06-2011 00:31:02 14.2 C 10.75 g/m*3 14.2 C 0 km/h
2287 18-06-2011 00:43:02 14.2 C 10.75 g/m*3 14.2 C 0 km/h
2288 18-06-2011 00:55:02 13.9 C 10.55 g/m*3 13.9 C 0 km/h
2289 18-06-2011 01:07:02 13.8 C 10.48 g/m*3 13.8 C 0 km/h
2290 18-06-2011 01:19:02 13.9 C 10.55 g/m*3 13.9 C 0 km/h
2291 18-06-2011 01:31:02 14 C 10.61 g/m*3 14 C 0 km/h
2292 18-06-2011 01:43:02 14.3 C 10.81 g/m*3 14.3 C 0 km/h
2293 18-06-2011 01:55:02 14.2 C 10.75 g/m*3 14.2 C 0 km/h
2294 18-06-2011 02:07:03 14.3 C 10.93 g/m*3 14.3 C 0 km/h
2295 18-06-2011 02:19:03 14.3 C 10.93 g/m*3 14.3 C 0 km/h
2296 18-06-2011 02:31:03 14.5 C 11.07 g/m*3 14.5 C 0 km/h
2297 18-06-2011 02:43:03 14.3 C 10.93 g/m*3 14.3 C 0 km/h
2298 18-06-2011 02:55:03 14.2 C 10.87 g/m*3 14.2 C 0 km/h
2299 18-06-2011 03:07:03 14.2 C 10.87 g/m*3 14.2 C 0 km/h
2300 18-06-2011 03:19:03 14.3 C 10.93 g/m*3 14.3 C 0 km/h
Sensor: Nr:Datum:Temp:Abs-Feuchte:Windchill:Wind:
Aussen-T/F 2301 18-06-2011 03:31:03 14.4 C 11 g/m*3 14.4 C 0 km/h
2302 18-06-2011 03:43:03 14.4 C 11 g/m*3 14.4 C 0 km/h
2303 18-06-2011 03:55:03 14.4 C 11 g/m*3 14.4 C 0 km/h
2304 18-06-2011 04:07:03 14.5 C 11.07 g/m*3 14.5 C 0 km/h
2305 18-06-2011 04:19:03 15 C 11.16 g/m*3 15 C 0 km/h
2306 18-06-2011 04:31:03 15.3 C 10.58 g/m*3 15.3 C 0 km/h
2307 18-06-2011 04:43:03 14.7 C 10.32 g/m*3 14.7 C 0 km/h
2308 18-06-2011 04:55:03 15.2 C 10.12 g/m*3 15.2 C 0 km/h
2309 18-06-2011 05:07:03 15.1 C 9.93 g/m*3 15.1 C 0 km/h
2310 18-06-2011 05:19:03 14.8 C 10.01 g/m*3 14.8 C 0 km/h
2311 18-06-2011 05:31:03 14.9 C 9.94 g/m*3 14.9 C 0 km/h
2312 18-06-2011 05:43:03 15 C 9.62 g/m*3 15 C 0 km/h
2313 18-06-2011 05:55:03 14.8 C 9.5 g/m*3 14.8 C 0 km/h
2314 18-06-2011 06:07:04 14.8 C 9.5 g/m*3 14.8 C 0 km/h
2315 18-06-2011 06:19:04 14.4 C 9.15 g/m*3 14.4 C 0 km/h
2316 18-06-2011 06:31:04 14.7 C 9.19 g/m*3 14.7 C 0 km/h
2317 18-06-2011 06:43:04 15 C 8.85 g/m*3 15 C 0 km/h
2318 18-06-2011 06:55:04 15.4 C 8.54 g/m*3 15.4 C 0 km/h
2319 18-06-2011 07:07:04 15.6 C 8.38 g/m*3 15.6 C 0 km/h
2320 18-06-2011 07:19:04 15.6 C 8.38 g/m*3 15.6 C 0 km/h
2321 18-06-2011 07:31:04 15.6 C 8.25 g/m*3 15.6 C 0 km/h
2322 18-06-2011 07:43:04 15.7 C 8.16 g/m*3 15.7 C 0 km/h
2323 18-06-2011 07:55:04 15.7 C 8.3 g/m*3 15.7 C 0 km/h
2324 18-06-2011 08:07:04 15.7 C 8.16 g/m*3 15.7 C 0 km/h
2325 18-06-2011 08:19:04 15.9 C 7.85 g/m*3 15.9 C 0 km/h
Sensor: Nr:Datum:Temp:Abs-Feuchte:Windchill:Wind:
Aussen-T/F 2326 18-06-2011 08:31:04 16 C 7.77 g/m*3 16 C 0 km/h
2327 18-06-2011 08:43:04 16.3 C 7.63 g/m*3 16.3 C 0 km/h
2328 18-06-2011 08:55:04 16.6 C 7.49 g/m*3 16.6 C 0 km/h
2329 18-06-2011 09:07:04 16.7 C 7.67 g/m*3 16.7 C 0 km/h
2330 18-06-2011 09:19:02 16.8 C 7.58 g/m*3 16.8 C 0 km/h
2331 18-06-2011 09:31:02 16.5 C 7.58 g/m*3 16.5 C 0 km/h
2332 18-06-2011 09:43:02 16.7 C 7.67 g/m*3 16.7 C 0 km/h
2333 18-06-2011 09:55:02 16.2 C 7.58 g/m*3 16.2 C 0 km/h
2334 18-06-2011 10:07:02 16.5 C 7.86 g/m*3 16.5 C 0 km/h
2335 18-06-2011 10:19:02 17 C 7.23 g/m*3 17 C 0 km/h
2336 18-06-2011 10:31:01 16.2 C 6.62 g/m*3 16.2 C 0 km/h
2337 18-06-2011 10:43:01 16 C 6.4 g/m*3 16 C 0 km/h
2338 18-06-2011 10:55:02 16.7 C 6.54 g/m*3 16.7 C 0 km/h
2339 18-06-2011 11:07:01 16.6 C 6.5 g/m*3 16.6 C 0 km/h
2340 18-06-2011 11:19:02 17 C 6.08 g/m*3 17 C 0 km/h
2341 18-06-2011 11:31:02 17.5 C 6.41 g/m*3 17.5 C 0 km/h
2342 18-06-2011 11:43:02 15.9 C 6.09 g/m*3 15.9 C 0 km/h
2343 18-06-2011 11:55:03 17.5 C 6.41 g/m*3 17.5 C 0 km/h
2344 18-06-2011 12:07:02 17.3 C 5.89 g/m*3 17.3 C 0 km/h
2345 18-06-2011 12:19:03 16.5 C 6.32 g/m*3 16.5 C 0 km/h
2346 18-06-2011 12:31:02 17 C 5.93 g/m*3 17 C 0 km/h
2347 18-06-2011 12:43:02 16.5 C 5.9 g/m*3 16.5 C 0 km/h
2348 18-06-2011 12:55:02 17.2 C 6.15 g/m*3 17.2 C 0 km/h
2349 18-06-2011 13:07:02 18.2 C 6.37 g/m*3 18.2 C 0 km/h
2350 18-06-2011 13:19:02 18.3 C 6.1 g/m*3 18.3 C 0 km/h
Sensor: Nr:Datum:Temp:Abs-Feuchte:Windchill:Wind:
Aussen-T/F 2351 18-06-2011 13:31:02 17.4 C 5.93 g/m*3 17.4 C 0 km/h
2352 18-06-2011 13:43:02 18.9 C 5.83 g/m*3 18.9 C 0 km/h
2353 18-06-2011 13:55:02 17.4 C 6.08 g/m*3 17.4 C 0 km/h
2354 18-06-2011 14:07:01 19.8 C 6.15 g/m*3 19.8 C 0 km/h
2355 18-06-2011 14:19:02 19.1 C 5.9 g/m*3 19.1 C 0 km/h
2356 18-06-2011 14:31:01 19.7 C 5.6 g/m*3 19.7 C 0 km/h
2357 18-06-2011 14:43:01 18.8 C 5.31 g/m*3 18.8 C 0 km/h
2358 18-06-2011 14:55:02 18.1 C 5.56 g/m*3 18.1 C 0 km/h
2359 18-06-2011 15:07:01 19.9 C 5.15 g/m*3 19.9 C 0 km/h
2360 18-06-2011 15:19:02 20.8 C 4.71 g/m*3 20.8 C 0 km/h
2361 18-06-2011 15:31:01 22.4 C 5.36 g/m*3 22.4 C 0 km/h
2362 18-06-2011 15:43:01 20 C 5.18 g/m*3 20 C 0 km/h
2363 18-06-2011 15:55:02 21.2 C 5.74 g/m*3 21.2 C 0 km/h
2364 18-06-2011 16:07:01 21.8 C 5.76 g/m*3 21.8 C 0 km/h
2365 18-06-2011 16:19:02 19.4 C 5.34 g/m*3 19.4 C 0 km/h
2366 18-06-2011 16:31:01 19.8 C 5.81 g/m*3 19.8 C 0 km/h
2367 18-06-2011 16:43:01 22 C 6.02 g/m*3 22 C 0 km/h
2368 18-06-2011 16:55:02 21.1 C 5.34 g/m*3 21.1 C 0 km/h
2369 18-06-2011 17:07:02 18.6 C 5.73 g/m*3 18.6 C 0 km/h
2370 18-06-2011 17:19:02 18.1 C 6.03 g/m*3 18.1 C 0 km/h
2371 18-06-2011 17:31:03 17.5 C 6.11 g/m*3 17.5 C 0 km/h
2372 18-06-2011 17:43:03 17.2 C 6.44 g/m*3 17.2 C 0 km/h
2373 18-06-2011 17:55:02 16.2 C 6.76 g/m*3 16.2 C 0 km/h
2374 18-06-2011 18:07:02 16.3 C 6.52 g/m*3 16.3 C 0 km/h
2375 18-06-2011 18:19:02 15.8 C 6.46 g/m*3 15.8 C 0 km/h
Sensor: Nr:Datum:Temp:Abs-Feuchte:Windchill:Wind:
Aussen-T/F 2376 18-06-2011 18:31:02 18.7 C 6.72 g/m*3 18.7 C 0 km/h
2377 18-06-2011 18:43:02 19.3 C 5.81 g/m*3 19.3 C 0 km/h
2378 18-06-2011 18:55:02 18.1 C 6.33 g/m*3 18.1 C 0 km/h
2379 18-06-2011 19:07:02 16.6 C 6.36 g/m*3 16.6 C 0 km/h
2380 18-06-2011 19:19:02 15.7 C 6.42 g/m*3 15.7 C 0 km/h
2381 18-06-2011 19:31:02 15.3 C 6.66 g/m*3 15.3 C 0 km/h
2382 18-06-2011 19:43:02 15.3 C 6.53 g/m*3 15.3 C 0 km/h
2383 18-06-2011 19:55:02 15.1 C 6.58 g/m*3 15.1 C 0 km/h
2384 18-06-2011 20:07:01 15.3 C 6.66 g/m*3 15.3 C 0 km/h
2385 18-06-2011 20:19:01 15.1 C 6.71 g/m*3 15.1 C 0 km/h
2386 18-06-2011 20:31:00 15 C 6.67 g/m*3 15 C 0 km/h
2387 18-06-2011 20:43:00 14.8 C 6.84 g/m*3 14.8 C 0 km/h
2388 18-06-2011 20:55:02 14.5 C 6.96 g/m*3 14.5 C 0 km/h
2389 18-06-2011 21:07:01 14 C 6.88 g/m*3 14 C 0 km/h
2390 18-06-2011 21:19:02 13.7 C 7.22 g/m*3 13.7 C 0 km/h
2391 18-06-2011 21:31:01 13.1 C 7.19 g/m*3 13.1 C 0 km/h
2392 18-06-2011 21:43:01 13 C 7.26 g/m*3 13 C 0 km/h
2393 18-06-2011 21:55:03 12.5 C 7.26 g/m*3 12.5 C 0 km/h
2394 18-06-2011 22:07:02 12.5 C 7.15 g/m*3 12.5 C 0 km/h
2395 18-06-2011 22:20:02 12.4 C 7.21 g/m*3 12.4 C 0 km/h
2396 18-06-2011 22:32:02 12.3 C 7.28 g/m*3 12.3 C 0 km/h
2397 18-06-2011 22:44:02 12.1 C 7.18 g/m*3 12.1 C 0 km/h
2398 18-06-2011 22:56:02 12.3 C 7.17 g/m*3 12.3 C 0 km/h
2399 18-06-2011 23:08:02 12.1 C 7.08 g/m*3 12.1 C 0 km/h
2400 18-06-2011 23:20:02 11.7 C 7.32 g/m*3 11.7 C 0 km/h
Sensor: Nr:Datum:Temp:Abs-Feuchte:Windchill:Wind:
Aussen-T/F 2401 18-06-2011 23:32:03 11.3 C 7.45 g/m*3 11.3 C 0 km/h
2402 18-06-2011 23:44:03 11.7 C 7.64 g/m*3 11.7 C 0 km/h
2403 18-06-2011 23:56:03 11.5 C 7.64 g/m*3 11.5 C 0 km/h
2404 19-06-2011 00:08:03 11.5 C 7.75 g/m*3 11.5 C 0 km/h
2405 19-06-2011 00:20:03 11.9 C 7.94 g/m*3 11.9 C 0 km/h
2406 19-06-2011 00:32:03 12.4 C 7.65 g/m*3 12.4 C 0 km/h
2407 19-06-2011 00:44:03 12.9 C 7.44 g/m*3 12.9 C 0 km/h
2408 19-06-2011 00:56:03 12.8 C 7.39 g/m*3 12.8 C 0 km/h
2409 19-06-2011 01:08:03 12.5 C 7.26 g/m*3 12.5 C 0 km/h
2410 19-06-2011 01:20:03 12.7 C 7.24 g/m*3 12.7 C 0 km/h
2411 19-06-2011 01:32:03 12.5 C 7.04 g/m*3 12.5 C 0 km/h
2412 19-06-2011 01:44:03 12.5 C 7.15 g/m*3 12.5 C 0 km/h
2413 19-06-2011 01:56:03 12.6 C 7.08 g/m*3 12.6 C 0 km/h
2414 19-06-2011 02:08:03 12.8 C 7.17 g/m*3 12.8 C 0 km/h
2415 19-06-2011 02:20:03 12.8 C 7.06 g/m*3 12.8 C 0 km/h
2416 19-06-2011 02:32:03 12.5 C 7.04 g/m*3 12.5 C 0 km/h
2417 19-06-2011 02:44:03 12.6 C 7.08 g/m*3 12.6 C 0 km/h
2418 19-06-2011 02:56:03 12.2 C 7.01 g/m*3 12.2 C 0 km/h
2419 19-06-2011 03:08:03 12 C 6.93 g/m*3 12 C 0 km/h
2420 19-06-2011 03:20:03 11.2 C 6.89 g/m*3 11.2 C 0 km/h
2421 19-06-2011 03:32:03 10.9 C 6.96 g/m*3 10.9 C 0 km/h
2422 19-06-2011 03:44:04 11.5 C 7.13 g/m*3 11.5 C 0 km/h
2423 19-06-2011 03:56:04 11.6 C 7.07 g/m*3 11.6 C 0 km/h
2424 19-06-2011 04:08:04 11.5 C 7.02 g/m*3 11.5 C 0 km/h
2425 19-06-2011 04:20:04 11.3 C 7.04 g/m*3 11.3 C 0 km/h
Sensor: Nr:Datum:Temp:Abs-Feuchte:Windchill:Wind:
Aussen-T/F 2426 19-06-2011 04:32:04 11.3 C 7.04 g/m*3 11.3 C 0 km/h
2427 19-06-2011 04:44:04 11.4 C 6.98 g/m*3 11.4 C 0 km/h
2428 19-06-2011 04:56:04 11.4 C 6.98 g/m*3 11.4 C 0 km/h
2429 19-06-2011 05:08:04 11.7 C 7.11 g/m*3 11.7 C 0 km/h
2430 19-06-2011 05:20:04 12 C 7.14 g/m*3 12 C 0 km/h
2431 19-06-2011 05:32:04 11.9 C 7.1 g/m*3 11.9 C 0 km/h
2432 19-06-2011 05:44:04 12 C 6.93 g/m*3 12 C 0 km/h
2433 19-06-2011 05:56:04 12.1 C 6.97 g/m*3 12.1 C 0 km/h
2434 19-06-2011 06:08:02 12.2 C 6.91 g/m*3 12.2 C 0 km/h
2435 19-06-2011 06:20:01 12.1 C 6.86 g/m*3 12.1 C 0 km/h
2436 19-06-2011 06:32:02 12.2 C 6.8 g/m*3 12.2 C 0 km/h
2437 19-06-2011 06:44:02 12.1 C 6.86 g/m*3 12.1 C 0 km/h
2438 19-06-2011 06:56:01 12.4 C 6.88 g/m*3 12.4 C 0 km/h
2439 19-06-2011 07:08:02 12.4 C 6.99 g/m*3 12.4 C 0 km/h
2440 19-06-2011 07:20:02 12.5 C 6.93 g/m*3 12.5 C 0 km/h
2441 19-06-2011 07:32:01 12.6 C 7.08 g/m*3 12.6 C 0 km/h
2442 19-06-2011 07:44:01 12.6 C 6.97 g/m*3 12.6 C 0 km/h
2443 19-06-2011 07:56:02 12.7 C 7.01 g/m*3 12.7 C 0 km/h
2444 19-06-2011 08:08:01 12.8 C 7.17 g/m*3 12.8 C 0 km/h
2445 19-06-2011 08:20:02 11.9 C 7.52 g/m*3 11.9 C 0 km/h
2446 19-06-2011 08:32:01 12.8 C 7.73 g/m*3 12.8 C 0 km/h
2447 19-06-2011 08:44:01 12.9 C 7.21 g/m*3 12.9 C 0 km/h
2448 19-06-2011 08:56:02 12.6 C 7.3 g/m*3 12.6 C 0 km/h
2449 19-06-2011 09:08:02 12.7 C 7.46 g/m*3 12.7 C 0 km/h
2450 19-06-2011 09:20:02 12.8 C 7.39 g/m*3 12.8 C 0 km/h
Sensor: Nr:Datum:Temp:Abs-Feuchte:Windchill:Wind:
Aussen-T/F 2451 19-06-2011 09:32:02 13.3 C 7.16 g/m*3 13.3 C 0 km/h
2452 19-06-2011 09:44:02 13.2 C 7.23 g/m*3 13.2 C 0 km/h
2453 19-06-2011 09:56:02 14.7 C 7.3 g/m*3 14.7 C 0 km/h
2454 19-06-2011 10:08:02 14.8 C 6.97 g/m*3 14.8 C 0 km/h
2455 19-06-2011 10:20:02 14.5 C 6.84 g/m*3 14.5 C 0 km/h
2456 19-06-2011 10:32:02 14.2 C 6.72 g/m*3 14.2 C 0 km/h
2457 19-06-2011 10:44:02 14.9 C 7.14 g/m*3 14.9 C 0 km/h
2458 19-06-2011 10:56:02 14.4 C 6.8 g/m*3 14.4 C 0 km/h
2459 19-06-2011 11:08:02 14.5 C 6.72 g/m*3 14.5 C 0 km/h
2460 19-06-2011 11:20:01 15.3 C 6.92 g/m*3 15.3 C 0 km/h
2461 19-06-2011 11:32:02 15.1 C 6.58 g/m*3 15.1 C 0 km/h
2462 19-06-2011 11:44:02 15.4 C 6.7 g/m*3 15.4 C 0 km/h
2463 19-06-2011 11:56:01 15.4 C 6.57 g/m*3 15.4 C 0 km/h
2464 19-06-2011 12:08:02 16.8 C 6.86 g/m*3 16.8 C 0 km/h
2465 19-06-2011 12:20:02 15.8 C 6.6 g/m*3 15.8 C 0 km/h
2466 19-06-2011 12:32:01 16.5 C 6.74 g/m*3 16.5 C 0 km/h
2467 19-06-2011 12:44:01 17 C 6.8 g/m*3 17 C 0 km/h
2468 19-06-2011 12:56:02 16.3 C 6.66 g/m*3 16.3 C 0 km/h
2469 19-06-2011 13:08:01 17.2 C 6.74 g/m*3 17.2 C 0 km/h
2470 19-06-2011 13:20:02 17 C 6.08 g/m*3 17 C 0 km/h
2471 19-06-2011 13:32:01 17.9 C 6.57 g/m*3 17.9 C 0 km/h
2472 19-06-2011 13:44:01 16.8 C 6.29 g/m*3 16.8 C 0 km/h
2473 19-06-2011 13:56:02 17.1 C 6.4 g/m*3 17.1 C 0 km/h
2474 19-06-2011 14:08:01 18 C 6.3 g/m*3 18 C 0 km/h
2475 19-06-2011 14:20:01 18 C 6.3 g/m*3 18 C 0 km/h
Sensor: Nr:Datum:Temp:Abs-Feuchte:Windchill:Wind:
Aussen-T/F 2476 19-06-2011 14:32:02 18 C 6.3 g/m*3 18 C 0 km/h
2477 19-06-2011 14:44:02 18 C 6.14 g/m*3 18 C 0 km/h
2478 19-06-2011 14:56:02 20.9 C 6.01 g/m*3 20.9 C 0 km/h
2479 19-06-2011 15:08:01 18.7 C 5.92 g/m*3 18.7 C 0 km/h
2480 19-06-2011 15:20:02 18.3 C 6.57 g/m*3 18.3 C 0 km/h
2481 19-06-2011 15:32:02 17.6 C 6.45 g/m*3 17.6 C 0 km/h
2482 19-06-2011 15:44:02 17.7 C 8.15 g/m*3 17.7 C 0 km/h
2483 19-06-2011 15:56:02 17.7 C 8 g/m*3 17.7 C 0 km/h
2484 19-06-2011 16:08:02 17.7 C 8 g/m*3 17.7 C 0 km/h
2485 19-06-2011 16:20:02 16.9 C 7.05 g/m*3 16.9 C 0 km/h
2486 19-06-2011 16:32:02 17.9 C 7.33 g/m*3 17.9 C 0 km/h
2487 19-06-2011 16:44:02 17.9 C 7.33 g/m*3 17.9 C 0 km/h
2488 19-06-2011 16:56:01 16.7 C 6.54 g/m*3 16.7 C 0 km/h
2489 19-06-2011 17:08:02 16 C 7.36 g/m*3 16 C 0 km/h
2490 19-06-2011 17:20:01 17.5 C 7.16 g/m*3 17.5 C 0 km/h
2491 19-06-2011 17:32:02 19.5 C 6.55 g/m*3 19.5 C 0 km/h
2492 19-06-2011 17:44:02 18.1 C 6.64 g/m*3 18.1 C 0 km/h
2493 19-06-2011 17:56:03 18.1 C 6.64 g/m*3 18.1 C 0 km/h
2494 19-06-2011 18:08:03 18.1 C 6.64 g/m*3 18.1 C 0 km/h
2495 19-06-2011 18:20:02 17.8 C 6.22 g/m*3 17.8 C 0 km/h
2496 19-06-2011 18:32:02 17.8 C 6.22 g/m*3 17.8 C 0 km/h
2497 19-06-2011 18:44:02 16.8 C 7.01 g/m*3 16.8 C 0 km/h
2498 19-06-2011 18:56:02 16.8 C 7.01 g/m*3 16.8 C 0 km/h
2499 19-06-2011 19:08:02 16.8 C 7.01 g/m*3 16.8 C 0 km/h
2500 19-06-2011 19:20:02 15.9 C 7.85 g/m*3 15.9 C 0 km/h
Sensor: Nr:Datum:Temp:Abs-Feuchte:Windchill:Wind:
Aussen-T/F 2501 19-06-2011 19:32:02 16 C 7.08 g/m*3 16 C 0 km/h
2502 19-06-2011 19:44:02 16 C 6.68 g/m*3 16 C 0 km/h
2503 19-06-2011 19:56:02 15.9 C 6.91 g/m*3 15.9 C 0 km/h
2504 19-06-2011 20:08:02 15.8 C 7 g/m*3 15.8 C 0 km/h
2505 19-06-2011 20:20:02 15.7 C 7.36 g/m*3 15.7 C 0 km/h
2506 19-06-2011 20:32:01 15.8 C 7.13 g/m*3 15.8 C 0 km/h
2507 19-06-2011 20:44:01 16 C 6.81 g/m*3 16 C 0 km/h
2508 19-06-2011 20:56:02 16 C 6.81 g/m*3 16 C 0 km/h
2509 19-06-2011 21:08:01 15.5 C 6.87 g/m*3 15.5 C 0 km/h
2510 19-06-2011 21:20:02 15 C 7.18 g/m*3 15 C 0 km/h
2511 19-06-2011 21:32:02 15 C 6.92 g/m*3 15 C 0 km/h
2512 19-06-2011 21:44:02 15 C 7.18 g/m*3 15 C 0 km/h
2513 19-06-2011 21:56:02 14.8 C 7.47 g/m*3 14.8 C 0 km/h
2514 19-06-2011 22:08:02 14.4 C 7.54 g/m*3 14.4 C 0 km/h
2515 19-06-2011 22:20:02 14.1 C 7.65 g/m*3 14.1 C 0 km/h
2516 19-06-2011 22:33:04 13.8 C 7.74 g/m*3 13.8 C 0 km/h
2517 19-06-2011 22:45:04 13.8 C 7.86 g/m*3 13.8 C 0 km/h
2518 19-06-2011 22:57:04 13.8 C 7.86 g/m*3 13.8 C 0 km/h
2519 19-06-2011 23:09:04 13.9 C 7.31 g/m*3 13.9 C 0 km/h
2520 19-06-2011 23:21:04 13.7 C 7.34 g/m*3 13.7 C 0 km/h
2521 19-06-2011 23:33:04 13.5 C 7.37 g/m*3 13.5 C 0 km/h
2522 19-06-2011 23:45:04 13.3 C 7.39 g/m*3 13.3 C 0 km/h
2523 19-06-2011 23:57:04 12.1 C 7.51 g/m*3 12.1 C 0 km/h
2524 20-06-2011 00:09:04 11.9 C 7.63 g/m*3 11.9 C 0 km/h
2525 20-06-2011 00:21:04 12 C 7.78 g/m*3 12 C 0 km/h
Sensor: Nr:Datum:Temp:Abs-Feuchte:Windchill:Wind:
Aussen-T/F 2526 20-06-2011 00:33:04 11.8 C 7.79 g/m*3 11.8 C 0 km/h
2527 20-06-2011 00:45:04 11.6 C 7.9 g/m*3 11.6 C 0 km/h
2528 20-06-2011 00:57:04 11.6 C 7.9 g/m*3 11.6 C 0 km/h
2529 20-06-2011 01:09:04 11.6 C 7.9 g/m*3 11.6 C 0 km/h
2530 20-06-2011 01:21:04 11.6 C 7.9 g/m*3 11.6 C 0 km/h
2531 20-06-2011 01:33:04 11.6 C 7.9 g/m*3 11.6 C 0 km/h
2532 20-06-2011 01:45:04 12.2 C 7.88 g/m*3 12.2 C 0 km/h
2533 20-06-2011 01:57:04 12.2 C 7.66 g/m*3 12.2 C 0 km/h
2534 20-06-2011 02:09:05 12.4 C 7.76 g/m*3 12.4 C 0 km/h
2535 20-06-2011 02:21:05 12.2 C 7.77 g/m*3 12.2 C 0 km/h
2536 20-06-2011 02:33:05 12.3 C 7.71 g/m*3 12.3 C 0 km/h
2537 20-06-2011 02:45:05 12.1 C 7.72 g/m*3 12.1 C 0 km/h
2538 20-06-2011 02:57:05 11.8 C 7.79 g/m*3 11.8 C 0 km/h
2539 20-06-2011 03:09:05 10.9 C 7.46 g/m*3 10.9 C 0 km/h
2540 20-06-2011 03:21:05 10.5 C 7.57 g/m*3 10.5 C 0 km/h
2541 20-06-2011 03:33:05 10 C 7.42 g/m*3 10 C 0 km/h
2542 20-06-2011 03:45:05 9.7 C 7.56 g/m*3 9.7 C 0 km/h
2543 20-06-2011 03:57:05 9.7 C 7.65 g/m*3 9.7 C 0 km/h
2544 20-06-2011 04:09:05 9.7 C 7.65 g/m*3 9.7 C 0 km/h
2545 20-06-2011 04:21:05 9.4 C 7.6 g/m*3 9.4 C 0 km/h
2546 20-06-2011 04:33:05 10 C 7.8 g/m*3 10 C 0 km/h
2547 20-06-2011 04:45:05 9.5 C 7.55 g/m*3 9.5 C 0 km/h
2548 20-06-2011 04:57:05 9.3 C 7.55 g/m*3 9.3 C 0 km/h
2549 20-06-2011 05:09:05 9 C 7.41 g/m*3 9 C 0 km/h
2550 20-06-2011 05:21:05 8.4 C 7.21 g/m*3 8.4 C 0 km/h
Sensor: Nr:Datum:Temp:Abs-Feuchte:Windchill:Wind:
Aussen-T/F 2551 20-06-2011 05:33:05 8.2 C 7.2 g/m*3 8.2 C 0 km/h
2552 20-06-2011 05:45:05 8.1 C 7.16 g/m*3 8.1 C 0 km/h
2553 20-06-2011 05:57:05 8.4 C 7.38 g/m*3 8.4 C 0 km/h
2554 20-06-2011 06:09:06 8.6 C 7.56 g/m*3 8.6 C 0 km/h
2555 20-06-2011 06:21:06 8.5 C 7.43 g/m*3 8.5 C 0 km/h
2556 20-06-2011 06:33:03 8.5 C 7.43 g/m*3 8.5 C 0 km/h
2557 20-06-2011 06:45:03 8.5 C 7.43 g/m*3 8.5 C 0 km/h
2558 20-06-2011 06:57:03 8.5 C 7.43 g/m*3 8.5 C 0 km/h
2559 20-06-2011 07:09:02 8.5 C 7.43 g/m*3 8.5 C 0 km/h
2560 20-06-2011 07:21:02 10.7 C 8.45 g/m*3 10.7 C 0 km/h
2561 20-06-2011 07:33:02 11.1 C 8.36 g/m*3 11.1 C 0 km/h
2562 20-06-2011 07:45:02 11.9 C 8.37 g/m*3 11.9 C 0 km/h
2563 20-06-2011 07:57:02 12.2 C 8.09 g/m*3 12.2 C 0 km/h
2564 20-06-2011 08:09:02 13.2 C 8.27 g/m*3 13.2 C 0 km/h
2565 20-06-2011 08:21:02 13.8 C 8.1 g/m*3 13.8 C 0 km/h
2566 20-06-2011 08:33:02 14.7 C 7.68 g/m*3 14.7 C 0 km/h
2567 20-06-2011 08:45:02 15.5 C 7.14 g/m*3 15.5 C 0 km/h
2568 20-06-2011 08:57:02 14.9 C 7.14 g/m*3 14.9 C 0 km/h
2569 20-06-2011 09:09:02 14.5 C 7.21 g/m*3 14.5 C 0 km/h
2570 20-06-2011 09:21:02 13.8 C 7.51 g/m*3 13.8 C 0 km/h
2571 20-06-2011 09:33:02 12.7 C 8.01 g/m*3 12.7 C 0 km/h
2572 20-06-2011 09:45:02 12.8 C 8.4 g/m*3 12.8 C 0 km/h
2573 20-06-2011 09:57:02 13 C 8.73 g/m*3 13 C 0 km/h
2574 20-06-2011 10:09:02 13.1 C 8.9 g/m*3 13.1 C 0 km/h
2575 20-06-2011 10:21:02 13.1 C 8.9 g/m*3 13.1 C 0 km/h
Sensor: Nr:Datum:Temp:Abs-Feuchte:Windchill:Wind:
Aussen-T/F 2576 20-06-2011 10:33:02 13.5 C 9.01 g/m*3 13.5 C 0 km/h
2577 20-06-2011 10:45:01 13.7 C 8.88 g/m*3 13.7 C 0 km/h
2578 20-06-2011 10:57:01 13.6 C 8.94 g/m*3 13.6 C 0 km/h
2579 20-06-2011 11:09:03 13.3 C 8.78 g/m*3 13.3 C 0 km/h
2580 20-06-2011 11:21:01 14.3 C 9.58 g/m*3 14.3 C 0 km/h
2581 20-06-2011 11:33:02 14.2 C 9.52 g/m*3 14.2 C 0 km/h
2582 20-06-2011 11:45:03 14.2 C 9.52 g/m*3 14.2 C 0 km/h
2583 20-06-2011 11:57:03 14.2 C 9.52 g/m*3 14.2 C 0 km/h
2584 20-06-2011 12:09:03 14.2 C 9.52 g/m*3 14.2 C 0 km/h
2585 20-06-2011 12:21:02 14.2 C 9.52 g/m*3 14.2 C 0 km/h
2586 20-06-2011 12:33:02 13.7 C 9.71 g/m*3 13.7 C 0 km/h
2587 20-06-2011 12:45:02 13.8 C 9.77 g/m*3 13.8 C 0 km/h
2588 20-06-2011 12:57:02 14.1 C 9.95 g/m*3 14.1 C 0 km/h
2589 20-06-2011 13:09:02 14.2 C 9.89 g/m*3 14.2 C 0 km/h
2590 20-06-2011 13:21:02 14.2 C 9.77 g/m*3 14.2 C 0 km/h
2591 20-06-2011 13:33:02 14.5 C 10.07 g/m*3 14.5 C 0 km/h
2592 20-06-2011 13:45:02 14.6 C 10.01 g/m*3 14.6 C 0 km/h
2593 20-06-2011 13:57:02 14.3 C 9.83 g/m*3 14.3 C 0 km/h
2594 20-06-2011 14:09:03 14.3 C 10.07 g/m*3 14.3 C 0 km/h
2595 20-06-2011 14:21:02 14.5 C 10.2 g/m*3 14.5 C 0 km/h
2596 20-06-2011 14:33:03 14.8 C 10.26 g/m*3 14.8 C 0 km/h
2597 20-06-2011 14:45:02 15 C 10.26 g/m*3 15 C 0 km/h
2598 20-06-2011 14:57:03 15.8 C 10.63 g/m*3 15.8 C 0 km/h
2599 20-06-2011 15:09:02 16.5 C 10.67 g/m*3 16.5 C 0 km/h
2600 20-06-2011 15:21:02 16.7 C 10.52 g/m*3 16.7 C 0 km/h
Sensor: Nr:Datum:Temp:Abs-Feuchte:Windchill:Wind:
Aussen-T/F 2601 20-06-2011 15:33:03 17.6 C 10.05 g/m*3 17.6 C 0 km/h
2602 20-06-2011 15:45:02 17.5 C 9.69 g/m*3 17.5 C 0 km/h
2603 20-06-2011 15:57:02 17.3 C 10.31 g/m*3 17.3 C 0 km/h
2604 20-06-2011 16:09:02 17.5 C 10.14 g/m*3 17.5 C 0 km/h
2605 20-06-2011 16:21:02 17.7 C 10.56 g/m*3 17.7 C 0 km/h
2606 20-06-2011 16:33:02 17.9 C 10.38 g/m*3 17.9 C 0 km/h
2607 20-06-2011 16:45:02 17.4 C 10.23 g/m*3 17.4 C 0 km/h
2608 20-06-2011 16:57:02 17.2 C 10.69 g/m*3 17.2 C 0 km/h
2609 20-06-2011 17:09:03 17.6 C 10.95 g/m*3 17.6 C 0 km/h
2610 20-06-2011 17:21:02 18.4 C 10.07 g/m*3 18.4 C 0 km/h
2611 20-06-2011 17:33:02 17.7 C 10.56 g/m*3 17.7 C 0 km/h
2612 20-06-2011 17:45:01 17.7 C 10.56 g/m*3 17.7 C 0 km/h
2613 20-06-2011 17:57:01 17.3 C 10.46 g/m*3 17.3 C 0 km/h
2614 20-06-2011 18:09:03 17.1 C 10.77 g/m*3 17.1 C 0 km/h
2615 20-06-2011 18:21:02 17 C 10.71 g/m*3 17 C 0 km/h
2616 20-06-2011 18:33:02 17.2 C 10.84 g/m*3 17.2 C 0 km/h
2617 20-06-2011 18:45:02 17.1 C 10.63 g/m*3 17.1 C 0 km/h
2618 20-06-2011 18:57:02 16.8 C 10.72 g/m*3 16.8 C 0 km/h
2619 20-06-2011 19:09:02 16.5 C 11.09 g/m*3 16.5 C 0 km/h
2620 20-06-2011 19:21:02 16.4 C 11.31 g/m*3 16.4 C 0 km/h
2621 20-06-2011 19:33:02 16.2 C 11.31 g/m*3 16.2 C 0 km/h
2622 20-06-2011 19:45:02 16.2 C 11.31 g/m*3 16.2 C 0 km/h
2623 20-06-2011 19:57:02 16.1 C 11.38 g/m*3 16.1 C 0 km/h
2624 20-06-2011 20:09:02 16.2 C 11.58 g/m*3 16.2 C 0 km/h
2625 20-06-2011 20:21:02 16.2 C 11.58 g/m*3 16.2 C 0 km/h
Sensor: Nr:Datum:Temp:Abs-Feuchte:Windchill:Wind:
Aussen-T/F 2626 20-06-2011 20:33:03 16 C 11.58 g/m*3 16 C 0 km/h
2627 20-06-2011 20:45:03 15.8 C 11.58 g/m*3 15.8 C 0 km/h
2628 20-06-2011 20:57:03 15.7 C 11.51 g/m*3 15.7 C 0 km/h
2629 20-06-2011 21:09:03 15.7 C 11.64 g/m*3 15.7 C 0 km/h
2630 20-06-2011 21:21:03 15.9 C 11.78 g/m*3 15.9 C 0 km/h
2631 20-06-2011 21:33:03 15.8 C 11.58 g/m*3 15.8 C 0 km/h
2632 20-06-2011 21:45:02 15.6 C 11.44 g/m*3 15.6 C 0 km/h
2633 20-06-2011 21:57:02 15.4 C 11.43 g/m*3 15.4 C 0 km/h
2634 20-06-2011 22:09:02 15.1 C 11.22 g/m*3 15.1 C 0 km/h
2635 20-06-2011 22:21:03 15 C 11.16 g/m*3 15 C 0 km/h
2636 20-06-2011 22:33:02 14.8 C 11.15 g/m*3 14.8 C 0 km/h
2637 20-06-2011 22:45:02 14.5 C 10.94 g/m*3 14.5 C 0 km/h
2638 20-06-2011 22:57:02 14.1 C 10.68 g/m*3 14.1 C 0 km/h
2639 20-06-2011 23:09:02 13.8 C 10.48 g/m*3 13.8 C 0 km/h
2640 20-06-2011 23:21:02 14.1 C 10.68 g/m*3 14.1 C 0 km/h
2641 20-06-2011 23:33:01 14.4 C 11 g/m*3 14.4 C 0 km/h
2642 20-06-2011 23:45:02 14.5 C 11.07 g/m*3 14.5 C 0 km/h
2643 20-06-2011 23:57:02 14.7 C 11.21 g/m*3 14.7 C 0 km/h
2644 21-06-2011 00:09:01 14.7 C 11.21 g/m*3 14.7 C 0 km/h
2645 21-06-2011 00:21:02 14.8 C 11.4 g/m*3 14.8 C 0 km/h
2646 21-06-2011 00:33:02 14.8 C 11.4 g/m*3 14.8 C 0 km/h
2647 21-06-2011 00:45:02 14.9 C 11.47 g/m*3 14.9 C 0 km/h
2648 21-06-2011 00:57:02 14.8 C 11.4 g/m*3 14.8 C 0 km/h
2649 21-06-2011 01:09:01 14.9 C 11.47 g/m*3 14.9 C 0 km/h
2650 21-06-2011 01:21:02 14.8 C 11.4 g/m*3 14.8 C 0 km/h
Sensor: Nr:Datum:Temp:Abs-Feuchte:Windchill:Wind:
Aussen-T/F 2651 21-06-2011 01:33:01 14.9 C 11.47 g/m*3 14.9 C 0 km/h
2652 21-06-2011 01:45:02 14.9 C 11.47 g/m*3 14.9 C 0 km/h
2653 21-06-2011 01:57:02 15 C 11.41 g/m*3 15 C 0 km/h
2654 21-06-2011 02:09:02 15 C 11.41 g/m*3 15 C 0 km/h
2655 21-06-2011 02:21:02 14.9 C 11.47 g/m*3 14.9 C 0 km/h
2656 21-06-2011 02:33:02 14.9 C 11.47 g/m*3 14.9 C 0 km/h
2657 21-06-2011 02:46:04 14.9 C 11.47 g/m*3 14.9 C 0 km/h
2658 21-06-2011 02:58:04 15 C 11.54 g/m*3 15 C 0 km/h
2659 21-06-2011 03:10:04 15 C 11.54 g/m*3 15 C 0 km/h
2660 21-06-2011 03:22:04 14.9 C 11.47 g/m*3 14.9 C 0 km/h
2661 21-06-2011 03:34:02 15.1 C 11.61 g/m*3 15.1 C 0 km/h
2662 21-06-2011 03:46:02 15.2 C 11.68 g/m*3 15.2 C 0 km/h
2663 21-06-2011 03:58:02 15.5 C 11.9 g/m*3 15.5 C 0 km/h
2664 21-06-2011 04:10:02 15.5 C 11.9 g/m*3 15.5 C 0 km/h
2665 21-06-2011 04:22:02 15.6 C 11.97 g/m*3 15.6 C 0 km/h
2666 21-06-2011 04:34:02 15.7 C 12.04 g/m*3 15.7 C 0 km/h
2667 21-06-2011 04:46:01 15.7 C 12.04 g/m*3 15.7 C 0 km/h
2668 21-06-2011 04:58:01 15.8 C 12.11 g/m*3 15.8 C 0 km/h
2669 21-06-2011 05:10:02 15.9 C 12.19 g/m*3 15.9 C 0 km/h
2670 21-06-2011 05:22:01 15.8 C 12.11 g/m*3 15.8 C 0 km/h
2671 21-06-2011 05:34:01 15.8 C 12.11 g/m*3 15.8 C 0 km/h
2672 21-06-2011 05:46:01 15.8 C 12.11 g/m*3 15.8 C 0 km/h
2673 21-06-2011 05:58:01 15.8 C 12.11 g/m*3 15.8 C 0 km/h
2674 21-06-2011 06:10:02 15.8 C 12.11 g/m*3 15.8 C 0 km/h
2675 21-06-2011 06:22:01 15.8 C 12.11 g/m*3 15.8 C 0 km/h
Sensor: Nr:Datum:Temp:Abs-Feuchte:Windchill:Wind:
Aussen-T/F 2676 21-06-2011 06:34:01 15.9 C 12.19 g/m*3 15.9 C 0 km/h
2677 21-06-2011 06:46:01 16 C 12.26 g/m*3 16 C 0 km/h
2678 21-06-2011 06:58:01 16.1 C 12.34 g/m*3 16.1 C 0 km/h
2679 21-06-2011 07:10:01 16.2 C 12.41 g/m*3 16.2 C 0 km/h
2680 21-06-2011 07:22:02 16.4 C 12.56 g/m*3 16.4 C 0 km/h
2681 21-06-2011 07:34:01 16.7 C 12.79 g/m*3 16.7 C 0 km/h
2682 21-06-2011 07:46:01 16.9 C 12.94 g/m*3 16.9 C 0 km/h
2683 21-06-2011 07:58:01 16.9 C 12.94 g/m*3 16.9 C 0 km/h
2684 21-06-2011 08:10:03 17.5 C 13.27 g/m*3 17.5 C 0 km/h
2685 21-06-2011 08:22:03 17.7 C 13.43 g/m*3 17.7 C 0 km/h
2686 21-06-2011 08:34:04 17.9 C 13.44 g/m*3 17.9 C 0 km/h
2687 21-06-2011 08:46:02 18.2 C 12.9 g/m*3 18.2 C 0 km/h
2688 21-06-2011 08:58:02 18.7 C 12.01 g/m*3 18.7 C 0 km/h
2689 21-06-2011 09:10:03 18.8 C 11.6 g/m*3 18.8 C 0 km/h
2690 21-06-2011 09:22:02 18.7 C 11.21 g/m*3 18.7 C 0 km/h
2691 21-06-2011 09:34:03 19 C 11.41 g/m*3 19 C 0 km/h
2692 21-06-2011 09:46:02 18.6 C 11.3 g/m*3 18.6 C 0 km/h
2693 21-06-2011 09:58:02 17.9 C 11.45 g/m*3 17.9 C 0 km/h
2694 21-06-2011 10:10:02 18 C 11.67 g/m*3 18 C 0 km/h
2695 21-06-2011 10:22:01 18.5 C 11.71 g/m*3 18.5 C 0 km/h
2696 21-06-2011 10:34:02 18.6 C 11.3 g/m*3 18.6 C 0 km/h
2697 21-06-2011 10:46:02 19 C 11.08 g/m*3 19 C 0 km/h
2698 21-06-2011 10:58:02 19 C 11.24 g/m*3 19 C 0 km/h
2699 21-06-2011 11:10:02 19.5 C 11.24 g/m*3 19.5 C 0 km/h
2700 21-06-2011 11:22:03 20 C 10.2 g/m*3 20 C 0 km/h
Sensor: Nr:Datum:Temp:Abs-Feuchte:Windchill:Wind:
Aussen-T/F 2701 21-06-2011 11:34:02 20.7 C 10.8 g/m*3 20.7 C 0 km/h
2702 21-06-2011 11:46:02 21 C 9.71 g/m*3 21 C 0 km/h
2703 21-06-2011 11:58:02 20.9 C 10.2 g/m*3 20.9 C 0 km/h
2704 21-06-2011 12:10:01 21.6 C 9.86 g/m*3 21.6 C 0 km/h
2705 21-06-2011 12:22:01 20 C 9.68 g/m*3 20 C 0 km/h
2706 21-06-2011 12:34:00 19.8 C 10.42 g/m*3 19.8 C 0 km/h
2707 21-06-2011 12:46:02 20.9 C 10.75 g/m*3 20.9 C 0 km/h
2708 21-06-2011 12:58:02 21.2 C 10.01 g/m*3 21.2 C 0 km/h
2709 21-06-2011 13:10:01 21.8 C 9.98 g/m*3 21.8 C 0 km/h
2710 21-06-2011 13:22:02 21.5 C 9.81 g/m*3 21.5 C 0 km/h
2711 21-06-2011 13:34:01 21.7 C 10.3 g/m*3 21.7 C 0 km/h
2712 21-06-2011 13:46:02 20.7 C 10.08 g/m*3 20.7 C 0 km/h
2713 21-06-2011 13:58:02 21.8 C 9.98 g/m*3 21.8 C 0 km/h
2714 21-06-2011 14:10:02 20.8 C 10.14 g/m*3 20.8 C 0 km/h
2715 21-06-2011 14:22:02 22.9 C 10.01 g/m*3 22.9 C 0 km/h
2716 21-06-2011 14:34:02 25.7 C 9.34 g/m*3 25.7 C 0 km/h
2717 21-06-2011 14:46:02 23.3 C 8.99 g/m*3 23.3 C 0 km/h
2718 21-06-2011 14:58:02 25 C 9.67 g/m*3 25 C 0 km/h
2719 21-06-2011 15:10:02 25.5 C 9.94 g/m*3 25.5 C 0 km/h
2720 21-06-2011 15:22:02 24.1 C 9.19 g/m*3 24.1 C 0 km/h
2721 21-06-2011 15:34:02 26.6 C 9.06 g/m*3 26.6 C 0 km/h
2722 21-06-2011 15:46:01 26.7 C 9.11 g/m*3 26.7 C 0 km/h
2723 21-06-2011 15:58:01 24.7 C 9.05 g/m*3 24.7 C 0 km/h
2724 21-06-2011 16:10:02 25.2 C 9.08 g/m*3 25.2 C 0 km/h
2725 21-06-2011 16:22:01 26.8 C 8.91 g/m*3 26.8 C 0 km/h
Sensor: Nr:Datum:Temp:Abs-Feuchte:Windchill:Wind:
Aussen-T/F 2726 21-06-2011 16:34:01 27 C 9.26 g/m*3 27 C 0 km/h
2727 21-06-2011 16:46:02 26.3 C 8.91 g/m*3 26.3 C 0 km/h
2728 21-06-2011 16:58:02 24 C 8.7 g/m*3 24 C 0 km/h
2729 21-06-2011 17:10:02 23.9 C 8.87 g/m*3 23.9 C 0 km/h
2730 21-06-2011 17:22:02 24.7 C 9.51 g/m*3 24.7 C 0 km/h
2731 21-06-2011 17:34:02 25.2 C 9.08 g/m*3 25.2 C 0 km/h
2732 21-06-2011 17:46:02 25.5 C 9 g/m*3 25.5 C 0 km/h
2733 21-06-2011 17:58:02 23.4 C 9.46 g/m*3 23.4 C 0 km/h
2734 21-06-2011 18:10:03 22.8 C 9.55 g/m*3 22.8 C 0 km/h
2735 21-06-2011 18:22:02 24.1 C 9.41 g/m*3 24.1 C 0 km/h
2736 21-06-2011 18:34:02 23.5 C 9.09 g/m*3 23.5 C 0 km/h
2737 21-06-2011 18:46:02 24.2 C 9.46 g/m*3 24.2 C 0 km/h
2738 21-06-2011 18:58:02 23.3 C 9.2 g/m*3 23.3 C 0 km/h
2739 21-06-2011 19:10:01 23.1 C 9.1 g/m*3 23.1 C 0 km/h
2740 21-06-2011 19:22:02 23.1 C 8.89 g/m*3 23.1 C 0 km/h
2741 21-06-2011 19:34:02 23.5 C 8.88 g/m*3 23.5 C 0 km/h
2742 21-06-2011 19:46:01 22.2 C 9.23 g/m*3 22.2 C 0 km/h
2743 21-06-2011 19:58:01 22 C 9.51 g/m*3 22 C 0 km/h
2744 21-06-2011 20:10:02 21.6 C 9.48 g/m*3 21.6 C 0 km/h
2745 21-06-2011 20:22:02 21.1 C 9.03 g/m*3 21.1 C 0 km/h
2746 21-06-2011 20:34:02 20.7 C 9.18 g/m*3 20.7 C 0 km/h
2747 21-06-2011 20:46:02 20.5 C 9.25 g/m*3 20.5 C 0 km/h
2748 21-06-2011 20:58:02 20.1 C 9.21 g/m*3 20.1 C 0 km/h
2749 21-06-2011 21:10:02 19.9 C 9.45 g/m*3 19.9 C 0 km/h
2750 21-06-2011 21:22:02 19.9 C 9.45 g/m*3 19.9 C 0 km/h
Sensor: Nr:Datum:Temp:Abs-Feuchte:Windchill:Wind:
Aussen-T/F 2751 21-06-2011 21:34:02 19.3 C 9.79 g/m*3 19.3 C 0 km/h
2752 21-06-2011 21:46:02 18.7 C 10.09 g/m*3 18.7 C 0 km/h
2753 21-06-2011 21:58:02 18.3 C 10.01 g/m*3 18.3 C 0 km/h
2754 21-06-2011 22:10:02 17.7 C 10.41 g/m*3 17.7 C 0 km/h
2755 21-06-2011 22:22:02 17.3 C 10.61 g/m*3 17.3 C 0 km/h
2756 21-06-2011 22:34:01 17.2 C 10.84 g/m*3 17.2 C 0 km/h
2757 21-06-2011 22:46:01 17.3 C 11.05 g/m*3 17.3 C 0 km/h
2758 21-06-2011 22:58:01 17.7 C 11.01 g/m*3 17.7 C 0 km/h
2759 21-06-2011 23:10:01 17.7 C 11.01 g/m*3 17.7 C 0 km/h
2760 21-06-2011 23:22:02 17.7 C 11.01 g/m*3 17.7 C 0 km/h
2761 21-06-2011 23:34:01 17.2 C 10.84 g/m*3 17.2 C 0 km/h
2762 21-06-2011 23:46:02 16.9 C 11.22 g/m*3 16.9 C 0 km/h
2763 21-06-2011 23:58:02 16.8 C 11.15 g/m*3 16.8 C 0 km/h
2764 22-06-2011 00:10:01 16.6 C 11.02 g/m*3 16.6 C 0 km/h
2765 22-06-2011 00:22:01 16 C 10.76 g/m*3 16 C 0 km/h
2766 22-06-2011 00:34:02 15.8 C 10.9 g/m*3 15.8 C 0 km/h
2767 22-06-2011 00:46:01 15.8 C 11.04 g/m*3 15.8 C 0 km/h
2768 22-06-2011 00:58:01 15.4 C 10.9 g/m*3 15.4 C 0 km/h
2769 22-06-2011 01:10:02 15.5 C 11.1 g/m*3 15.5 C 0 km/h
2770 22-06-2011 01:22:01 15.3 C 10.97 g/m*3 15.3 C 0 km/h
2771 22-06-2011 01:34:02 14.9 C 10.83 g/m*3 14.9 C 0 km/h
2772 22-06-2011 01:46:01 14.9 C 10.96 g/m*3 14.9 C 0 km/h
2773 22-06-2011 01:58:01 15.2 C 11.03 g/m*3 15.2 C 0 km/h
2774 22-06-2011 02:10:02 15.5 C 11.37 g/m*3 15.5 C 0 km/h
2775 22-06-2011 02:22:01 15.4 C 11.3 g/m*3 15.4 C 0 km/h
Sensor: Nr:Datum:Temp:Abs-Feuchte:Windchill:Wind:
Aussen-T/F 2776 22-06-2011 02:34:02 15.6 C 11.44 g/m*3 15.6 C 0 km/h
2777 22-06-2011 02:47:03 15.7 C 11.51 g/m*3 15.7 C 0 km/h
2778 22-06-2011 02:59:03 15.8 C 11.58 g/m*3 15.8 C 0 km/h
2779 22-06-2011 03:11:04 15.8 C 11.58 g/m*3 15.8 C 0 km/h
2780 22-06-2011 03:23:04 15.8 C 11.58 g/m*3 15.8 C 0 km/h
2781 22-06-2011 03:35:02 15.8 C 11.58 g/m*3 15.8 C 0 km/h
2782 22-06-2011 03:47:02 15.9 C 11.65 g/m*3 15.9 C 0 km/h
2783 22-06-2011 03:59:02 15.9 C 11.65 g/m*3 15.9 C 0 km/h
2784 22-06-2011 04:11:02 15.9 C 11.65 g/m*3 15.9 C 0 km/h
2785 22-06-2011 04:23:02 15.8 C 11.58 g/m*3 15.8 C 0 km/h
2786 22-06-2011 04:35:02 15.6 C 11.44 g/m*3 15.6 C 0 km/h
2787 22-06-2011 04:47:01 15.3 C 11.1 g/m*3 15.3 C 0 km/h
2788 22-06-2011 04:59:01 15.3 C 11.23 g/m*3 15.3 C 0 km/h
2789 22-06-2011 05:11:02 15.4 C 11.3 g/m*3 15.4 C 0 km/h
2790 22-06-2011 05:23:01 15.6 C 11.44 g/m*3 15.6 C 0 km/h
2791 22-06-2011 05:35:01 15.6 C 11.44 g/m*3 15.6 C 0 km/h
2792 22-06-2011 05:47:01 15.6 C 11.44 g/m*3 15.6 C 0 km/h
2793 22-06-2011 05:59:01 15.9 C 11.78 g/m*3 15.9 C 0 km/h
2794 22-06-2011 06:11:02 15.9 C 11.65 g/m*3 15.9 C 0 km/h
2795 22-06-2011 06:23:02 16.1 C 11.79 g/m*3 16.1 C 0 km/h
2796 22-06-2011 06:35:01 16.5 C 11.94 g/m*3 16.5 C 0 km/h
2797 22-06-2011 06:47:02 16.9 C 12.08 g/m*3 16.9 C 0 km/h
2798 22-06-2011 06:59:02 16.8 C 11.72 g/m*3 16.8 C 0 km/h
2799 22-06-2011 07:11:02 17.3 C 11.64 g/m*3 17.3 C 0 km/h
2800 22-06-2011 07:23:02 17.4 C 11.56 g/m*3 17.4 C 0 km/h
Sensor: Nr:Datum:Temp:Abs-Feuchte:Windchill:Wind:
Aussen-T/F 2801 22-06-2011 07:35:02 17.6 C 11.55 g/m*3 17.6 C 0 km/h
2802 22-06-2011 07:47:02 17.4 C 11.71 g/m*3 17.4 C 0 km/h
2803 22-06-2011 07:59:02 17.7 C 11.92 g/m*3 17.7 C 0 km/h
2804 22-06-2011 08:11:03 17.7 C 11.77 g/m*3 17.7 C 0 km/h
2805 22-06-2011 08:23:02 18 C 11.83 g/m*3 18 C 0 km/h
2806 22-06-2011 08:35:02 18.4 C 11.95 g/m*3 18.4 C 0 km/h
2807 22-06-2011 08:47:01 19.5 C 11.92 g/m*3 19.5 C 0 km/h
2808 22-06-2011 08:59:01 20 C 11.92 g/m*3 20 C 0 km/h
2809 22-06-2011 09:11:02 19.9 C 12.2 g/m*3 19.9 C 0 km/h
2810 22-06-2011 09:23:01 19.7 C 11.89 g/m*3 19.7 C 0 km/h
2811 22-06-2011 09:35:01 19.4 C 12.35 g/m*3 19.4 C 0 km/h
2812 22-06-2011 09:47:01 19.5 C 12.75 g/m*3 19.5 C 0 km/h
2813 22-06-2011 09:59:01 20.4 C 13.27 g/m*3 20.4 C 0 km/h
2814 22-06-2011 10:11:01 21.9 C 13.31 g/m*3 21.9 C 0 km/h
2815 22-06-2011 10:23:02 23.2 C 12.89 g/m*3 23.2 C 0 km/h
2816 22-06-2011 10:35:01 23.7 C 12.83 g/m*3 23.7 C 0 km/h
2817 22-06-2011 10:47:03 23.1 C 12.4 g/m*3 23.1 C 0 km/h
2818 22-06-2011 10:59:03 21.9 C 13.31 g/m*3 21.9 C 0 km/h
2819 22-06-2011 11:11:02 22.3 C 13.62 g/m*3 22.3 C 0 km/h
2820 22-06-2011 11:23:02 22.9 C 13.49 g/m*3 22.9 C 0 km/h
2821 22-06-2011 11:35:02 22.4 C 13.5 g/m*3 22.4 C 0 km/h
2822 22-06-2011 11:47:02 22.9 C 13.9 g/m*3 22.9 C 0 km/h
2823 22-06-2011 11:59:02 23.3 C 13.8 g/m*3 23.3 C 0 km/h
2824 22-06-2011 12:11:02 22.7 C 13.94 g/m*3 22.7 C 0 km/h
2825 22-06-2011 12:23:02 22.8 C 14.02 g/m*3 22.8 C 0 km/h
Sensor: Nr:Datum:Temp:Abs-Feuchte:Windchill:Wind:
Aussen-T/F 2826 22-06-2011 12:35:02 21.5 C 13.58 g/m*3 21.5 C 0 km/h
2827 22-06-2011 12:47:02 20.4 C 13.44 g/m*3 20.4 C 0 km/h
2828 22-06-2011 12:59:02 19.8 C 13.66 g/m*3 19.8 C 0 km/h
2829 22-06-2011 13:11:01 19.3 C 13.6 g/m*3 19.3 C 0 km/h
2830 22-06-2011 13:23:01 19.2 C 13.69 g/m*3 19.2 C 0 km/h
2831 22-06-2011 13:35:02 19 C 13.53 g/m*3 19 C 0 km/h
2832 22-06-2011 13:47:02 17.1 C 11.79 g/m*3 17.1 C 0 km/h
2833 22-06-2011 13:59:02 15.6 C 11.04 g/m*3 15.6 C 0 km/h
2834 22-06-2011 14:11:02 15.6 C 11.3 g/m*3 15.6 C 0 km/h
2835 22-06-2011 14:23:02 16.4 C 12 g/m*3 16.4 C 0 km/h
2836 22-06-2011 14:35:02 17.8 C 12.9 g/m*3 17.8 C 0 km/h
2837 22-06-2011 14:47:01 18.3 C 11.88 g/m*3 18.3 C 0 km/h
2838 22-06-2011 14:59:01 17.7 C 11.77 g/m*3 17.7 C 0 km/h
2839 22-06-2011 15:11:02 17.4 C 11.86 g/m*3 17.4 C 0 km/h
2840 22-06-2011 15:23:01 17.7 C 12.22 g/m*3 17.7 C 0 km/h
2841 22-06-2011 15:35:02 18.4 C 12.43 g/m*3 18.4 C 0 km/h
2842 22-06-2011 15:47:02 18.8 C 12.08 g/m*3 18.8 C 0 km/h
2843 22-06-2011 15:59:02 19.1 C 11.31 g/m*3 19.1 C 0 km/h
2844 22-06-2011 16:11:02 19.5 C 12.42 g/m*3 19.5 C 0 km/h
2845 22-06-2011 16:23:02 21.2 C 12.23 g/m*3 21.2 C 0 km/h
2846 22-06-2011 16:35:02 20.8 C 11.77 g/m*3 20.8 C 0 km/h
2847 22-06-2011 16:47:02 22.3 C 12.24 g/m*3 22.3 C 0 km/h
2848 22-06-2011 16:59:02 24.1 C 10.5 g/m*3 24.1 C 0 km/h
2849 22-06-2011 17:11:02 20.3 C 10.9 g/m*3 20.3 C 0 km/h
2850 22-06-2011 17:23:02 20.5 C 10.32 g/m*3 20.5 C 0 km/h
Sensor: Nr:Datum:Temp:Abs-Feuchte:Windchill:Wind:
Aussen-T/F 2851 22-06-2011 17:35:02 23.1 C 10.54 g/m*3 23.1 C 0 km/h
2852 22-06-2011 17:47:01 22.8 C 8.74 g/m*3 22.8 C 0 km/h
2853 22-06-2011 17:59:01 20.4 C 8.85 g/m*3 20.4 C 0 km/h
2854 22-06-2011 18:11:01 20.7 C 9.18 g/m*3 20.7 C 0 km/h
2855 22-06-2011 18:23:01 22.7 C 8.28 g/m*3 22.7 C 0 km/h
2856 22-06-2011 18:35:01 22.5 C 8.59 g/m*3 22.5 C 0 km/h
2857 22-06-2011 18:47:01 20.8 C 7.79 g/m*3 20.8 C 0 km/h
2858 22-06-2011 18:59:01 21.4 C 7.5 g/m*3 21.4 C 0 km/h
2859 22-06-2011 19:11:01 20 C 7.78 g/m*3 20 C 0 km/h
2860 22-06-2011 19:23:02 20.7 C 7.38 g/m*3 20.7 C 0 km/h
2861 22-06-2011 19:35:01 21 C 6.78 g/m*3 21 C 0 km/h
2862 22-06-2011 19:47:03 19.7 C 7.3 g/m*3 19.7 C 0 km/h
2863 22-06-2011 19:59:03 19.3 C 6.97 g/m*3 19.3 C 0 km/h
2864 22-06-2011 20:11:02 18.2 C 7.46 g/m*3 18.2 C 0 km/h
2865 22-06-2011 20:23:03 18 C 7.22 g/m*3 18 C 0 km/h
2866 22-06-2011 20:35:02 17.7 C 7.54 g/m*3 17.7 C 0 km/h
2867 22-06-2011 20:47:02 17.4 C 7.71 g/m*3 17.4 C 0 km/h
2868 22-06-2011 20:59:02 16.9 C 7.91 g/m*3 16.9 C 0 km/h
2869 22-06-2011 21:17:02 16.9 C 8.34 g/m*3 16.9 C 0 km/h
2870 22-06-2011 21:29:02 17 C 7.67 g/m*3 17 C 0 km/h
2871 22-06-2011 21:41:02 16.5 C 8 g/m*3 16.5 C 0 km/h
2872 22-06-2011 21:53:02 15.5 C 8.2 g/m*3 15.5 C 0 km/h
2873 22-06-2011 22:05:02 14.7 C 8.69 g/m*3 14.7 C 0 km/h
2874 22-06-2011 22:17:02 14.2 C 8.67 g/m*3 14.2 C 0 km/h
2875 22-06-2011 22:29:02 14.1 C 8.74 g/m*3 14.1 C 0 km/h
Sensor: Nr:Datum:Temp:Abs-Feuchte:Windchill:Wind:
Aussen-T/F 2876 22-06-2011 22:41:03 13.5 C 8.89 g/m*3 13.5 C 0 km/h
2877 22-06-2011 22:53:03 13.1 C 8.9 g/m*3 13.1 C 0 km/h
2878 22-06-2011 23:05:03 13 C 9.07 g/m*3 13 C 0 km/h
2879 22-06-2011 23:17:03 12.8 C 9.18 g/m*3 12.8 C 0 km/h
2880 22-06-2011 23:29:03 13 C 9.19 g/m*3 13 C 0 km/h
2881 22-06-2011 23:41:03 13 C 9.3 g/m*3 13 C 0 km/h
2882 22-06-2011 23:53:03 13.1 C 9.24 g/m*3 13.1 C 0 km/h
2883 23-06-2011 00:05:03 13.1 C 9.24 g/m*3 13.1 C 0 km/h
2884 23-06-2011 00:17:03 13 C 9.19 g/m*3 13 C 0 km/h
2885 23-06-2011 00:29:03 12.8 C 9.07 g/m*3 12.8 C 0 km/h
2886 23-06-2011 00:41:03 12.4 C 8.96 g/m*3 12.4 C 0 km/h
2887 23-06-2011 00:53:03 12.1 C 8.9 g/m*3 12.1 C 0 km/h
2888 23-06-2011 01:05:03 11.8 C 8.84 g/m*3 11.8 C 0 km/h
2889 23-06-2011 01:17:03 11.6 C 8.73 g/m*3 11.6 C 0 km/h
2890 23-06-2011 01:29:03 11.3 C 8.57 g/m*3 11.3 C 0 km/h
2891 23-06-2011 01:41:03 11.2 C 8.51 g/m*3 11.2 C 0 km/h
2892 23-06-2011 01:53:03 11.5 C 8.88 g/m*3 11.5 C 0 km/h
2893 23-06-2011 02:05:03 11.6 C 8.94 g/m*3 11.6 C 0 km/h
2894 23-06-2011 02:17:03 11.2 C 8.72 g/m*3 11.2 C 0 km/h
2895 23-06-2011 02:29:03 11.3 C 8.77 g/m*3 11.3 C 0 km/h
2896 23-06-2011 02:41:03 11.3 C 8.87 g/m*3 11.3 C 0 km/h
2897 23-06-2011 02:53:04 11 C 8.71 g/m*3 11 C 0 km/h
2898 23-06-2011 03:05:04 10.8 C 8.6 g/m*3 10.8 C 0 km/h
2899 23-06-2011 03:17:04 10.4 C 8.38 g/m*3 10.4 C 0 km/h
2900 23-06-2011 03:29:04 10.3 C 8.33 g/m*3 10.3 C 0 km/h
Sensor: Nr:Datum:Temp:Abs-Feuchte:Windchill:Wind:
Aussen-T/F 2901 23-06-2011 03:41:04 10.6 C 8.59 g/m*3 10.6 C 0 km/h
2902 23-06-2011 03:53:04 10.5 C 8.53 g/m*3 10.5 C 0 km/h
2903 23-06-2011 04:05:04 10.4 C 8.48 g/m*3 10.4 C 0 km/h
2904 23-06-2011 04:17:04 10.4 C 8.48 g/m*3 10.4 C 0 km/h
2905 23-06-2011 04:29:04 10.4 C 8.48 g/m*3 10.4 C 0 km/h
2906 23-06-2011 04:41:04 10.3 C 8.52 g/m*3 10.3 C 0 km/h
2907 23-06-2011 04:53:04 10.5 C 8.63 g/m*3 10.5 C 0 km/h
2908 23-06-2011 05:05:04 10.5 C 8.63 g/m*3 10.5 C 0 km/h
2909 23-06-2011 05:17:04 10.7 C 8.74 g/m*3 10.7 C 0 km/h
2910 23-06-2011 05:29:04 11 C 8.91 g/m*3 11 C 0 km/h
2911 23-06-2011 05:41:04 11.2 C 9.02 g/m*3 11.2 C 0 km/h
2912 23-06-2011 05:53:04 11.1 C 8.96 g/m*3 11.1 C 0 km/h
2913 23-06-2011 06:05:04 11.2 C 9.02 g/m*3 11.2 C 0 km/h
2914 23-06-2011 06:17:04 11.3 C 9.08 g/m*3 11.3 C 0 km/h
2915 23-06-2011 06:29:04 11.4 C 9.14 g/m*3 11.4 C 0 km/h
2916 23-06-2011 06:41:04 11.7 C 9.31 g/m*3 11.7 C 0 km/h
2917 23-06-2011 06:53:05 11.9 C 9.43 g/m*3 11.9 C 0 km/h
2918 23-06-2011 07:05:05 12.2 C 9.5 g/m*3 12.2 C 0 km/h
2919 23-06-2011 07:17:05 12.4 C 9.51 g/m*3 12.4 C 0 km/h
2920 23-06-2011 07:29:05 13.1 C 9.59 g/m*3 13.1 C 0 km/h
2921 23-06-2011 07:41:05 13 C 9.3 g/m*3 13 C 0 km/h
2922 23-06-2011 07:53:05 14 C 9.41 g/m*3 14 C 0 km/h
2923 23-06-2011 08:05:05 14.7 C 9.19 g/m*3 14.7 C 0 km/h
2924 23-06-2011 08:17:05 15.4 C 8.67 g/m*3 15.4 C 0 km/h
2925 23-06-2011 08:29:05 15.6 C 8.64 g/m*3 15.6 C 0 km/h
Sensor: Nr:Datum:Temp:Abs-Feuchte:Windchill:Wind:
Aussen-T/F 2926 23-06-2011 08:41:05 16.1 C 8.22 g/m*3 16.1 C 0 km/h
2927 23-06-2011 08:53:05 16.3 C 8.32 g/m*3 16.3 C 0 km/h
2928 23-06-2011 09:05:05 16.6 C 8.19 g/m*3 16.6 C 0 km/h
2929 23-06-2011 09:17:05 16.9 C 8.34 g/m*3 16.9 C 0 km/h
2930 23-06-2011 09:29:05 17.3 C 8.1 g/m*3 17.3 C 0 km/h
2931 23-06-2011 09:41:05 17.5 C 8.05 g/m*3 17.5 C 0 km/h
2932 23-06-2011 09:53:05 17.7 C 7.69 g/m*3 17.7 C 0 km/h
2933 23-06-2011 10:05:05 18 C 7.68 g/m*3 18 C 0 km/h
2934 23-06-2011 10:17:05 18.2 C 7.46 g/m*3 18.2 C 0 km/h
2935 23-06-2011 10:29:05 18.8 C 7.57 g/m*3 18.8 C 0 km/h
2936 23-06-2011 10:41:05 19.1 C 7.7 g/m*3 19.1 C 0 km/h
2937 23-06-2011 10:53:05 19 C 7.33 g/m*3 19 C 0 km/h
2938 23-06-2011 11:05:06 20 C 7.43 g/m*3 20 C 0 km/h
2939 23-06-2011 11:17:06 18.6 C 7.48 g/m*3 18.6 C 0 km/h
2940 23-06-2011 11:29:06 19 C 7.33 g/m*3 19 C 0 km/h
2941 23-06-2011 11:41:06 19.5 C 7.55 g/m*3 19.5 C 0 km/h
2942 23-06-2011 11:53:06 19 C 7.5 g/m*3 19 C 0 km/h
2943 23-06-2011 12:05:06 18.9 C 7.45 g/m*3 18.9 C 0 km/h
2944 23-06-2011 12:17:06 18.6 C 7.96 g/m*3 18.6 C 0 km/h
2945 23-06-2011 12:29:06 19.2 C 7.59 g/m*3 19.2 C 0 km/h
2946 23-06-2011 12:41:06 19.4 C 7.84 g/m*3 19.4 C 0 km/h
2947 23-06-2011 12:53:06 19.7 C 7.98 g/m*3 19.7 C 0 km/h
2948 23-06-2011 13:05:06 19.1 C 7.87 g/m*3 19.1 C 0 km/h
2949 23-06-2011 13:17:06 16.9 C 9.35 g/m*3 16.9 C 0 km/h
2950 23-06-2011 13:29:06 18.6 C 9.23 g/m*3 18.6 C 0 km/h
Sensor: Nr:Datum:Temp:Abs-Feuchte:Windchill:Wind:
Aussen-T/F 2951 23-06-2011 13:41:06 19.7 C 7.98 g/m*3 19.7 C 0 km/h
2952 23-06-2011 13:53:06 20.8 C 6.88 g/m*3 20.8 C 0 km/h
2953 23-06-2011 14:05:06 21.5 C 6.98 g/m*3 21.5 C 0 km/h
2954 23-06-2011 14:17:06 20.6 C 6.98 g/m*3 20.6 C 0 km/h
2955 23-06-2011 14:29:06 21.4 C 6.94 g/m*3 21.4 C 0 km/h
2956 23-06-2011 14:41:06 20 C 6.91 g/m*3 20 C 0 km/h
2957 23-06-2011 14:53:06 20.7 C 7.38 g/m*3 20.7 C 0 km/h
2958 23-06-2011 15:05:07 21.7 C 7.25 g/m*3 21.7 C 0 km/h
2959 23-06-2011 15:17:07 20.2 C 6.99 g/m*3 20.2 C 0 km/h
2960 23-06-2011 15:29:07 19.3 C 6.97 g/m*3 19.3 C 0 km/h
2961 23-06-2011 15:41:07 17.7 C 6.64 g/m*3 17.7 C 0 km/h
2962 23-06-2011 15:53:07 17.1 C 7.28 g/m*3 17.1 C 0 km/h
2963 23-06-2011 16:05:07 19.7 C 7.47 g/m*3 19.7 C 0 km/h
2964 23-06-2011 16:17:07 21.5 C 7.17 g/m*3 21.5 C 0 km/h
2965 23-06-2011 16:29:07 22.3 C 6.71 g/m*3 22.3 C 0 km/h
2966 23-06-2011 16:41:07 20.2 C 6.64 g/m*3 20.2 C 0 km/h
2967 23-06-2011 16:53:07 19.7 C 6.45 g/m*3 19.7 C 0 km/h
2968 23-06-2011 17:05:07 22 C 6.02 g/m*3 22 C 0 km/h
2969 23-06-2011 17:17:07 21.9 C 6.37 g/m*3 21.9 C 0 km/h
2970 23-06-2011 17:29:07 21.7 C 5.91 g/m*3 21.7 C 0 km/h
2971 23-06-2011 17:41:07 22.2 C 5.3 g/m*3 22.2 C 0 km/h
2972 23-06-2011 17:53:07 24.2 C 5.5 g/m*3 24.2 C 0 km/h
2973 23-06-2011 18:05:07 25.1 C 4.86 g/m*3 25.1 C 0 km/h
2974 23-06-2011 18:17:07 21.8 C 5.56 g/m*3 21.8 C 0 km/h
2975 23-06-2011 18:29:07 22.5 C 5.59 g/m*3 22.5 C 0 km/h
Sensor: Nr:Datum:Temp:Abs-Feuchte:Windchill:Wind:
Aussen-T/F 2976 23-06-2011 18:41:07 21.2 C 5.93 g/m*3 21.2 C 0 km/h
2977 23-06-2011 18:53:07 24.1 C 5.47 g/m*3 24.1 C 0 km/h
2978 23-06-2011 19:05:08 23.2 C 4.78 g/m*3 23.2 C 0 km/h
2979 23-06-2011 19:17:08 21.1 C 5.34 g/m*3 21.1 C 0 km/h
2980 23-06-2011 19:29:08 23.6 C 4.68 g/m*3 23.6 C 0 km/h
2981 23-06-2011 19:41:08 22.2 C 4.91 g/m*3 22.2 C 0 km/h
2982 23-06-2011 19:53:08 20.6 C 5.19 g/m*3 20.6 C 0 km/h
2983 23-06-2011 20:05:08 19.4 C 5.34 g/m*3 19.4 C 0 km/h
2984 23-06-2011 20:17:08 19 C 5.54 g/m*3 19 C 0 km/h
2985 23-06-2011 20:29:08 17.8 C 6.37 g/m*3 17.8 C 0 km/h
2986 23-06-2011 20:41:08 16.9 C 6.62 g/m*3 16.9 C 0 km/h
2987 23-06-2011 20:53:08 16.6 C 6.64 g/m*3 16.6 C 0 km/h
2988 23-06-2011 21:05:08 16 C 6.54 g/m*3 16 C 0 km/h
2989 23-06-2011 21:17:08 15.8 C 6.87 g/m*3 15.8 C 0 km/h
2990 23-06-2011 21:29:08 15.3 C 7.31 g/m*3 15.3 C 0 km/h
2991 23-06-2011 21:41:08 15 C 7.05 g/m*3 15 C 0 km/h
2992 23-06-2011 21:53:08 14.8 C 7.35 g/m*3 14.8 C 0 km/h
2993 23-06-2011 22:05:08 14.4 C 7.54 g/m*3 14.4 C 0 km/h
2994 23-06-2011 22:17:08 14.4 C 7.54 g/m*3 14.4 C 0 km/h
2995 23-06-2011 22:29:08 14.2 C 7.57 g/m*3 14.2 C 0 km/h
2996 23-06-2011 22:41:08 14.1 C 7.89 g/m*3 14.1 C 0 km/h
2997 23-06-2011 22:53:08 13.6 C 7.89 g/m*3 13.6 C 0 km/h
2998 23-06-2011 23:05:08 13.6 C 8 g/m*3 13.6 C 0 km/h
2999 23-06-2011 23:17:09 13.8 C 7.98 g/m*3 13.8 C 0 km/h
3000 23-06-2011 23:29:09 14.7 C 7.05 g/m*3 14.7 C 0 km/h
Sensor: Nr:Datum:Temp:Abs-Feuchte:Windchill:Wind:
Aussen-T/F 3001 23-06-2011 23:41:09 14.5 C 6.96 g/m*3 14.5 C 0 km/h
3002 23-06-2011 23:53:09 14.2 C 7.33 g/m*3 14.2 C 0 km/h
3003 24-06-2011 00:05:09 13.9 C 7.43 g/m*3 13.9 C 0 km/h
3004 24-06-2011 00:17:09 13.5 C 7.49 g/m*3 13.5 C 0 km/h
3005 24-06-2011 00:29:09 13.3 C 7.74 g/m*3 13.3 C 0 km/h
3006 24-06-2011 00:41:09 13 C 7.71 g/m*3 13 C 0 km/h
3007 24-06-2011 00:53:09 13 C 7.83 g/m*3 13 C 0 km/h
3008 24-06-2011 01:05:09 12.6 C 7.74 g/m*3 12.6 C 0 km/h
3009 24-06-2011 01:17:09 12.4 C 7.87 g/m*3 12.4 C 0 km/h
3010 24-06-2011 01:29:09 12.2 C 7.66 g/m*3 12.2 C 0 km/h
3011 24-06-2011 01:41:09 12 C 7.67 g/m*3 12 C 0 km/h
3012 24-06-2011 01:53:09 11.7 C 7.64 g/m*3 11.7 C 0 km/h
3013 24-06-2011 02:05:09 11.5 C 7.64 g/m*3 11.5 C 0 km/h
3014 24-06-2011 02:17:09 11.2 C 7.6 g/m*3 11.2 C 0 km/h
3015 24-06-2011 02:29:09 11.2 C 7.6 g/m*3 11.2 C 0 km/h
3016 24-06-2011 02:41:09 11.4 C 7.6 g/m*3 11.4 C 0 km/h
3017 24-06-2011 02:53:09 10.9 C 7.56 g/m*3 10.9 C 0 km/h
3018 24-06-2011 03:05:09 10.5 C 7.47 g/m*3 10.5 C 0 km/h
3019 24-06-2011 03:17:10 10.4 C 7.61 g/m*3 10.4 C 0 km/h
3020 24-06-2011 03:29:10 10 C 7.42 g/m*3 10 C 0 km/h
3021 24-06-2011 03:41:10 9.2 C 7.23 g/m*3 9.2 C 0 km/h
3022 24-06-2011 03:53:10 8.8 C 7.22 g/m*3 8.8 C 0 km/h
3023 24-06-2011 04:05:10 8.9 C 7.45 g/m*3 8.9 C 0 km/h
3024 24-06-2011 04:17:10 9.6 C 7.79 g/m*3 9.6 C 0 km/h
3025 24-06-2011 04:29:10 10.4 C 7.81 g/m*3 10.4 C 0 km/h
Sensor: Nr:Datum:Temp:Abs-Feuchte:Windchill:Wind:
Aussen-T/F 3026 24-06-2011 04:41:10 10.6 C 7.61 g/m*3 10.6 C 0 km/h
3027 24-06-2011 04:53:10 11 C 7.31 g/m*3 11 C 0 km/h
3028 24-06-2011 05:05:10 11.1 C 7.05 g/m*3 11.1 C 0 km/h
3029 24-06-2011 05:17:10 11.4 C 6.88 g/m*3 11.4 C 0 km/h
3030 24-06-2011 05:29:10 10.8 C 7.12 g/m*3 10.8 C 0 km/h
3031 24-06-2011 05:41:10 10.8 C 7.22 g/m*3 10.8 C 0 km/h
3032 24-06-2011 05:53:10 10.8 C 7.22 g/m*3 10.8 C 0 km/h
3033 24-06-2011 06:05:10 11 C 6.91 g/m*3 11 C 0 km/h
3034 24-06-2011 06:17:10 11.2 C 6.49 g/m*3 11.2 C 0 km/h
3035 24-06-2011 06:29:10 11.2 C 6.49 g/m*3 11.2 C 0 km/h
3036 24-06-2011 06:41:10 11.5 C 6.4 g/m*3 11.5 C 0 km/h
3037 24-06-2011 06:53:10 11.5 C 6.4 g/m*3 11.5 C 0 km/h
3038 24-06-2011 07:05:10 11.7 C 6.48 g/m*3 11.7 C 0 km/h
3039 24-06-2011 07:17:11 12 C 6.61 g/m*3 12 C 0 km/h
3040 24-06-2011 07:29:11 12 C 6.61 g/m*3 12 C 0 km/h
3041 24-06-2011 07:41:11 12 C 6.5 g/m*3 12 C 0 km/h
3042 24-06-2011 07:53:11 12 C 6.5 g/m*3 12 C 0 km/h
3043 24-06-2011 08:05:11 12 C 6.5 g/m*3 12 C 0 km/h
3044 24-06-2011 08:17:11 12.5 C 6.6 g/m*3 12.5 C 0 km/h
3045 24-06-2011 08:29:11 12.5 C 6.6 g/m*3 12.5 C 0 km/h
3046 24-06-2011 08:41:11 12.2 C 6.58 g/m*3 12.2 C 0 km/h
3047 24-06-2011 08:53:11 12.6 C 6.75 g/m*3 12.6 C 0 km/h
3048 24-06-2011 09:05:11 12.6 C 6.75 g/m*3 12.6 C 0 km/h
3049 24-06-2011 09:17:11 12.4 C 6.66 g/m*3 12.4 C 0 km/h
3050 24-06-2011 09:29:11 12.5 C 6.71 g/m*3 12.5 C 0 km/h
Sensor: Nr:Datum:Temp:Abs-Feuchte:Windchill:Wind:
Aussen-T/F 3051 24-06-2011 09:41:11 13.1 C 6.73 g/m*3 13.1 C 0 km/h
3052 24-06-2011 09:53:11 13.7 C 6.99 g/m*3 13.7 C 0 km/h
3053 24-06-2011 10:05:11 13.9 C 6.95 g/m*3 13.9 C 0 km/h
3054 24-06-2011 10:17:11 13.9 C 6.83 g/m*3 13.9 C 0 km/h
3055 24-06-2011 10:29:11 14.1 C 6.67 g/m*3 14.1 C 0 km/h
3056 24-06-2011 10:41:11 14.1 C 6.67 g/m*3 14.1 C 0 km/h
3057 24-06-2011 10:53:11 15.5 C 6.87 g/m*3 15.5 C 0 km/h
3058 24-06-2011 11:05:11 15.2 C 6.75 g/m*3 15.2 C 0 km/h
3059 24-06-2011 11:17:11 16.6 C 7.06 g/m*3 16.6 C 0 km/h
3060 24-06-2011 11:29:12 16.4 C 6.56 g/m*3 16.4 C 0 km/h
3061 24-06-2011 11:41:12 16.5 C 7.02 g/m*3 16.5 C 0 km/h
3062 24-06-2011 11:53:12 17 C 6.66 g/m*3 17 C 0 km/h
3063 24-06-2011 12:05:12 16.3 C 6.8 g/m*3 16.3 C 0 km/h
3064 24-06-2011 12:17:12 17.3 C 6.78 g/m*3 17.3 C 0 km/h
3065 24-06-2011 12:29:12 16.6 C 6.64 g/m*3 16.6 C 0 km/h
3066 24-06-2011 12:41:12 16.8 C 6.43 g/m*3 16.8 C 0 km/h
3067 24-06-2011 12:53:12 16.5 C 5.9 g/m*3 16.5 C 0 km/h
3068 24-06-2011 13:05:12 17 C 5.79 g/m*3 17 C 0 km/h
3069 24-06-2011 13:17:12 17.7 C 6.19 g/m*3 17.7 C 0 km/h
3070 24-06-2011 13:29:12 17.1 C 6.26 g/m*3 17.1 C 0 km/h
3071 24-06-2011 13:41:12 19.5 C 6.21 g/m*3 19.5 C 0 km/h
3072 24-06-2011 13:53:12 20 C 5.88 g/m*3 20 C 0 km/h
3073 24-06-2011 14:05:12 19 C 6.03 g/m*3 19 C 0 km/h
3074 24-06-2011 14:17:12 21.4 C 6.56 g/m*3 21.4 C 0 km/h
3075 24-06-2011 14:29:12 24.6 C 5.63 g/m*3 24.6 C 0 km/h
Sensor: Nr:Datum:Temp:Abs-Feuchte:Windchill:Wind:
Aussen-T/F 3076 24-06-2011 14:41:12 23.4 C 5.26 g/m*3 23.4 C 0 km/h
3077 24-06-2011 14:53:12 18.3 C 5.94 g/m*3 18.3 C 0 km/h
3078 24-06-2011 15:05:12 19.6 C 5.57 g/m*3 19.6 C 0 km/h
3079 24-06-2011 15:17:12 17.4 C 5.78 g/m*3 17.4 C 0 km/h
3080 24-06-2011 15:29:13 18 C 5.38 g/m*3 18 C 0 km/h
3081 24-06-2011 15:41:13 19.9 C 5.84 g/m*3 19.9 C 0 km/h
3082 24-06-2011 15:53:13 17.8 C 6.22 g/m*3 17.8 C 0 km/h
3083 24-06-2011 16:05:13 16.5 C 6.18 g/m*3 16.5 C 0 km/h
3084 24-06-2011 16:17:13 15.4 C 6.57 g/m*3 15.4 C 0 km/h
3085 24-06-2011 16:29:13 20.5 C 9.07 g/m*3 20.5 C 0 km/h
3086 24-06-2011 16:41:13 22.6 C 6.23 g/m*3 22.6 C 0 km/h
3087 24-06-2011 16:53:13 23.1 C 5.58 g/m*3 23.1 C 0 km/h
3088 24-06-2011 17:05:13 17.7 C 5.43 g/m*3 17.7 C 0 km/h
3089 24-06-2011 17:17:13 18.2 C 5.6 g/m*3 18.2 C 0 km/h
3090 24-06-2011 17:29:13 17.2 C 5.86 g/m*3 17.2 C 0 km/h
3091 24-06-2011 17:41:13 17.3 C 6.04 g/m*3 17.3 C 0 km/h
3092 24-06-2011 17:53:13 18 C 6.3 g/m*3 18 C 0 km/h
3093 24-06-2011 18:05:13 18.6 C 5.89 g/m*3 18.6 C 0 km/h
3094 24-06-2011 18:17:13 17.1 C 5.68 g/m*3 17.1 C 0 km/h
3095 24-06-2011 18:29:13 16.6 C 5.65 g/m*3 16.6 C 0 km/h
3096 24-06-2011 18:41:13 16.1 C 5.62 g/m*3 16.1 C 0 km/h
3097 24-06-2011 18:53:13 15.9 C 5.82 g/m*3 15.9 C 0 km/h
3098 24-06-2011 19:05:13 15.4 C 6.83 g/m*3 15.4 C 0 km/h
3099 24-06-2011 19:17:13 15.4 C 7.23 g/m*3 15.4 C 0 km/h
3100 24-06-2011 19:29:14 17.2 C 7.18 g/m*3 17.2 C 0 km/h
Sensor: Nr:Datum:Temp:Abs-Feuchte:Windchill:Wind:
Aussen-T/F 3101 24-06-2011 19:41:14 19.4 C 7.01 g/m*3 19.4 C 0 km/h
3102 24-06-2011 19:53:14 17 C 6.95 g/m*3 17 C 0 km/h
3103 24-06-2011 20:05:14 15.9 C 7.18 g/m*3 15.9 C 0 km/h
3104 24-06-2011 20:17:14 15.4 C 7.62 g/m*3 15.4 C 0 km/h
3105 24-06-2011 20:29:14 15 C 7.82 g/m*3 15 C 0 km/h
3106 24-06-2011 20:41:14 14.8 C 7.98 g/m*3 14.8 C 0 km/h
3107 24-06-2011 20:53:14 15.2 C 7.66 g/m*3 15.2 C 0 km/h
3108 24-06-2011 21:05:14 14.7 C 7.93 g/m*3 14.7 C 0 km/h
3109 24-06-2011 21:17:14 13.5 C 8.07 g/m*3 13.5 C 0 km/h
3110 24-06-2011 21:29:14 12.7 C 8.24 g/m*3 12.7 C 0 km/h
3111 24-06-2011 21:41:14 12.3 C 8.14 g/m*3 12.3 C 0 km/h
3112 24-06-2011 21:53:14 12.2 C 7.88 g/m*3 12.2 C 0 km/h
3113 24-06-2011 22:05:14 11.7 C 7.84 g/m*3 11.7 C 0 km/h
3114 24-06-2011 22:17:14 11.2 C 7.7 g/m*3 11.2 C 0 km/h
3115 24-06-2011 22:29:14 11 C 7.71 g/m*3 11 C 0 km/h
3116 24-06-2011 22:41:14 11.1 C 7.86 g/m*3 11.1 C 0 km/h
3117 24-06-2011 22:53:14 10.8 C 7.81 g/m*3 10.8 C 0 km/h
3118 24-06-2011 23:05:14 10.3 C 7.66 g/m*3 10.3 C 0 km/h
3119 24-06-2011 23:17:14 10.7 C 8.05 g/m*3 10.7 C 0 km/h
3120 24-06-2011 23:29:15 11 C 8.21 g/m*3 11 C 0 km/h
3121 24-06-2011 23:41:15 10.5 C 7.95 g/m*3 10.5 C 0 km/h
3122 24-06-2011 23:53:15 10.4 C 7.9 g/m*3 10.4 C 0 km/h
3123 25-06-2011 00:05:15 11 C 8.31 g/m*3 11 C 0 km/h
3124 25-06-2011 00:17:15 11.1 C 8.36 g/m*3 11.1 C 0 km/h
3125 25-06-2011 00:29:15 11.1 C 8.36 g/m*3 11.1 C 0 km/h
Sensor: Nr:Datum:Temp:Abs-Feuchte:Windchill:Wind:
Aussen-T/F 3126 25-06-2011 00:41:15 11.2 C 8.31 g/m*3 11.2 C 0 km/h
3127 25-06-2011 00:53:15 11.3 C 8.36 g/m*3 11.3 C 0 km/h
3128 25-06-2011 01:05:15 11.2 C 8.31 g/m*3 11.2 C 0 km/h
3129 25-06-2011 01:17:15 11 C 8.21 g/m*3 11 C 0 km/h
3130 25-06-2011 01:29:15 10.9 C 8.26 g/m*3 10.9 C 0 km/h
3131 25-06-2011 01:41:15 11 C 8.31 g/m*3 11 C 0 km/h
3132 25-06-2011 01:53:15 11 C 8.41 g/m*3 11 C 0 km/h
3133 25-06-2011 02:05:15 11 C 8.41 g/m*3 11 C 0 km/h
3134 25-06-2011 02:17:15 11 C 8.41 g/m*3 11 C 0 km/h
3135 25-06-2011 02:29:15 10.9 C 8.36 g/m*3 10.9 C 0 km/h
3136 25-06-2011 02:41:15 10.9 C 8.36 g/m*3 10.9 C 0 km/h
3137 25-06-2011 02:53:15 10.9 C 8.36 g/m*3 10.9 C 0 km/h
3138 25-06-2011 03:05:15 11.2 C 8.51 g/m*3 11.2 C 0 km/h
3139 25-06-2011 03:17:15 11.1 C 8.46 g/m*3 11.1 C 0 km/h
3140 25-06-2011 03:29:16 11.1 C 8.46 g/m*3 11.1 C 0 km/h
3141 25-06-2011 03:41:16 11.2 C 8.51 g/m*3 11.2 C 0 km/h
3142 25-06-2011 03:53:16 11.1 C 8.46 g/m*3 11.1 C 0 km/h
3143 25-06-2011 04:05:16 11.1 C 8.36 g/m*3 11.1 C 0 km/h
3144 25-06-2011 04:17:16 11 C 8.41 g/m*3 11 C 0 km/h
3145 25-06-2011 04:29:16 10.9 C 8.36 g/m*3 10.9 C 0 km/h
3146 25-06-2011 04:41:16 11 C 8.41 g/m*3 11 C 0 km/h
3147 25-06-2011 04:53:16 10.7 C 8.35 g/m*3 10.7 C 0 km/h
3148 25-06-2011 05:05:16 10.4 C 8.19 g/m*3 10.4 C 0 km/h
3149 25-06-2011 05:17:16 10.5 C 8.24 g/m*3 10.5 C 0 km/h
3150 25-06-2011 05:29:16 10.4 C 8.29 g/m*3 10.4 C 0 km/h
Sensor: Nr:Datum:Temp:Abs-Feuchte:Windchill:Wind:
Aussen-T/F 3151 25-06-2011 05:41:16 10.3 C 8.24 g/m*3 10.3 C 0 km/h
3152 25-06-2011 05:53:16 10.4 C 8.29 g/m*3 10.4 C 0 km/h
3153 25-06-2011 06:05:16 10.4 C 8.29 g/m*3 10.4 C 0 km/h
3154 25-06-2011 06:17:16 11 C 8.61 g/m*3 11 C 0 km/h
3155 25-06-2011 06:29:16 11.3 C 8.67 g/m*3 11.3 C 0 km/h
3156 25-06-2011 06:41:16 11.7 C 8.68 g/m*3 11.7 C 0 km/h
3157 25-06-2011 06:53:16 12 C 8.53 g/m*3 12 C 0 km/h
3158 25-06-2011 07:05:16 12.3 C 8.47 g/m*3 12.3 C 0 km/h
3159 25-06-2011 07:17:16 12.4 C 8.41 g/m*3 12.4 C 0 km/h
3160 25-06-2011 07:29:17 12.6 C 8.52 g/m*3 12.6 C 0 km/h
3161 25-06-2011 07:41:17 12.9 C 8.57 g/m*3 12.9 C 0 km/h
3162 25-06-2011 07:53:17 13.1 C 8.33 g/m*3 13.1 C 0 km/h
3163 25-06-2011 08:05:17 13.4 C 8.37 g/m*3 13.4 C 0 km/h
3164 25-06-2011 08:17:17 13.8 C 8.46 g/m*3 13.8 C 0 km/h
3165 25-06-2011 08:29:17 14.5 C 8.33 g/m*3 14.5 C 0 km/h
3166 25-06-2011 08:41:17 14.4 C 8.03 g/m*3 14.4 C 0 km/h
3167 25-06-2011 08:53:17 14.3 C 7.99 g/m*3 14.3 C 0 km/h
3168 25-06-2011 09:05:17 14.3 C 7.86 g/m*3 14.3 C 0 km/h
3169 25-06-2011 09:17:17 14.3 C 7.86 g/m*3 14.3 C 0 km/h
3170 25-06-2011 09:29:17 13.8 C 7.98 g/m*3 13.8 C 0 km/h
3171 25-06-2011 09:41:17 13.9 C 8.27 g/m*3 13.9 C 0 km/h
3172 25-06-2011 09:53:17 13.6 C 8.59 g/m*3 13.6 C 0 km/h
3173 25-06-2011 10:05:17 13.5 C 8.77 g/m*3 13.5 C 0 km/h
3174 25-06-2011 10:17:17 13.4 C 8.83 g/m*3 13.4 C 0 km/h
3175 25-06-2011 10:29:17 13.1 C 8.56 g/m*3 13.1 C 0 km/h
Sensor: Nr:Datum:Temp:Abs-Feuchte:Windchill:Wind:
Aussen-T/F 3176 25-06-2011 10:41:17 12.6 C 7.97 g/m*3 12.6 C 0 km/h
3177 25-06-2011 10:53:17 12.9 C 8.23 g/m*3 12.9 C 0 km/h
3178 25-06-2011 11:05:17 12.8 C 8.18 g/m*3 12.8 C 0 km/h
3179 25-06-2011 11:17:17 12.8 C 8.29 g/m*3 12.8 C 0 km/h
3180 25-06-2011 11:29:18 12.8 C 8.51 g/m*3 12.8 C 0 km/h
3181 25-06-2011 11:41:18 12.6 C 8.19 g/m*3 12.6 C 0 km/h
3182 25-06-2011 11:53:18 13 C 8.39 g/m*3 13 C 0 km/h
3183 25-06-2011 12:05:18 13.4 C 8.6 g/m*3 13.4 C 0 km/h
3184 25-06-2011 12:17:18 14.4 C 8.65 g/m*3 14.4 C 0 km/h
3185 25-06-2011 12:29:18 15.5 C 8.72 g/m*3 15.5 C 0 km/h
3186 25-06-2011 12:41:18 15.3 C 8.1 g/m*3 15.3 C 0 km/h
3187 25-06-2011 12:53:18 15.1 C 8.39 g/m*3 15.1 C 0 km/h
3188 25-06-2011 13:05:18 15.5 C 8.59 g/m*3 15.5 C 0 km/h
3189 25-06-2011 13:17:18 15 C 8.46 g/m*3 15 C 0 km/h
3190 25-06-2011 13:29:18 14.6 C 8.26 g/m*3 14.6 C 0 km/h
3191 25-06-2011 13:41:18 15.3 C 8.36 g/m*3 15.3 C 0 km/h
3192 25-06-2011 13:53:18 15.7 C 8.43 g/m*3 15.7 C 0 km/h
3193 25-06-2011 14:05:18 14.6 C 8.63 g/m*3 14.6 C 0 km/h
3194 25-06-2011 14:17:18 14.9 C 8.92 g/m*3 14.9 C 0 km/h
3195 25-06-2011 14:29:18 14.5 C 8.58 g/m*3 14.5 C 0 km/h
3196 25-06-2011 14:41:18 14.2 C 8.55 g/m*3 14.2 C 0 km/h
3197 25-06-2011 14:53:18 14.1 C 8.74 g/m*3 14.1 C 0 km/h
3198 25-06-2011 15:05:18 14 C 8.68 g/m*3 14 C 0 km/h
3199 25-06-2011 15:17:18 14.3 C 9.09 g/m*3 14.3 C 0 km/h
3200 25-06-2011 15:29:19 14.2 C 9.16 g/m*3 14.2 C 0 km/h
Sensor: Nr:Datum:Temp:Abs-Feuchte:Windchill:Wind:
Aussen-T/F 3201 25-06-2011 15:41:19 14.4 C 9.39 g/m*3 14.4 C 0 km/h
3202 25-06-2011 15:53:19 14.3 C 9.58 g/m*3 14.3 C 0 km/h
3203 25-06-2011 16:05:19 14.4 C 9.77 g/m*3 14.4 C 0 km/h
3204 25-06-2011 16:17:19 14.2 C 9.77 g/m*3 14.2 C 0 km/h
3205 25-06-2011 16:29:19 14.5 C 10.07 g/m*3 14.5 C 0 km/h
3206 25-06-2011 16:41:19 14.8 C 10.13 g/m*3 14.8 C 0 km/h
3207 25-06-2011 16:53:19 14.8 C 10.01 g/m*3 14.8 C 0 km/h
3208 25-06-2011 17:05:19 14.8 C 10.01 g/m*3 14.8 C 0 km/h
3209 25-06-2011 17:17:19 14.8 C 10.01 g/m*3 14.8 C 0 km/h
3210 25-06-2011 17:29:19 15.4 C 10.38 g/m*3 15.4 C 0 km/h
3211 25-06-2011 17:41:19 15.5 C 10.18 g/m*3 15.5 C 0 km/h
3212 25-06-2011 17:53:19 15.7 C 10.3 g/m*3 15.7 C 0 km/h
3213 25-06-2011 18:05:19 15.6 C 10.24 g/m*3 15.6 C 0 km/h
3214 25-06-2011 18:17:19 15.4 C 10.12 g/m*3 15.4 C 0 km/h
3215 25-06-2011 18:29:19 15.2 C 10.12 g/m*3 15.2 C 0 km/h
3216 25-06-2011 18:41:19 15.1 C 10.06 g/m*3 15.1 C 0 km/h
3217 25-06-2011 18:53:19 15 C 10.13 g/m*3 15 C 0 km/h
3218 25-06-2011 19:05:19 15 C 10.26 g/m*3 15 C 0 km/h
3219 25-06-2011 19:17:19 15 C 10.26 g/m*3 15 C 0 km/h
3220 25-06-2011 19:29:20 15 C 10.26 g/m*3 15 C 0 km/h
3221 25-06-2011 19:41:20 15 C 10.26 g/m*3 15 C 0 km/h
3222 25-06-2011 19:53:20 15 C 10.26 g/m*3 15 C 0 km/h
3223 25-06-2011 20:05:20 15 C 10.26 g/m*3 15 C 0 km/h
3224 25-06-2011 20:17:20 15 C 10.26 g/m*3 15 C 0 km/h
3225 25-06-2011 20:29:20 15 C 10.26 g/m*3 15 C 0 km/h
Sensor: Nr:Datum:Temp: